<?xml version="1.0" encoding="UTF-8" standalone="no" ?>
<gpx xmlns="http://www.topografix.com/GPX/1/1" xmlns:xsi="http://www.w3.org/2001/XMLSchema-instance" xsi:schemaLocation="http://www.topografix.com/GPX/1/1 http://www.topografix.com/GPX/1/1/gpx.xsd" version="1.1" creator="VisuGPX - https://www.visugpx.com">
  <metadata>
    <name>Le Flanc Nord  du Petit Luberon par le Vallon de Combrès</name>
    <desc><![CDATA[vallon de Combrès - le Bastidon du Pradon - retour par le GR6 - visite du vieux village ]]></desc>
  </metadata>
  <trk>
    <name><![CDATA[OPPEDES-16]]></name>
    <trkseg>
      <trkpt lat="43.83115" lon="5.15917">
        <ele>218.36</ele>
        <time>2016-03-24T09:26:59Z</time>
      </trkpt>
      <trkpt lat="43.83114" lon="5.15918">
        <ele>218.84</ele>
        <time>2016-03-24T09:27:24Z</time>
      </trkpt>
      <trkpt lat="43.83114" lon="5.15918">
        <ele>218.84</ele>
        <time>2016-03-24T09:27:46Z</time>
      </trkpt>
      <trkpt lat="43.83115" lon="5.15918">
        <ele>218.36</ele>
        <time>2016-03-24T09:27:59Z</time>
      </trkpt>
      <trkpt lat="43.83112" lon="5.15918">
        <ele>218.36</ele>
        <time>2016-03-24T09:28:14Z</time>
      </trkpt>
      <trkpt lat="43.83113" lon="5.15918">
        <ele>218.84</ele>
        <time>2016-03-24T09:28:35Z</time>
      </trkpt>
      <trkpt lat="43.83113" lon="5.15918">
        <ele>218.84</ele>
        <time>2016-03-24T09:28:51Z</time>
      </trkpt>
      <trkpt lat="43.83113" lon="5.15918">
        <ele>218.84</ele>
        <time>2016-03-24T09:29:09Z</time>
      </trkpt>
      <trkpt lat="43.83111" lon="5.15917">
        <ele>218.84</ele>
        <time>2016-03-24T09:29:33Z</time>
      </trkpt>
      <trkpt lat="43.83111" lon="5.1592">
        <ele>218.84</ele>
        <time>2016-03-24T09:29:44Z</time>
      </trkpt>
      <trkpt lat="43.83112" lon="5.1592">
        <ele>218.84</ele>
        <time>2016-03-24T09:30:02Z</time>
      </trkpt>
      <trkpt lat="43.83112" lon="5.1592">
        <ele>218.84</ele>
        <time>2016-03-24T09:30:23Z</time>
      </trkpt>
      <trkpt lat="43.83112" lon="5.15921">
        <ele>218.84</ele>
        <time>2016-03-24T09:30:39Z</time>
      </trkpt>
      <trkpt lat="43.83111" lon="5.15921">
        <ele>218.84</ele>
        <time>2016-03-24T09:30:59Z</time>
      </trkpt>
      <trkpt lat="43.83111" lon="5.15922">
        <ele>218.84</ele>
        <time>2016-03-24T09:31:12Z</time>
      </trkpt>
      <trkpt lat="43.8311" lon="5.15923">
        <ele>218.84</ele>
        <time>2016-03-24T09:31:26Z</time>
      </trkpt>
      <trkpt lat="43.8311" lon="5.15923">
        <ele>219.32</ele>
        <time>2016-03-24T09:31:48Z</time>
      </trkpt>
      <trkpt lat="43.83109" lon="5.15922">
        <ele>219.32</ele>
        <time>2016-03-24T09:32:02Z</time>
      </trkpt>
      <trkpt lat="43.8311" lon="5.15925">
        <ele>219.32</ele>
        <time>2016-03-24T09:32:18Z</time>
      </trkpt>
      <trkpt lat="43.83108" lon="5.15927">
        <ele>219.8</ele>
        <time>2016-03-24T09:32:33Z</time>
      </trkpt>
      <trkpt lat="43.83103" lon="5.15938">
        <ele>219.8</ele>
        <time>2016-03-24T09:32:48Z</time>
      </trkpt>
      <trkpt lat="43.83102" lon="5.15943">
        <ele>219.32</ele>
        <time>2016-03-24T09:33:05Z</time>
      </trkpt>
      <trkpt lat="43.83104" lon="5.15945">
        <ele>219.32</ele>
        <time>2016-03-24T09:33:30Z</time>
      </trkpt>
      <trkpt lat="43.83101" lon="5.15954">
        <ele>219.32</ele>
        <time>2016-03-24T09:33:42Z</time>
      </trkpt>
      <trkpt lat="43.83091" lon="5.15969">
        <ele>219.8</ele>
        <time>2016-03-24T09:33:58Z</time>
      </trkpt>
      <trkpt lat="43.8309" lon="5.15985">
        <ele>219.8</ele>
        <time>2016-03-24T09:34:12Z</time>
      </trkpt>
      <trkpt lat="43.83091" lon="5.1599">
        <ele>219.8</ele>
        <time>2016-03-24T09:34:16Z</time>
      </trkpt>
      <trkpt lat="43.83091" lon="5.16004">
        <ele>218.84</ele>
        <time>2016-03-24T09:34:27Z</time>
      </trkpt>
      <trkpt lat="43.83084" lon="5.16019">
        <ele>220.76</ele>
        <time>2016-03-24T09:34:41Z</time>
      </trkpt>
      <trkpt lat="43.83075" lon="5.16023">
        <ele>223.64</ele>
        <time>2016-03-24T09:34:56Z</time>
      </trkpt>
      <trkpt lat="43.83064" lon="5.16022">
        <ele>226.05</ele>
        <time>2016-03-24T09:35:12Z</time>
      </trkpt>
      <trkpt lat="43.83056" lon="5.16023">
        <ele>228.93</ele>
        <time>2016-03-24T09:35:23Z</time>
      </trkpt>
      <trkpt lat="43.83043" lon="5.16035">
        <ele>228.93</ele>
        <time>2016-03-24T09:35:38Z</time>
      </trkpt>
      <trkpt lat="43.83044" lon="5.16048">
        <ele>228.45</ele>
        <time>2016-03-24T09:35:50Z</time>
      </trkpt>
      <trkpt lat="43.83041" lon="5.16055">
        <ele>229.89</ele>
        <time>2016-03-24T09:36:03Z</time>
      </trkpt>
      <trkpt lat="43.83035" lon="5.1606">
        <ele>230.37</ele>
        <time>2016-03-24T09:36:09Z</time>
      </trkpt>
      <trkpt lat="43.83023" lon="5.16078">
        <ele>230.37</ele>
        <time>2016-03-24T09:36:25Z</time>
      </trkpt>
      <trkpt lat="43.83018" lon="5.16095">
        <ele>229.89</ele>
        <time>2016-03-24T09:36:40Z</time>
      </trkpt>
      <trkpt lat="43.83011" lon="5.16103">
        <ele>229.89</ele>
        <time>2016-03-24T09:36:48Z</time>
      </trkpt>
      <trkpt lat="43.83007" lon="5.16126">
        <ele>229.89</ele>
        <time>2016-03-24T09:37:05Z</time>
      </trkpt>
      <trkpt lat="43.83002" lon="5.16136">
        <ele>230.37</ele>
        <time>2016-03-24T09:37:13Z</time>
      </trkpt>
      <trkpt lat="43.82992" lon="5.16149">
        <ele>233.26</ele>
        <time>2016-03-24T09:37:29Z</time>
      </trkpt>
      <trkpt lat="43.8299" lon="5.16151">
        <ele>233.74</ele>
        <time>2016-03-24T09:37:31Z</time>
      </trkpt>
      <trkpt lat="43.82982" lon="5.16166">
        <ele>236.62</ele>
        <time>2016-03-24T09:37:46Z</time>
      </trkpt>
      <trkpt lat="43.82974" lon="5.16178">
        <ele>238.54</ele>
        <time>2016-03-24T09:38:01Z</time>
      </trkpt>
      <trkpt lat="43.82968" lon="5.16199">
        <ele>239.99</ele>
        <time>2016-03-24T09:38:16Z</time>
      </trkpt>
      <trkpt lat="43.82967" lon="5.16206">
        <ele>240.95</ele>
        <time>2016-03-24T09:38:28Z</time>
      </trkpt>
      <trkpt lat="43.82959" lon="5.16214">
        <ele>243.83</ele>
        <time>2016-03-24T09:38:42Z</time>
      </trkpt>
      <trkpt lat="43.8296" lon="5.16214">
        <ele>243.83</ele>
        <time>2016-03-24T09:38:45Z</time>
      </trkpt>
      <trkpt lat="43.82958" lon="5.16213">
        <ele>243.83</ele>
        <time>2016-03-24T09:38:48Z</time>
      </trkpt>
      <trkpt lat="43.82943" lon="5.16206">
        <ele>245.27</ele>
        <time>2016-03-24T09:39:01Z</time>
      </trkpt>
      <trkpt lat="43.82936" lon="5.16201">
        <ele>245.75</ele>
        <time>2016-03-24T09:39:09Z</time>
      </trkpt>
      <trkpt lat="43.82932" lon="5.16197">
        <ele>245.75</ele>
        <time>2016-03-24T09:39:21Z</time>
      </trkpt>
      <trkpt lat="43.82931" lon="5.16196">
        <ele>245.75</ele>
        <time>2016-03-24T09:39:24Z</time>
      </trkpt>
      <trkpt lat="43.8292" lon="5.16189">
        <ele>246.23</ele>
        <time>2016-03-24T09:39:38Z</time>
      </trkpt>
      <trkpt lat="43.82914" lon="5.16178">
        <ele>245.75</ele>
        <time>2016-03-24T09:39:49Z</time>
      </trkpt>
      <trkpt lat="43.82907" lon="5.1616">
        <ele>244.79</ele>
        <time>2016-03-24T09:40:05Z</time>
      </trkpt>
      <trkpt lat="43.82902" lon="5.16147">
        <ele>244.31</ele>
        <time>2016-03-24T09:40:21Z</time>
      </trkpt>
      <trkpt lat="43.829" lon="5.16146">
        <ele>243.83</ele>
        <time>2016-03-24T09:40:23Z</time>
      </trkpt>
      <trkpt lat="43.82896" lon="5.16136">
        <ele>242.87</ele>
        <time>2016-03-24T09:40:29Z</time>
      </trkpt>
      <trkpt lat="43.82881" lon="5.16128">
        <ele>241.43</ele>
        <time>2016-03-24T09:40:47Z</time>
      </trkpt>
      <trkpt lat="43.82867" lon="5.1612">
        <ele>239.99</ele>
        <time>2016-03-24T09:41:06Z</time>
      </trkpt>
      <trkpt lat="43.8285" lon="5.16116">
        <ele>238.54</ele>
        <time>2016-03-24T09:41:24Z</time>
      </trkpt>
      <trkpt lat="43.82845" lon="5.16118">
        <ele>239.02</ele>
        <time>2016-03-24T09:41:37Z</time>
      </trkpt>
      <trkpt lat="43.82842" lon="5.16118">
        <ele>239.02</ele>
        <time>2016-03-24T09:41:44Z</time>
      </trkpt>
      <trkpt lat="43.82839" lon="5.16115">
        <ele>239.02</ele>
        <time>2016-03-24T09:41:55Z</time>
      </trkpt>
      <trkpt lat="43.82843" lon="5.16117">
        <ele>239.02</ele>
        <time>2016-03-24T09:42:10Z</time>
      </trkpt>
      <trkpt lat="43.82839" lon="5.16119">
        <ele>239.51</ele>
        <time>2016-03-24T09:42:25Z</time>
      </trkpt>
      <trkpt lat="43.82834" lon="5.1611">
        <ele>239.99</ele>
        <time>2016-03-24T09:42:36Z</time>
      </trkpt>
      <trkpt lat="43.82834" lon="5.161">
        <ele>239.99</ele>
        <time>2016-03-24T09:42:48Z</time>
      </trkpt>
      <trkpt lat="43.82826" lon="5.16099">
        <ele>240.47</ele>
        <time>2016-03-24T09:43:05Z</time>
      </trkpt>
      <trkpt lat="43.82825" lon="5.16094">
        <ele>241.43</ele>
        <time>2016-03-24T09:43:19Z</time>
      </trkpt>
      <trkpt lat="43.82829" lon="5.16088">
        <ele>240.47</ele>
        <time>2016-03-24T09:43:31Z</time>
      </trkpt>
      <trkpt lat="43.8283" lon="5.16083">
        <ele>240.95</ele>
        <time>2016-03-24T09:43:34Z</time>
      </trkpt>
      <trkpt lat="43.82827" lon="5.16075">
        <ele>238.06</ele>
        <time>2016-03-24T09:43:43Z</time>
      </trkpt>
      <trkpt lat="43.82841" lon="5.16084">
        <ele>238.06</ele>
        <time>2016-03-24T09:43:54Z</time>
      </trkpt>
      <trkpt lat="43.82846" lon="5.16086">
        <ele>238.06</ele>
        <time>2016-03-24T09:44:00Z</time>
      </trkpt>
      <trkpt lat="43.82861" lon="5.1607">
        <ele>236.62</ele>
        <time>2016-03-24T09:44:17Z</time>
      </trkpt>
      <trkpt lat="43.82862" lon="5.16067">
        <ele>236.14</ele>
        <time>2016-03-24T09:44:31Z</time>
      </trkpt>
      <trkpt lat="43.82865" lon="5.16058">
        <ele>232.78</ele>
        <time>2016-03-24T09:44:46Z</time>
      </trkpt>
      <trkpt lat="43.82867" lon="5.16046">
        <ele>229.89</ele>
        <time>2016-03-24T09:44:59Z</time>
      </trkpt>
      <trkpt lat="43.82874" lon="5.16032">
        <ele>227.01</ele>
        <time>2016-03-24T09:45:15Z</time>
      </trkpt>
      <trkpt lat="43.82874" lon="5.1603">
        <ele>227.01</ele>
        <time>2016-03-24T09:45:32Z</time>
      </trkpt>
      <trkpt lat="43.82882" lon="5.16023">
        <ele>225.09</ele>
        <time>2016-03-24T09:45:46Z</time>
      </trkpt>
      <trkpt lat="43.82891" lon="5.16014">
        <ele>223.64</ele>
        <time>2016-03-24T09:45:58Z</time>
      </trkpt>
      <trkpt lat="43.82899" lon="5.16">
        <ele>222.2</ele>
        <time>2016-03-24T09:46:11Z</time>
      </trkpt>
      <trkpt lat="43.82906" lon="5.15987">
        <ele>219.8</ele>
        <time>2016-03-24T09:46:29Z</time>
      </trkpt>
      <trkpt lat="43.82914" lon="5.15974">
        <ele>218.36</ele>
        <time>2016-03-24T09:46:45Z</time>
      </trkpt>
      <trkpt lat="43.8292" lon="5.15964">
        <ele>217.4</ele>
        <time>2016-03-24T09:46:55Z</time>
      </trkpt>
      <trkpt lat="43.82923" lon="5.15956">
        <ele>216.43</ele>
        <time>2016-03-24T09:47:03Z</time>
      </trkpt>
      <trkpt lat="43.82923" lon="5.15948">
        <ele>215.47</ele>
        <time>2016-03-24T09:47:10Z</time>
      </trkpt>
      <trkpt lat="43.8292" lon="5.15932">
        <ele>214.51</ele>
        <time>2016-03-24T09:47:23Z</time>
      </trkpt>
      <trkpt lat="43.82912" lon="5.15924">
        <ele>213.07</ele>
        <time>2016-03-24T09:47:35Z</time>
      </trkpt>
      <trkpt lat="43.82902" lon="5.15915">
        <ele>211.15</ele>
        <time>2016-03-24T09:47:50Z</time>
      </trkpt>
      <trkpt lat="43.82895" lon="5.15902">
        <ele>210.19</ele>
        <time>2016-03-24T09:48:04Z</time>
      </trkpt>
      <trkpt lat="43.8289" lon="5.15893">
        <ele>209.22</ele>
        <time>2016-03-24T09:48:14Z</time>
      </trkpt>
      <trkpt lat="43.82884" lon="5.1588">
        <ele>208.26</ele>
        <time>2016-03-24T09:48:24Z</time>
      </trkpt>
      <trkpt lat="43.82879" lon="5.1587">
        <ele>207.3</ele>
        <time>2016-03-24T09:48:32Z</time>
      </trkpt>
      <trkpt lat="43.82875" lon="5.1586">
        <ele>206.34</ele>
        <time>2016-03-24T09:48:42Z</time>
      </trkpt>
      <trkpt lat="43.82878" lon="5.15838">
        <ele>203.46</ele>
        <time>2016-03-24T09:48:56Z</time>
      </trkpt>
      <trkpt lat="43.82878" lon="5.15835">
        <ele>202.98</ele>
        <time>2016-03-24T09:48:59Z</time>
      </trkpt>
      <trkpt lat="43.82885" lon="5.15816">
        <ele>200.57</ele>
        <time>2016-03-24T09:49:13Z</time>
      </trkpt>
      <trkpt lat="43.82888" lon="5.1581">
        <ele>199.13</ele>
        <time>2016-03-24T09:49:18Z</time>
      </trkpt>
      <trkpt lat="43.82893" lon="5.15791">
        <ele>197.21</ele>
        <time>2016-03-24T09:49:32Z</time>
      </trkpt>
      <trkpt lat="43.82896" lon="5.1578">
        <ele>195.77</ele>
        <time>2016-03-24T09:49:40Z</time>
      </trkpt>
      <trkpt lat="43.82901" lon="5.15773">
        <ele>195.28</ele>
        <time>2016-03-24T09:49:46Z</time>
      </trkpt>
      <trkpt lat="43.82902" lon="5.15771">
        <ele>194.8</ele>
        <time>2016-03-24T09:49:48Z</time>
      </trkpt>
      <trkpt lat="43.82904" lon="5.15765">
        <ele>194.32</ele>
        <time>2016-03-24T09:49:52Z</time>
      </trkpt>
      <trkpt lat="43.82906" lon="5.15763">
        <ele>193.84</ele>
        <time>2016-03-24T09:49:54Z</time>
      </trkpt>
      <trkpt lat="43.82907" lon="5.15753">
        <ele>192.88</ele>
        <time>2016-03-24T09:50:01Z</time>
      </trkpt>
      <trkpt lat="43.82908" lon="5.15748">
        <ele>192.4</ele>
        <time>2016-03-24T09:50:05Z</time>
      </trkpt>
      <trkpt lat="43.82914" lon="5.15728">
        <ele>190.48</ele>
        <time>2016-03-24T09:50:18Z</time>
      </trkpt>
      <trkpt lat="43.82915" lon="5.15724">
        <ele>190</ele>
        <time>2016-03-24T09:50:20Z</time>
      </trkpt>
      <trkpt lat="43.82918" lon="5.15718">
        <ele>189.52</ele>
        <time>2016-03-24T09:50:24Z</time>
      </trkpt>
      <trkpt lat="43.82919" lon="5.15705">
        <ele>189.04</ele>
        <time>2016-03-24T09:50:31Z</time>
      </trkpt>
      <trkpt lat="43.82917" lon="5.15701">
        <ele>189.52</ele>
        <time>2016-03-24T09:50:34Z</time>
      </trkpt>
      <trkpt lat="43.82917" lon="5.1569">
        <ele>188.08</ele>
        <time>2016-03-24T09:50:46Z</time>
      </trkpt>
      <trkpt lat="43.82917" lon="5.1569">
        <ele>188.56</ele>
        <time>2016-03-24T09:51:07Z</time>
      </trkpt>
      <trkpt lat="43.82918" lon="5.15691">
        <ele>188.56</ele>
        <time>2016-03-24T09:51:30Z</time>
      </trkpt>
      <trkpt lat="43.82917" lon="5.15691">
        <ele>189.04</ele>
        <time>2016-03-24T09:51:53Z</time>
      </trkpt>
      <trkpt lat="43.82909" lon="5.15677">
        <ele>188.56</ele>
        <time>2016-03-24T09:52:10Z</time>
      </trkpt>
      <trkpt lat="43.82899" lon="5.15665">
        <ele>188.08</ele>
        <time>2016-03-24T09:52:24Z</time>
      </trkpt>
      <trkpt lat="43.82892" lon="5.1566">
        <ele>187.59</ele>
        <time>2016-03-24T09:52:36Z</time>
      </trkpt>
      <trkpt lat="43.82877" lon="5.15653">
        <ele>186.63</ele>
        <time>2016-03-24T09:52:51Z</time>
      </trkpt>
      <trkpt lat="43.82874" lon="5.15654">
        <ele>185.67</ele>
        <time>2016-03-24T09:53:05Z</time>
      </trkpt>
      <trkpt lat="43.82857" lon="5.15651">
        <ele>185.67</ele>
        <time>2016-03-24T09:53:20Z</time>
      </trkpt>
      <trkpt lat="43.82839" lon="5.15653">
        <ele>186.15</ele>
        <time>2016-03-24T09:53:34Z</time>
      </trkpt>
      <trkpt lat="43.82825" lon="5.15653">
        <ele>186.15</ele>
        <time>2016-03-24T09:53:48Z</time>
      </trkpt>
      <trkpt lat="43.82815" lon="5.15651">
        <ele>186.63</ele>
        <time>2016-03-24T09:54:00Z</time>
      </trkpt>
      <trkpt lat="43.82792" lon="5.15647">
        <ele>187.59</ele>
        <time>2016-03-24T09:54:16Z</time>
      </trkpt>
      <trkpt lat="43.82779" lon="5.1565">
        <ele>188.08</ele>
        <time>2016-03-24T09:54:33Z</time>
      </trkpt>
      <trkpt lat="43.82768" lon="5.15645">
        <ele>189.04</ele>
        <time>2016-03-24T09:54:45Z</time>
      </trkpt>
      <trkpt lat="43.82746" lon="5.15645">
        <ele>189.52</ele>
        <time>2016-03-24T09:55:02Z</time>
      </trkpt>
      <trkpt lat="43.82735" lon="5.1564">
        <ele>190</ele>
        <time>2016-03-24T09:55:16Z</time>
      </trkpt>
      <trkpt lat="43.82726" lon="5.15641">
        <ele>190.96</ele>
        <time>2016-03-24T09:55:36Z</time>
      </trkpt>
      <trkpt lat="43.82722" lon="5.15638">
        <ele>191.92</ele>
        <time>2016-03-24T09:55:54Z</time>
      </trkpt>
      <trkpt lat="43.82703" lon="5.1563">
        <ele>191.92</ele>
        <time>2016-03-24T09:56:13Z</time>
      </trkpt>
      <trkpt lat="43.82692" lon="5.15618">
        <ele>192.88</ele>
        <time>2016-03-24T09:56:25Z</time>
      </trkpt>
      <trkpt lat="43.82683" lon="5.15606">
        <ele>193.84</ele>
        <time>2016-03-24T09:56:39Z</time>
      </trkpt>
      <trkpt lat="43.82675" lon="5.156">
        <ele>194.8</ele>
        <time>2016-03-24T09:56:54Z</time>
      </trkpt>
      <trkpt lat="43.82669" lon="5.15603">
        <ele>195.77</ele>
        <time>2016-03-24T09:57:12Z</time>
      </trkpt>
      <trkpt lat="43.82668" lon="5.15604">
        <ele>195.77</ele>
        <time>2016-03-24T09:57:33Z</time>
      </trkpt>
      <trkpt lat="43.82659" lon="5.15607">
        <ele>197.21</ele>
        <time>2016-03-24T09:57:47Z</time>
      </trkpt>
      <trkpt lat="43.82645" lon="5.15607">
        <ele>198.17</ele>
        <time>2016-03-24T09:58:04Z</time>
      </trkpt>
      <trkpt lat="43.82633" lon="5.15611">
        <ele>197.69</ele>
        <time>2016-03-24T09:58:28Z</time>
      </trkpt>
      <trkpt lat="43.8263" lon="5.15611">
        <ele>197.69</ele>
        <time>2016-03-24T09:58:48Z</time>
      </trkpt>
      <trkpt lat="43.82628" lon="5.15614">
        <ele>199.13</ele>
        <time>2016-03-24T09:59:05Z</time>
      </trkpt>
      <trkpt lat="43.82629" lon="5.15612">
        <ele>201.05</ele>
        <time>2016-03-24T09:59:20Z</time>
      </trkpt>
      <trkpt lat="43.82619" lon="5.15613">
        <ele>203.94</ele>
        <time>2016-03-24T09:59:38Z</time>
      </trkpt>
      <trkpt lat="43.826" lon="5.15607">
        <ele>205.86</ele>
        <time>2016-03-24T09:59:53Z</time>
      </trkpt>
      <trkpt lat="43.82586" lon="5.15605">
        <ele>208.26</ele>
        <time>2016-03-24T10:00:08Z</time>
      </trkpt>
      <trkpt lat="43.82566" lon="5.156">
        <ele>210.19</ele>
        <time>2016-03-24T10:00:22Z</time>
      </trkpt>
      <trkpt lat="43.82546" lon="5.15595">
        <ele>212.11</ele>
        <time>2016-03-24T10:00:35Z</time>
      </trkpt>
      <trkpt lat="43.82531" lon="5.15591">
        <ele>214.99</ele>
        <time>2016-03-24T10:00:52Z</time>
      </trkpt>
      <trkpt lat="43.82519" lon="5.15589">
        <ele>217.4</ele>
        <time>2016-03-24T10:01:07Z</time>
      </trkpt>
      <trkpt lat="43.82503" lon="5.15584">
        <ele>218.36</ele>
        <time>2016-03-24T10:01:23Z</time>
      </trkpt>
      <trkpt lat="43.82499" lon="5.15583">
        <ele>219.32</ele>
        <time>2016-03-24T10:01:37Z</time>
      </trkpt>
      <trkpt lat="43.82496" lon="5.15582">
        <ele>219.32</ele>
        <time>2016-03-24T10:01:57Z</time>
      </trkpt>
      <trkpt lat="43.82486" lon="5.15583">
        <ele>219.32</ele>
        <time>2016-03-24T10:02:24Z</time>
      </trkpt>
      <trkpt lat="43.82492" lon="5.15583">
        <ele>218.84</ele>
        <time>2016-03-24T10:02:50Z</time>
      </trkpt>
      <trkpt lat="43.82489" lon="5.15583">
        <ele>218.84</ele>
        <time>2016-03-24T10:03:11Z</time>
      </trkpt>
      <trkpt lat="43.82486" lon="5.15587">
        <ele>218.36</ele>
        <time>2016-03-24T10:03:28Z</time>
      </trkpt>
      <trkpt lat="43.82478" lon="5.15592">
        <ele>220.76</ele>
        <time>2016-03-24T10:03:45Z</time>
      </trkpt>
      <trkpt lat="43.82476" lon="5.15589">
        <ele>222.68</ele>
        <time>2016-03-24T10:04:00Z</time>
      </trkpt>
      <trkpt lat="43.82477" lon="5.15584">
        <ele>225.09</ele>
        <time>2016-03-24T10:04:24Z</time>
      </trkpt>
      <trkpt lat="43.82424" lon="5.15577">
        <ele>227.97</ele>
        <time>2016-03-24T10:05:32Z</time>
      </trkpt>
      <trkpt lat="43.82426" lon="5.15583">
        <ele>228.45</ele>
        <time>2016-03-24T10:05:33Z</time>
      </trkpt>
      <trkpt lat="43.8244" lon="5.15581">
        <ele>229.89</ele>
        <time>2016-03-24T10:05:46Z</time>
      </trkpt>
      <trkpt lat="43.82442" lon="5.15578">
        <ele>230.85</ele>
        <time>2016-03-24T10:06:02Z</time>
      </trkpt>
      <trkpt lat="43.82442" lon="5.15572">
        <ele>232.78</ele>
        <time>2016-03-24T10:06:15Z</time>
      </trkpt>
      <trkpt lat="43.82429" lon="5.15568">
        <ele>234.7</ele>
        <time>2016-03-24T10:06:31Z</time>
      </trkpt>
      <trkpt lat="43.8243" lon="5.15565">
        <ele>237.1</ele>
        <time>2016-03-24T10:06:45Z</time>
      </trkpt>
      <trkpt lat="43.82424" lon="5.15559">
        <ele>238.54</ele>
        <time>2016-03-24T10:07:00Z</time>
      </trkpt>
      <trkpt lat="43.82412" lon="5.1556">
        <ele>240.95</ele>
        <time>2016-03-24T10:07:16Z</time>
      </trkpt>
      <trkpt lat="43.82396" lon="5.15557">
        <ele>241.91</ele>
        <time>2016-03-24T10:07:27Z</time>
      </trkpt>
      <trkpt lat="43.82389" lon="5.15557">
        <ele>244.31</ele>
        <time>2016-03-24T10:07:48Z</time>
      </trkpt>
      <trkpt lat="43.8238" lon="5.15561">
        <ele>245.27</ele>
        <time>2016-03-24T10:08:03Z</time>
      </trkpt>
      <trkpt lat="43.82367" lon="5.15562">
        <ele>246.72</ele>
        <time>2016-03-24T10:08:22Z</time>
      </trkpt>
      <trkpt lat="43.82358" lon="5.15561">
        <ele>247.68</ele>
        <time>2016-03-24T10:08:35Z</time>
      </trkpt>
      <trkpt lat="43.82353" lon="5.15561">
        <ele>248.16</ele>
        <time>2016-03-24T10:08:37Z</time>
      </trkpt>
      <trkpt lat="43.8234" lon="5.15561">
        <ele>249.6</ele>
        <time>2016-03-24T10:08:54Z</time>
      </trkpt>
      <trkpt lat="43.82339" lon="5.15556">
        <ele>251.52</ele>
        <time>2016-03-24T10:09:08Z</time>
      </trkpt>
      <trkpt lat="43.82335" lon="5.15551">
        <ele>253.44</ele>
        <time>2016-03-24T10:09:22Z</time>
      </trkpt>
      <trkpt lat="43.82331" lon="5.15548">
        <ele>255.37</ele>
        <time>2016-03-24T10:09:38Z</time>
      </trkpt>
      <trkpt lat="43.82324" lon="5.15549">
        <ele>255.85</ele>
        <time>2016-03-24T10:09:55Z</time>
      </trkpt>
      <trkpt lat="43.82314" lon="5.15552">
        <ele>255.85</ele>
        <time>2016-03-24T10:10:12Z</time>
      </trkpt>
      <trkpt lat="43.82311" lon="5.15554">
        <ele>254.89</ele>
        <time>2016-03-24T10:10:29Z</time>
      </trkpt>
      <trkpt lat="43.82301" lon="5.15559">
        <ele>254.89</ele>
        <time>2016-03-24T10:10:51Z</time>
      </trkpt>
      <trkpt lat="43.82301" lon="5.1556">
        <ele>255.37</ele>
        <time>2016-03-24T10:11:14Z</time>
      </trkpt>
      <trkpt lat="43.82306" lon="5.15559">
        <ele>255.85</ele>
        <time>2016-03-24T10:11:42Z</time>
      </trkpt>
      <trkpt lat="43.82296" lon="5.15566">
        <ele>255.85</ele>
        <time>2016-03-24T10:11:59Z</time>
      </trkpt>
      <trkpt lat="43.82268" lon="5.15577">
        <ele>256.33</ele>
        <time>2016-03-24T10:12:18Z</time>
      </trkpt>
      <trkpt lat="43.82242" lon="5.15591">
        <ele>256.81</ele>
        <time>2016-03-24T10:12:29Z</time>
      </trkpt>
      <trkpt lat="43.82198" lon="5.156">
        <ele>256.81</ele>
        <time>2016-03-24T10:12:42Z</time>
      </trkpt>
      <trkpt lat="43.82196" lon="5.15604">
        <ele>257.29</ele>
        <time>2016-03-24T10:12:52Z</time>
      </trkpt>
      <trkpt lat="43.82195" lon="5.15605">
        <ele>257.29</ele>
        <time>2016-03-24T10:12:53Z</time>
      </trkpt>
      <trkpt lat="43.82152" lon="5.15628">
        <ele>260.17</ele>
        <time>2016-03-24T10:13:25Z</time>
      </trkpt>
      <trkpt lat="43.82256" lon="5.15613">
        <ele>279.4</ele>
        <time>2016-03-24T10:17:42Z</time>
      </trkpt>
      <trkpt lat="43.82229" lon="5.1562">
        <ele>279.88</ele>
        <time>2016-03-24T10:18:03Z</time>
      </trkpt>
      <trkpt lat="43.82216" lon="5.15624">
        <ele>279.88</ele>
        <time>2016-03-24T10:18:25Z</time>
      </trkpt>
      <trkpt lat="43.82219" lon="5.1562">
        <ele>279.88</ele>
        <time>2016-03-24T10:18:44Z</time>
      </trkpt>
      <trkpt lat="43.82238" lon="5.15629">
        <ele>279.88</ele>
        <time>2016-03-24T10:19:12Z</time>
      </trkpt>
      <trkpt lat="43.81988" lon="5.15587">
        <ele>279.88</ele>
        <time>2016-03-24T10:20:14Z</time>
      </trkpt>
      <trkpt lat="43.82025" lon="5.1559">
        <ele>279.88</ele>
        <time>2016-03-24T10:20:39Z</time>
      </trkpt>
      <trkpt lat="43.82161" lon="5.15665">
        <ele>290.94</ele>
        <time>2016-03-24T10:22:04Z</time>
      </trkpt>
      <trkpt lat="43.82173" lon="5.15671">
        <ele>293.34</ele>
        <time>2016-03-24T10:22:18Z</time>
      </trkpt>
      <trkpt lat="43.82176" lon="5.15676">
        <ele>296.22</ele>
        <time>2016-03-24T10:22:32Z</time>
      </trkpt>
      <trkpt lat="43.82167" lon="5.15681">
        <ele>298.15</ele>
        <time>2016-03-24T10:22:48Z</time>
      </trkpt>
      <trkpt lat="43.82235" lon="5.15663">
        <ele>298.15</ele>
        <time>2016-03-24T10:23:09Z</time>
      </trkpt>
      <trkpt lat="43.82226" lon="5.15668">
        <ele>298.63</ele>
        <time>2016-03-24T10:23:25Z</time>
      </trkpt>
      <trkpt lat="43.82222" lon="5.15675">
        <ele>301.51</ele>
        <time>2016-03-24T10:23:42Z</time>
      </trkpt>
      <trkpt lat="43.82215" lon="5.15683">
        <ele>304.39</ele>
        <time>2016-03-24T10:24:03Z</time>
      </trkpt>
      <trkpt lat="43.82209" lon="5.15694">
        <ele>306.8</ele>
        <time>2016-03-24T10:24:18Z</time>
      </trkpt>
      <trkpt lat="43.82203" lon="5.157">
        <ele>309.68</ele>
        <time>2016-03-24T10:24:34Z</time>
      </trkpt>
      <trkpt lat="43.82193" lon="5.15711">
        <ele>312.57</ele>
        <time>2016-03-24T10:24:54Z</time>
      </trkpt>
      <trkpt lat="43.8219" lon="5.15719">
        <ele>314.97</ele>
        <time>2016-03-24T10:25:12Z</time>
      </trkpt>
      <trkpt lat="43.82184" lon="5.15726">
        <ele>317.37</ele>
        <time>2016-03-24T10:25:29Z</time>
      </trkpt>
      <trkpt lat="43.82176" lon="5.15737">
        <ele>319.78</ele>
        <time>2016-03-24T10:25:45Z</time>
      </trkpt>
      <trkpt lat="43.82172" lon="5.15742">
        <ele>321.22</ele>
        <time>2016-03-24T10:26:00Z</time>
      </trkpt>
      <trkpt lat="43.8216" lon="5.15752">
        <ele>322.66</ele>
        <time>2016-03-24T10:26:13Z</time>
      </trkpt>
      <trkpt lat="43.82139" lon="5.15756">
        <ele>324.1</ele>
        <time>2016-03-24T10:26:30Z</time>
      </trkpt>
      <trkpt lat="43.82128" lon="5.1576">
        <ele>325.54</ele>
        <time>2016-03-24T10:26:44Z</time>
      </trkpt>
      <trkpt lat="43.82122" lon="5.15756">
        <ele>326.02</ele>
        <time>2016-03-24T10:26:56Z</time>
      </trkpt>
      <trkpt lat="43.82111" lon="5.15752">
        <ele>326.02</ele>
        <time>2016-03-24T10:27:13Z</time>
      </trkpt>
      <trkpt lat="43.821" lon="5.1575">
        <ele>327.47</ele>
        <time>2016-03-24T10:27:32Z</time>
      </trkpt>
      <trkpt lat="43.82088" lon="5.15749">
        <ele>328.43</ele>
        <time>2016-03-24T10:27:45Z</time>
      </trkpt>
      <trkpt lat="43.82083" lon="5.15749">
        <ele>328.91</ele>
        <time>2016-03-24T10:27:51Z</time>
      </trkpt>
      <trkpt lat="43.82069" lon="5.15747">
        <ele>329.87</ele>
        <time>2016-03-24T10:28:08Z</time>
      </trkpt>
      <trkpt lat="43.82044" lon="5.15744">
        <ele>332.27</ele>
        <time>2016-03-24T10:28:28Z</time>
      </trkpt>
      <trkpt lat="43.82034" lon="5.15743">
        <ele>333.71</ele>
        <time>2016-03-24T10:28:45Z</time>
      </trkpt>
      <trkpt lat="43.8203" lon="5.15745">
        <ele>335.16</ele>
        <time>2016-03-24T10:29:00Z</time>
      </trkpt>
      <trkpt lat="43.82028" lon="5.15747">
        <ele>336.12</ele>
        <time>2016-03-24T10:29:14Z</time>
      </trkpt>
      <trkpt lat="43.82023" lon="5.15739">
        <ele>338.04</ele>
        <time>2016-03-24T10:29:31Z</time>
      </trkpt>
      <trkpt lat="43.82021" lon="5.15735">
        <ele>338.52</ele>
        <time>2016-03-24T10:29:46Z</time>
      </trkpt>
      <trkpt lat="43.8202" lon="5.15715">
        <ele>340.44</ele>
        <time>2016-03-24T10:30:03Z</time>
      </trkpt>
      <trkpt lat="43.82019" lon="5.15713">
        <ele>340.92</ele>
        <time>2016-03-24T10:30:10Z</time>
      </trkpt>
      <trkpt lat="43.82017" lon="5.15715">
        <ele>340.92</ele>
        <time>2016-03-24T10:30:12Z</time>
      </trkpt>
      <trkpt lat="43.81996" lon="5.15721">
        <ele>342.37</ele>
        <time>2016-03-24T10:30:29Z</time>
      </trkpt>
      <trkpt lat="43.8199" lon="5.15715">
        <ele>343.81</ele>
        <time>2016-03-24T10:30:44Z</time>
      </trkpt>
      <trkpt lat="43.81981" lon="5.15711">
        <ele>344.77</ele>
        <time>2016-03-24T10:31:03Z</time>
      </trkpt>
      <trkpt lat="43.81958" lon="5.1572">
        <ele>346.21</ele>
        <time>2016-03-24T10:31:19Z</time>
      </trkpt>
      <trkpt lat="43.81952" lon="5.15724">
        <ele>345.73</ele>
        <time>2016-03-24T10:31:35Z</time>
      </trkpt>
      <trkpt lat="43.81951" lon="5.15723">
        <ele>345.73</ele>
        <time>2016-03-24T10:31:48Z</time>
      </trkpt>
      <trkpt lat="43.81956" lon="5.15722">
        <ele>345.73</ele>
        <time>2016-03-24T10:32:13Z</time>
      </trkpt>
      <trkpt lat="43.8196" lon="5.15719">
        <ele>345.73</ele>
        <time>2016-03-24T10:32:37Z</time>
      </trkpt>
      <trkpt lat="43.81959" lon="5.15717">
        <ele>346.21</ele>
        <time>2016-03-24T10:33:01Z</time>
      </trkpt>
      <trkpt lat="43.81961" lon="5.15715">
        <ele>347.65</ele>
        <time>2016-03-24T10:33:24Z</time>
      </trkpt>
      <trkpt lat="43.81961" lon="5.15716">
        <ele>348.13</ele>
        <time>2016-03-24T10:33:45Z</time>
      </trkpt>
      <trkpt lat="43.81963" lon="5.15716">
        <ele>348.62</ele>
        <time>2016-03-24T10:34:08Z</time>
      </trkpt>
      <trkpt lat="43.81962" lon="5.15716">
        <ele>349.1</ele>
        <time>2016-03-24T10:34:33Z</time>
      </trkpt>
      <trkpt lat="43.81963" lon="5.15716">
        <ele>349.58</ele>
        <time>2016-03-24T10:34:59Z</time>
      </trkpt>
      <trkpt lat="43.81962" lon="5.15715">
        <ele>350.06</ele>
        <time>2016-03-24T10:35:15Z</time>
      </trkpt>
      <trkpt lat="43.81956" lon="5.15717">
        <ele>351.98</ele>
        <time>2016-03-24T10:35:29Z</time>
      </trkpt>
      <trkpt lat="43.81949" lon="5.15724">
        <ele>354.38</ele>
        <time>2016-03-24T10:35:45Z</time>
      </trkpt>
      <trkpt lat="43.81942" lon="5.1573">
        <ele>356.79</ele>
        <time>2016-03-24T10:36:00Z</time>
      </trkpt>
      <trkpt lat="43.81936" lon="5.15737">
        <ele>358.23</ele>
        <time>2016-03-24T10:36:12Z</time>
      </trkpt>
      <trkpt lat="43.81928" lon="5.15739">
        <ele>359.67</ele>
        <time>2016-03-24T10:36:33Z</time>
      </trkpt>
      <trkpt lat="43.81924" lon="5.15739">
        <ele>362.55</ele>
        <time>2016-03-24T10:36:51Z</time>
      </trkpt>
      <trkpt lat="43.81909" lon="5.15719">
        <ele>364.96</ele>
        <time>2016-03-24T10:37:07Z</time>
      </trkpt>
      <trkpt lat="43.81904" lon="5.15718">
        <ele>367.84</ele>
        <time>2016-03-24T10:37:25Z</time>
      </trkpt>
      <trkpt lat="43.81886" lon="5.15697">
        <ele>370.24</ele>
        <time>2016-03-24T10:37:41Z</time>
      </trkpt>
      <trkpt lat="43.81879" lon="5.15691">
        <ele>373.13</ele>
        <time>2016-03-24T10:37:57Z</time>
      </trkpt>
      <trkpt lat="43.8187" lon="5.15689">
        <ele>376.01</ele>
        <time>2016-03-24T10:38:12Z</time>
      </trkpt>
      <trkpt lat="43.81858" lon="5.15684">
        <ele>377.45</ele>
        <time>2016-03-24T10:38:28Z</time>
      </trkpt>
      <trkpt lat="43.81851" lon="5.15677">
        <ele>377.94</ele>
        <time>2016-03-24T10:38:44Z</time>
      </trkpt>
      <trkpt lat="43.81845" lon="5.15665">
        <ele>378.9</ele>
        <time>2016-03-24T10:38:57Z</time>
      </trkpt>
      <trkpt lat="43.81842" lon="5.15663">
        <ele>379.86</ele>
        <time>2016-03-24T10:39:12Z</time>
      </trkpt>
      <trkpt lat="43.81843" lon="5.15679">
        <ele>380.82</ele>
        <time>2016-03-24T10:39:26Z</time>
      </trkpt>
      <trkpt lat="43.81844" lon="5.15698">
        <ele>381.78</ele>
        <time>2016-03-24T10:39:40Z</time>
      </trkpt>
      <trkpt lat="43.8184" lon="5.15719">
        <ele>384.66</ele>
        <time>2016-03-24T10:39:56Z</time>
      </trkpt>
      <trkpt lat="43.81838" lon="5.15727">
        <ele>385.15</ele>
        <time>2016-03-24T10:40:02Z</time>
      </trkpt>
      <trkpt lat="43.81841" lon="5.15756">
        <ele>387.07</ele>
        <time>2016-03-24T10:40:16Z</time>
      </trkpt>
      <trkpt lat="43.81842" lon="5.15762">
        <ele>388.99</ele>
        <time>2016-03-24T10:40:32Z</time>
      </trkpt>
      <trkpt lat="43.81839" lon="5.15753">
        <ele>390.43</ele>
        <time>2016-03-24T10:40:49Z</time>
      </trkpt>
      <trkpt lat="43.8184" lon="5.15753">
        <ele>390.43</ele>
        <time>2016-03-24T10:41:05Z</time>
      </trkpt>
      <trkpt lat="43.81838" lon="5.15748">
        <ele>391.39</ele>
        <time>2016-03-24T10:41:13Z</time>
      </trkpt>
      <trkpt lat="43.81838" lon="5.1574">
        <ele>393.32</ele>
        <time>2016-03-24T10:41:25Z</time>
      </trkpt>
      <trkpt lat="43.81838" lon="5.15737">
        <ele>393.32</ele>
        <time>2016-03-24T10:41:40Z</time>
      </trkpt>
      <trkpt lat="43.81836" lon="5.15734">
        <ele>394.28</ele>
        <time>2016-03-24T10:41:52Z</time>
      </trkpt>
      <trkpt lat="43.81832" lon="5.15734">
        <ele>395.24</ele>
        <time>2016-03-24T10:42:06Z</time>
      </trkpt>
      <trkpt lat="43.81822" lon="5.15735">
        <ele>397.16</ele>
        <time>2016-03-24T10:42:23Z</time>
      </trkpt>
      <trkpt lat="43.81811" lon="5.15736">
        <ele>399.08</ele>
        <time>2016-03-24T10:42:39Z</time>
      </trkpt>
      <trkpt lat="43.81799" lon="5.15721">
        <ele>400.53</ele>
        <time>2016-03-24T10:42:56Z</time>
      </trkpt>
      <trkpt lat="43.81799" lon="5.15715">
        <ele>401.01</ele>
        <time>2016-03-24T10:43:02Z</time>
      </trkpt>
      <trkpt lat="43.81796" lon="5.15706">
        <ele>402.93</ele>
        <time>2016-03-24T10:43:19Z</time>
      </trkpt>
      <trkpt lat="43.81772" lon="5.15712">
        <ele>405.81</ele>
        <time>2016-03-24T10:43:34Z</time>
      </trkpt>
      <trkpt lat="43.81769" lon="5.15708">
        <ele>407.26</ele>
        <time>2016-03-24T10:43:47Z</time>
      </trkpt>
      <trkpt lat="43.81772" lon="5.15683">
        <ele>408.22</ele>
        <time>2016-03-24T10:44:02Z</time>
      </trkpt>
      <trkpt lat="43.81766" lon="5.1568">
        <ele>409.18</ele>
        <time>2016-03-24T10:44:18Z</time>
      </trkpt>
      <trkpt lat="43.81755" lon="5.15677">
        <ele>410.62</ele>
        <time>2016-03-24T10:44:34Z</time>
      </trkpt>
      <trkpt lat="43.81753" lon="5.15672">
        <ele>413.02</ele>
        <time>2016-03-24T10:44:50Z</time>
      </trkpt>
      <trkpt lat="43.81749" lon="5.15668">
        <ele>415.43</ele>
        <time>2016-03-24T10:45:08Z</time>
      </trkpt>
      <trkpt lat="43.81745" lon="5.15664">
        <ele>417.35</ele>
        <time>2016-03-24T10:45:25Z</time>
      </trkpt>
      <trkpt lat="43.81736" lon="5.15649">
        <ele>418.31</ele>
        <time>2016-03-24T10:45:41Z</time>
      </trkpt>
      <trkpt lat="43.81719" lon="5.15643">
        <ele>419.27</ele>
        <time>2016-03-24T10:45:55Z</time>
      </trkpt>
      <trkpt lat="43.81713" lon="5.15636">
        <ele>421.68</ele>
        <time>2016-03-24T10:46:11Z</time>
      </trkpt>
      <trkpt lat="43.81711" lon="5.15632">
        <ele>423.6</ele>
        <time>2016-03-24T10:46:27Z</time>
      </trkpt>
      <trkpt lat="43.81707" lon="5.15629">
        <ele>425.04</ele>
        <time>2016-03-24T10:46:40Z</time>
      </trkpt>
      <trkpt lat="43.81693" lon="5.15633">
        <ele>426</ele>
        <time>2016-03-24T10:46:55Z</time>
      </trkpt>
      <trkpt lat="43.81684" lon="5.15625">
        <ele>427.44</ele>
        <time>2016-03-24T10:47:10Z</time>
      </trkpt>
      <trkpt lat="43.8168" lon="5.15619">
        <ele>429.37</ele>
        <time>2016-03-24T10:47:22Z</time>
      </trkpt>
      <trkpt lat="43.81674" lon="5.15605">
        <ele>431.77</ele>
        <time>2016-03-24T10:47:37Z</time>
      </trkpt>
      <trkpt lat="43.81662" lon="5.1558">
        <ele>433.69</ele>
        <time>2016-03-24T10:47:52Z</time>
      </trkpt>
      <trkpt lat="43.81659" lon="5.15569">
        <ele>436.58</ele>
        <time>2016-03-24T10:48:06Z</time>
      </trkpt>
      <trkpt lat="43.81659" lon="5.15558">
        <ele>438.98</ele>
        <time>2016-03-24T10:48:21Z</time>
      </trkpt>
      <trkpt lat="43.81661" lon="5.15552">
        <ele>440.9</ele>
        <time>2016-03-24T10:48:35Z</time>
      </trkpt>
      <trkpt lat="43.81663" lon="5.15547">
        <ele>442.82</ele>
        <time>2016-03-24T10:48:49Z</time>
      </trkpt>
      <trkpt lat="43.81664" lon="5.15548">
        <ele>443.79</ele>
        <time>2016-03-24T10:49:02Z</time>
      </trkpt>
      <trkpt lat="43.81664" lon="5.15548">
        <ele>443.79</ele>
        <time>2016-03-24T10:49:09Z</time>
      </trkpt>
      <trkpt lat="43.81666" lon="5.15542">
        <ele>446.67</ele>
        <time>2016-03-24T10:49:23Z</time>
      </trkpt>
      <trkpt lat="43.81667" lon="5.15541">
        <ele>446.67</ele>
        <time>2016-03-24T10:49:24Z</time>
      </trkpt>
      <trkpt lat="43.81671" lon="5.15529">
        <ele>448.11</ele>
        <time>2016-03-24T10:49:40Z</time>
      </trkpt>
      <trkpt lat="43.81667" lon="5.15523">
        <ele>449.07</ele>
        <time>2016-03-24T10:49:51Z</time>
      </trkpt>
      <trkpt lat="43.81666" lon="5.15513">
        <ele>451.48</ele>
        <time>2016-03-24T10:50:07Z</time>
      </trkpt>
      <trkpt lat="43.81663" lon="5.15504">
        <ele>453.88</ele>
        <time>2016-03-24T10:50:22Z</time>
      </trkpt>
      <trkpt lat="43.81661" lon="5.15493">
        <ele>456.28</ele>
        <time>2016-03-24T10:50:35Z</time>
      </trkpt>
      <trkpt lat="43.81655" lon="5.15487">
        <ele>458.69</ele>
        <time>2016-03-24T10:50:49Z</time>
      </trkpt>
      <trkpt lat="43.81651" lon="5.15482">
        <ele>461.09</ele>
        <time>2016-03-24T10:51:02Z</time>
      </trkpt>
      <trkpt lat="43.81652" lon="5.15477">
        <ele>463.97</ele>
        <time>2016-03-24T10:51:18Z</time>
      </trkpt>
      <trkpt lat="43.81653" lon="5.15472">
        <ele>466.38</ele>
        <time>2016-03-24T10:51:33Z</time>
      </trkpt>
      <trkpt lat="43.81651" lon="5.15466">
        <ele>468.78</ele>
        <time>2016-03-24T10:51:47Z</time>
      </trkpt>
      <trkpt lat="43.81648" lon="5.15468">
        <ele>469.26</ele>
        <time>2016-03-24T10:52:05Z</time>
      </trkpt>
      <trkpt lat="43.81652" lon="5.1547">
        <ele>469.26</ele>
        <time>2016-03-24T10:52:21Z</time>
      </trkpt>
      <trkpt lat="43.81649" lon="5.15468">
        <ele>469.74</ele>
        <time>2016-03-24T10:52:36Z</time>
      </trkpt>
      <trkpt lat="43.81648" lon="5.15468">
        <ele>468.78</ele>
        <time>2016-03-24T10:52:55Z</time>
      </trkpt>
      <trkpt lat="43.81648" lon="5.15467">
        <ele>468.78</ele>
        <time>2016-03-24T10:53:22Z</time>
      </trkpt>
      <trkpt lat="43.81648" lon="5.15465">
        <ele>469.74</ele>
        <time>2016-03-24T10:53:38Z</time>
      </trkpt>
      <trkpt lat="43.81646" lon="5.15464">
        <ele>471.18</ele>
        <time>2016-03-24T10:53:52Z</time>
      </trkpt>
      <trkpt lat="43.81645" lon="5.15465">
        <ele>470.7</ele>
        <time>2016-03-24T10:54:16Z</time>
      </trkpt>
      <trkpt lat="43.81645" lon="5.15466">
        <ele>470.7</ele>
        <time>2016-03-24T10:54:37Z</time>
      </trkpt>
      <trkpt lat="43.81646" lon="5.15467">
        <ele>470.7</ele>
        <time>2016-03-24T10:55:02Z</time>
      </trkpt>
      <trkpt lat="43.81645" lon="5.15467">
        <ele>470.7</ele>
        <time>2016-03-24T10:55:20Z</time>
      </trkpt>
      <trkpt lat="43.81646" lon="5.15467">
        <ele>471.18</ele>
        <time>2016-03-24T10:55:48Z</time>
      </trkpt>
      <trkpt lat="43.81646" lon="5.15466">
        <ele>470.7</ele>
        <time>2016-03-24T10:56:20Z</time>
      </trkpt>
      <trkpt lat="43.81646" lon="5.15467">
        <ele>470.7</ele>
        <time>2016-03-24T10:56:52Z</time>
      </trkpt>
      <trkpt lat="43.81647" lon="5.15469">
        <ele>470.7</ele>
        <time>2016-03-24T10:57:26Z</time>
      </trkpt>
      <trkpt lat="43.81647" lon="5.15468">
        <ele>471.18</ele>
        <time>2016-03-24T10:57:53Z</time>
      </trkpt>
      <trkpt lat="43.81643" lon="5.15472">
        <ele>472.14</ele>
        <time>2016-03-24T10:58:08Z</time>
      </trkpt>
      <trkpt lat="43.81638" lon="5.15481">
        <ele>471.18</ele>
        <time>2016-03-24T10:58:25Z</time>
      </trkpt>
      <trkpt lat="43.81636" lon="5.15493">
        <ele>472.14</ele>
        <time>2016-03-24T10:58:39Z</time>
      </trkpt>
      <trkpt lat="43.81637" lon="5.15494">
        <ele>472.14</ele>
        <time>2016-03-24T10:58:56Z</time>
      </trkpt>
      <trkpt lat="43.81635" lon="5.15499">
        <ele>471.66</ele>
        <time>2016-03-24T10:59:10Z</time>
      </trkpt>
      <trkpt lat="43.81632" lon="5.15508">
        <ele>471.18</ele>
        <time>2016-03-24T10:59:25Z</time>
      </trkpt>
      <trkpt lat="43.8163" lon="5.15518">
        <ele>471.18</ele>
        <time>2016-03-24T10:59:39Z</time>
      </trkpt>
      <trkpt lat="43.81627" lon="5.1553">
        <ele>471.66</ele>
        <time>2016-03-24T10:59:53Z</time>
      </trkpt>
      <trkpt lat="43.8163" lon="5.15542">
        <ele>472.14</ele>
        <time>2016-03-24T11:00:08Z</time>
      </trkpt>
      <trkpt lat="43.81624" lon="5.15553">
        <ele>471.18</ele>
        <time>2016-03-24T11:00:25Z</time>
      </trkpt>
      <trkpt lat="43.81617" lon="5.15557">
        <ele>470.7</ele>
        <time>2016-03-24T11:00:39Z</time>
      </trkpt>
      <trkpt lat="43.81613" lon="5.15568">
        <ele>468.3</ele>
        <time>2016-03-24T11:00:54Z</time>
      </trkpt>
      <trkpt lat="43.81612" lon="5.15573">
        <ele>468.3</ele>
        <time>2016-03-24T11:00:59Z</time>
      </trkpt>
      <trkpt lat="43.81608" lon="5.15577">
        <ele>466.38</ele>
        <time>2016-03-24T11:01:14Z</time>
      </trkpt>
      <trkpt lat="43.81607" lon="5.15578">
        <ele>466.38</ele>
        <time>2016-03-24T11:01:15Z</time>
      </trkpt>
      <trkpt lat="43.81606" lon="5.15578">
        <ele>467.82</ele>
        <time>2016-03-24T11:01:28Z</time>
      </trkpt>
      <trkpt lat="43.81608" lon="5.1558">
        <ele>467.34</ele>
        <time>2016-03-24T11:01:54Z</time>
      </trkpt>
      <trkpt lat="43.81608" lon="5.15582">
        <ele>466.86</ele>
        <time>2016-03-24T11:02:23Z</time>
      </trkpt>
      <trkpt lat="43.81608" lon="5.15585">
        <ele>466.38</ele>
        <time>2016-03-24T11:02:42Z</time>
      </trkpt>
      <trkpt lat="43.81603" lon="5.15582">
        <ele>465.9</ele>
        <time>2016-03-24T11:02:59Z</time>
      </trkpt>
      <trkpt lat="43.81601" lon="5.15583">
        <ele>465.9</ele>
        <time>2016-03-24T11:03:14Z</time>
      </trkpt>
      <trkpt lat="43.81593" lon="5.15588">
        <ele>464.45</ele>
        <time>2016-03-24T11:03:29Z</time>
      </trkpt>
      <trkpt lat="43.81589" lon="5.15594">
        <ele>465.9</ele>
        <time>2016-03-24T11:03:42Z</time>
      </trkpt>
      <trkpt lat="43.81592" lon="5.15598">
        <ele>468.78</ele>
        <time>2016-03-24T11:03:57Z</time>
      </trkpt>
      <trkpt lat="43.81594" lon="5.15603">
        <ele>471.66</ele>
        <time>2016-03-24T11:04:11Z</time>
      </trkpt>
      <trkpt lat="43.81594" lon="5.15611">
        <ele>474.55</ele>
        <time>2016-03-24T11:04:26Z</time>
      </trkpt>
      <trkpt lat="43.81594" lon="5.15615">
        <ele>476.47</ele>
        <time>2016-03-24T11:04:39Z</time>
      </trkpt>
      <trkpt lat="43.81595" lon="5.15619">
        <ele>477.91</ele>
        <time>2016-03-24T11:04:53Z</time>
      </trkpt>
      <trkpt lat="43.81594" lon="5.1562">
        <ele>478.87</ele>
        <time>2016-03-24T11:05:12Z</time>
      </trkpt>
      <trkpt lat="43.81593" lon="5.15619">
        <ele>479.84</ele>
        <time>2016-03-24T11:05:25Z</time>
      </trkpt>
      <trkpt lat="43.81592" lon="5.15623">
        <ele>482.24</ele>
        <time>2016-03-24T11:05:40Z</time>
      </trkpt>
      <trkpt lat="43.81591" lon="5.15624">
        <ele>483.2</ele>
        <time>2016-03-24T11:05:55Z</time>
      </trkpt>
      <trkpt lat="43.8159" lon="5.15625">
        <ele>483.68</ele>
        <time>2016-03-24T11:06:18Z</time>
      </trkpt>
      <trkpt lat="43.81591" lon="5.15626">
        <ele>483.68</ele>
        <time>2016-03-24T11:06:42Z</time>
      </trkpt>
      <trkpt lat="43.81591" lon="5.15628">
        <ele>483.2</ele>
        <time>2016-03-24T11:06:59Z</time>
      </trkpt>
      <trkpt lat="43.81591" lon="5.15628">
        <ele>484.16</ele>
        <time>2016-03-24T11:07:15Z</time>
      </trkpt>
      <trkpt lat="43.81592" lon="5.15629">
        <ele>484.64</ele>
        <time>2016-03-24T11:07:25Z</time>
      </trkpt>
      <trkpt lat="43.81591" lon="5.1563">
        <ele>486.08</ele>
        <time>2016-03-24T11:07:38Z</time>
      </trkpt>
      <trkpt lat="43.81591" lon="5.15632">
        <ele>485.12</ele>
        <time>2016-03-24T11:07:56Z</time>
      </trkpt>
      <trkpt lat="43.8159" lon="5.15633">
        <ele>486.08</ele>
        <time>2016-03-24T11:08:21Z</time>
      </trkpt>
      <trkpt lat="43.8159" lon="5.15633">
        <ele>486.56</ele>
        <time>2016-03-24T11:08:22Z</time>
      </trkpt>
      <trkpt lat="43.81588" lon="5.15636">
        <ele>486.08</ele>
        <time>2016-03-24T11:08:40Z</time>
      </trkpt>
      <trkpt lat="43.81587" lon="5.1564">
        <ele>488.01</ele>
        <time>2016-03-24T11:08:51Z</time>
      </trkpt>
      <trkpt lat="43.81584" lon="5.15642">
        <ele>489.93</ele>
        <time>2016-03-24T11:08:56Z</time>
      </trkpt>
      <trkpt lat="43.81581" lon="5.15646">
        <ele>491.85</ele>
        <time>2016-03-24T11:09:09Z</time>
      </trkpt>
      <trkpt lat="43.8158" lon="5.15648">
        <ele>495.22</ele>
        <time>2016-03-24T11:09:24Z</time>
      </trkpt>
      <trkpt lat="43.81584" lon="5.15656">
        <ele>496.66</ele>
        <time>2016-03-24T11:09:38Z</time>
      </trkpt>
      <trkpt lat="43.81584" lon="5.15661">
        <ele>498.58</ele>
        <time>2016-03-24T11:09:51Z</time>
      </trkpt>
      <trkpt lat="43.81584" lon="5.15663">
        <ele>499.06</ele>
        <time>2016-03-24T11:09:59Z</time>
      </trkpt>
      <trkpt lat="43.81581" lon="5.15665">
        <ele>499.06</ele>
        <time>2016-03-24T11:10:02Z</time>
      </trkpt>
      <trkpt lat="43.81579" lon="5.15673">
        <ele>501.95</ele>
        <time>2016-03-24T11:10:15Z</time>
      </trkpt>
      <trkpt lat="43.81578" lon="5.15673">
        <ele>502.43</ele>
        <time>2016-03-24T11:10:30Z</time>
      </trkpt>
      <trkpt lat="43.81578" lon="5.15674">
        <ele>502.43</ele>
        <time>2016-03-24T11:10:47Z</time>
      </trkpt>
      <trkpt lat="43.81577" lon="5.15675">
        <ele>502.43</ele>
        <time>2016-03-24T11:11:05Z</time>
      </trkpt>
      <trkpt lat="43.81577" lon="5.15677">
        <ele>502.91</ele>
        <time>2016-03-24T11:11:21Z</time>
      </trkpt>
      <trkpt lat="43.81577" lon="5.15682">
        <ele>504.83</ele>
        <time>2016-03-24T11:11:37Z</time>
      </trkpt>
      <trkpt lat="43.81581" lon="5.15694">
        <ele>507.23</ele>
        <time>2016-03-24T11:11:53Z</time>
      </trkpt>
      <trkpt lat="43.81582" lon="5.157">
        <ele>510.12</ele>
        <time>2016-03-24T11:12:09Z</time>
      </trkpt>
      <trkpt lat="43.81588" lon="5.15706">
        <ele>513</ele>
        <time>2016-03-24T11:12:19Z</time>
      </trkpt>
      <trkpt lat="43.81588" lon="5.15709">
        <ele>515.88</ele>
        <time>2016-03-24T11:12:33Z</time>
      </trkpt>
      <trkpt lat="43.81591" lon="5.15716">
        <ele>518.77</ele>
        <time>2016-03-24T11:12:48Z</time>
      </trkpt>
      <trkpt lat="43.81594" lon="5.15718">
        <ele>519.73</ele>
        <time>2016-03-24T11:13:00Z</time>
      </trkpt>
      <trkpt lat="43.81595" lon="5.15719">
        <ele>520.21</ele>
        <time>2016-03-24T11:13:23Z</time>
      </trkpt>
      <trkpt lat="43.81595" lon="5.1572">
        <ele>522.13</ele>
        <time>2016-03-24T11:13:38Z</time>
      </trkpt>
      <trkpt lat="43.81594" lon="5.15721">
        <ele>522.13</ele>
        <time>2016-03-24T11:14:01Z</time>
      </trkpt>
      <trkpt lat="43.81595" lon="5.15721">
        <ele>520.21</ele>
        <time>2016-03-24T11:14:19Z</time>
      </trkpt>
      <trkpt lat="43.81595" lon="5.15721">
        <ele>521.65</ele>
        <time>2016-03-24T11:14:31Z</time>
      </trkpt>
      <trkpt lat="43.81594" lon="5.15721">
        <ele>520.21</ele>
        <time>2016-03-24T11:14:47Z</time>
      </trkpt>
      <trkpt lat="43.8159" lon="5.15725">
        <ele>522.61</ele>
        <time>2016-03-24T11:15:01Z</time>
      </trkpt>
      <trkpt lat="43.8159" lon="5.15726">
        <ele>523.09</ele>
        <time>2016-03-24T11:15:02Z</time>
      </trkpt>
      <trkpt lat="43.81586" lon="5.15731">
        <ele>525.5</ele>
        <time>2016-03-24T11:15:12Z</time>
      </trkpt>
      <trkpt lat="43.81585" lon="5.15736">
        <ele>528.86</ele>
        <time>2016-03-24T11:15:24Z</time>
      </trkpt>
      <trkpt lat="43.81585" lon="5.15743">
        <ele>531.27</ele>
        <time>2016-03-24T11:15:36Z</time>
      </trkpt>
      <trkpt lat="43.81585" lon="5.15751">
        <ele>532.23</ele>
        <time>2016-03-24T11:15:47Z</time>
      </trkpt>
      <trkpt lat="43.81585" lon="5.1576">
        <ele>534.15</ele>
        <time>2016-03-24T11:16:00Z</time>
      </trkpt>
      <trkpt lat="43.81583" lon="5.15769">
        <ele>535.11</ele>
        <time>2016-03-24T11:16:12Z</time>
      </trkpt>
      <trkpt lat="43.81584" lon="5.15774">
        <ele>537.99</ele>
        <time>2016-03-24T11:16:25Z</time>
      </trkpt>
      <trkpt lat="43.8158" lon="5.15779">
        <ele>540.88</ele>
        <time>2016-03-24T11:16:38Z</time>
      </trkpt>
      <trkpt lat="43.81579" lon="5.15785">
        <ele>543.28</ele>
        <time>2016-03-24T11:16:51Z</time>
      </trkpt>
      <trkpt lat="43.81582" lon="5.15793">
        <ele>545.69</ele>
        <time>2016-03-24T11:17:04Z</time>
      </trkpt>
      <trkpt lat="43.81584" lon="5.15799">
        <ele>547.13</ele>
        <time>2016-03-24T11:17:19Z</time>
      </trkpt>
      <trkpt lat="43.81586" lon="5.15802">
        <ele>548.09</ele>
        <time>2016-03-24T11:17:33Z</time>
      </trkpt>
      <trkpt lat="43.81585" lon="5.15802">
        <ele>548.57</ele>
        <time>2016-03-24T11:17:51Z</time>
      </trkpt>
      <trkpt lat="43.81587" lon="5.15802">
        <ele>549.05</ele>
        <time>2016-03-24T11:18:11Z</time>
      </trkpt>
      <trkpt lat="43.81588" lon="5.15803">
        <ele>548.57</ele>
        <time>2016-03-24T11:18:37Z</time>
      </trkpt>
      <trkpt lat="43.81588" lon="5.15803">
        <ele>549.05</ele>
        <time>2016-03-24T11:18:59Z</time>
      </trkpt>
      <trkpt lat="43.81586" lon="5.15805">
        <ele>549.53</ele>
        <time>2016-03-24T11:19:18Z</time>
      </trkpt>
      <trkpt lat="43.81586" lon="5.15806">
        <ele>550.01</ele>
        <time>2016-03-24T11:19:43Z</time>
      </trkpt>
      <trkpt lat="43.81586" lon="5.15806">
        <ele>550.97</ele>
        <time>2016-03-24T11:20:07Z</time>
      </trkpt>
      <trkpt lat="43.81586" lon="5.15806">
        <ele>550.01</ele>
        <time>2016-03-24T11:20:29Z</time>
      </trkpt>
      <trkpt lat="43.81586" lon="5.15806">
        <ele>550.01</ele>
        <time>2016-03-24T11:20:55Z</time>
      </trkpt>
      <trkpt lat="43.81586" lon="5.15806">
        <ele>550.49</ele>
        <time>2016-03-24T11:21:25Z</time>
      </trkpt>
      <trkpt lat="43.81586" lon="5.15806">
        <ele>550.49</ele>
        <time>2016-03-24T11:21:48Z</time>
      </trkpt>
      <trkpt lat="43.81586" lon="5.15806">
        <ele>550.49</ele>
        <time>2016-03-24T11:22:12Z</time>
      </trkpt>
      <trkpt lat="43.81586" lon="5.15806">
        <ele>551.45</ele>
        <time>2016-03-24T11:22:36Z</time>
      </trkpt>
      <trkpt lat="43.81587" lon="5.1581">
        <ele>552.9</ele>
        <time>2016-03-24T11:22:54Z</time>
      </trkpt>
      <trkpt lat="43.81584" lon="5.1582">
        <ele>554.82</ele>
        <time>2016-03-24T11:23:08Z</time>
      </trkpt>
      <trkpt lat="43.81582" lon="5.15827">
        <ele>558.18</ele>
        <time>2016-03-24T11:23:19Z</time>
      </trkpt>
      <trkpt lat="43.81574" lon="5.15831">
        <ele>560.11</ele>
        <time>2016-03-24T11:23:34Z</time>
      </trkpt>
      <trkpt lat="43.81573" lon="5.15839">
        <ele>562.51</ele>
        <time>2016-03-24T11:23:49Z</time>
      </trkpt>
      <trkpt lat="43.81572" lon="5.15848">
        <ele>565.39</ele>
        <time>2016-03-24T11:24:04Z</time>
      </trkpt>
      <trkpt lat="43.81572" lon="5.15854">
        <ele>568.76</ele>
        <time>2016-03-24T11:24:18Z</time>
      </trkpt>
      <trkpt lat="43.81569" lon="5.15856">
        <ele>570.68</ele>
        <time>2016-03-24T11:24:30Z</time>
      </trkpt>
      <trkpt lat="43.8157" lon="5.15862">
        <ele>572.12</ele>
        <time>2016-03-24T11:24:43Z</time>
      </trkpt>
      <trkpt lat="43.81572" lon="5.1587">
        <ele>575.49</ele>
        <time>2016-03-24T11:24:56Z</time>
      </trkpt>
      <trkpt lat="43.81573" lon="5.15876">
        <ele>577.89</ele>
        <time>2016-03-24T11:25:07Z</time>
      </trkpt>
      <trkpt lat="43.8157" lon="5.15883">
        <ele>581.25</ele>
        <time>2016-03-24T11:25:18Z</time>
      </trkpt>
      <trkpt lat="43.81563" lon="5.15888">
        <ele>584.14</ele>
        <time>2016-03-24T11:25:32Z</time>
      </trkpt>
      <trkpt lat="43.81556" lon="5.15887">
        <ele>586.06</ele>
        <time>2016-03-24T11:25:46Z</time>
      </trkpt>
      <trkpt lat="43.81555" lon="5.15887">
        <ele>587.02</ele>
        <time>2016-03-24T11:25:51Z</time>
      </trkpt>
      <trkpt lat="43.81552" lon="5.15892">
        <ele>587.5</ele>
        <time>2016-03-24T11:26:06Z</time>
      </trkpt>
      <trkpt lat="43.81552" lon="5.15893">
        <ele>587.02</ele>
        <time>2016-03-24T11:26:31Z</time>
      </trkpt>
      <trkpt lat="43.81552" lon="5.15894">
        <ele>588.95</ele>
        <time>2016-03-24T11:26:53Z</time>
      </trkpt>
      <trkpt lat="43.81553" lon="5.15893">
        <ele>588.95</ele>
        <time>2016-03-24T11:27:09Z</time>
      </trkpt>
      <trkpt lat="43.81553" lon="5.15894">
        <ele>588.46</ele>
        <time>2016-03-24T11:27:32Z</time>
      </trkpt>
      <trkpt lat="43.81553" lon="5.15894">
        <ele>588.46</ele>
        <time>2016-03-24T11:27:54Z</time>
      </trkpt>
      <trkpt lat="43.81553" lon="5.15893">
        <ele>588.46</ele>
        <time>2016-03-24T11:28:16Z</time>
      </trkpt>
      <trkpt lat="43.81553" lon="5.15892">
        <ele>588.95</ele>
        <time>2016-03-24T11:28:37Z</time>
      </trkpt>
      <trkpt lat="43.81554" lon="5.15892">
        <ele>589.43</ele>
        <time>2016-03-24T11:28:58Z</time>
      </trkpt>
      <trkpt lat="43.81554" lon="5.15892">
        <ele>588.95</ele>
        <time>2016-03-24T11:29:22Z</time>
      </trkpt>
      <trkpt lat="43.81554" lon="5.15892">
        <ele>589.43</ele>
        <time>2016-03-24T11:29:43Z</time>
      </trkpt>
      <trkpt lat="43.81553" lon="5.15892">
        <ele>589.43</ele>
        <time>2016-03-24T11:30:01Z</time>
      </trkpt>
      <trkpt lat="43.81551" lon="5.15896">
        <ele>591.35</ele>
        <time>2016-03-24T11:30:15Z</time>
      </trkpt>
      <trkpt lat="43.81544" lon="5.15901">
        <ele>591.35</ele>
        <time>2016-03-24T11:30:27Z</time>
      </trkpt>
      <trkpt lat="43.81534" lon="5.15904">
        <ele>591.83</ele>
        <time>2016-03-24T11:30:40Z</time>
      </trkpt>
      <trkpt lat="43.81526" lon="5.15905">
        <ele>591.35</ele>
        <time>2016-03-24T11:30:49Z</time>
      </trkpt>
      <trkpt lat="43.81515" lon="5.15914">
        <ele>591.83</ele>
        <time>2016-03-24T11:31:04Z</time>
      </trkpt>
      <trkpt lat="43.81507" lon="5.15926">
        <ele>592.79</ele>
        <time>2016-03-24T11:31:18Z</time>
      </trkpt>
      <trkpt lat="43.81498" lon="5.15936">
        <ele>594.71</ele>
        <time>2016-03-24T11:31:34Z</time>
      </trkpt>
      <trkpt lat="43.8149" lon="5.15938">
        <ele>596.15</ele>
        <time>2016-03-24T11:31:48Z</time>
      </trkpt>
      <trkpt lat="43.81484" lon="5.15942">
        <ele>597.6</ele>
        <time>2016-03-24T11:31:59Z</time>
      </trkpt>
      <trkpt lat="43.81478" lon="5.15944">
        <ele>599.04</ele>
        <time>2016-03-24T11:32:07Z</time>
      </trkpt>
      <trkpt lat="43.81472" lon="5.15948">
        <ele>600.48</ele>
        <time>2016-03-24T11:32:19Z</time>
      </trkpt>
      <trkpt lat="43.81462" lon="5.1595">
        <ele>602.4</ele>
        <time>2016-03-24T11:32:32Z</time>
      </trkpt>
      <trkpt lat="43.81456" lon="5.15951">
        <ele>604.81</ele>
        <time>2016-03-24T11:32:48Z</time>
      </trkpt>
      <trkpt lat="43.81452" lon="5.15953">
        <ele>605.29</ele>
        <time>2016-03-24T11:33:00Z</time>
      </trkpt>
      <trkpt lat="43.8145" lon="5.15954">
        <ele>605.29</ele>
        <time>2016-03-24T11:33:08Z</time>
      </trkpt>
      <trkpt lat="43.81446" lon="5.15955">
        <ele>605.77</ele>
        <time>2016-03-24T11:33:20Z</time>
      </trkpt>
      <trkpt lat="43.81433" lon="5.15958">
        <ele>607.69</ele>
        <time>2016-03-24T11:33:35Z</time>
      </trkpt>
      <trkpt lat="43.81423" lon="5.15963">
        <ele>609.13</ele>
        <time>2016-03-24T11:33:50Z</time>
      </trkpt>
      <trkpt lat="43.81412" lon="5.15969">
        <ele>610.57</ele>
        <time>2016-03-24T11:34:05Z</time>
      </trkpt>
      <trkpt lat="43.81406" lon="5.15973">
        <ele>610.57</ele>
        <time>2016-03-24T11:34:16Z</time>
      </trkpt>
      <trkpt lat="43.81396" lon="5.15975">
        <ele>611.06</ele>
        <time>2016-03-24T11:34:31Z</time>
      </trkpt>
      <trkpt lat="43.81386" lon="5.15979">
        <ele>612.5</ele>
        <time>2016-03-24T11:34:45Z</time>
      </trkpt>
      <trkpt lat="43.81384" lon="5.15981">
        <ele>612.5</ele>
        <time>2016-03-24T11:34:48Z</time>
      </trkpt>
      <trkpt lat="43.81378" lon="5.15985">
        <ele>612.98</ele>
        <time>2016-03-24T11:35:03Z</time>
      </trkpt>
      <trkpt lat="43.81369" lon="5.15985">
        <ele>613.46</ele>
        <time>2016-03-24T11:35:15Z</time>
      </trkpt>
      <trkpt lat="43.81357" lon="5.15993">
        <ele>612.98</ele>
        <time>2016-03-24T11:35:30Z</time>
      </trkpt>
      <trkpt lat="43.81353" lon="5.15993">
        <ele>612.02</ele>
        <time>2016-03-24T11:35:34Z</time>
      </trkpt>
      <trkpt lat="43.81349" lon="5.15994">
        <ele>612.02</ele>
        <time>2016-03-24T11:35:39Z</time>
      </trkpt>
      <trkpt lat="43.81346" lon="5.15998">
        <ele>612.02</ele>
        <time>2016-03-24T11:35:43Z</time>
      </trkpt>
      <trkpt lat="43.81344" lon="5.16002">
        <ele>611.54</ele>
        <time>2016-03-24T11:35:47Z</time>
      </trkpt>
      <trkpt lat="43.81336" lon="5.16011">
        <ele>610.57</ele>
        <time>2016-03-24T11:36:02Z</time>
      </trkpt>
      <trkpt lat="43.81333" lon="5.16015">
        <ele>610.09</ele>
        <time>2016-03-24T11:36:05Z</time>
      </trkpt>
      <trkpt lat="43.81322" lon="5.16025">
        <ele>610.57</ele>
        <time>2016-03-24T11:36:18Z</time>
      </trkpt>
      <trkpt lat="43.8132" lon="5.16027">
        <ele>610.57</ele>
        <time>2016-03-24T11:36:21Z</time>
      </trkpt>
      <trkpt lat="43.81316" lon="5.16028">
        <ele>610.57</ele>
        <time>2016-03-24T11:36:24Z</time>
      </trkpt>
      <trkpt lat="43.81306" lon="5.16043">
        <ele>611.54</ele>
        <time>2016-03-24T11:36:40Z</time>
      </trkpt>
      <trkpt lat="43.81294" lon="5.16045">
        <ele>612.5</ele>
        <time>2016-03-24T11:36:54Z</time>
      </trkpt>
      <trkpt lat="43.81285" lon="5.16053">
        <ele>612.98</ele>
        <time>2016-03-24T11:37:07Z</time>
      </trkpt>
      <trkpt lat="43.81283" lon="5.16054">
        <ele>612.5</ele>
        <time>2016-03-24T11:37:10Z</time>
      </trkpt>
      <trkpt lat="43.81278" lon="5.16055">
        <ele>612.98</ele>
        <time>2016-03-24T11:37:15Z</time>
      </trkpt>
      <trkpt lat="43.81273" lon="5.1605">
        <ele>613.46</ele>
        <time>2016-03-24T11:37:22Z</time>
      </trkpt>
      <trkpt lat="43.8126" lon="5.16055">
        <ele>615.38</ele>
        <time>2016-03-24T11:37:38Z</time>
      </trkpt>
      <trkpt lat="43.81257" lon="5.16059">
        <ele>615.86</ele>
        <time>2016-03-24T11:37:43Z</time>
      </trkpt>
      <trkpt lat="43.81246" lon="5.16063">
        <ele>617.3</ele>
        <time>2016-03-24T11:37:58Z</time>
      </trkpt>
      <trkpt lat="43.81236" lon="5.16064">
        <ele>617.78</ele>
        <time>2016-03-24T11:38:11Z</time>
      </trkpt>
      <trkpt lat="43.81228" lon="5.1607">
        <ele>620.19</ele>
        <time>2016-03-24T11:38:25Z</time>
      </trkpt>
      <trkpt lat="43.81225" lon="5.16072">
        <ele>621.63</ele>
        <time>2016-03-24T11:38:30Z</time>
      </trkpt>
      <trkpt lat="43.81218" lon="5.16071">
        <ele>621.63</ele>
        <time>2016-03-24T11:38:44Z</time>
      </trkpt>
      <trkpt lat="43.81213" lon="5.16068">
        <ele>623.55</ele>
        <time>2016-03-24T11:38:57Z</time>
      </trkpt>
      <trkpt lat="43.81208" lon="5.16073">
        <ele>624.03</ele>
        <time>2016-03-24T11:39:10Z</time>
      </trkpt>
      <trkpt lat="43.81202" lon="5.16076">
        <ele>625.47</ele>
        <time>2016-03-24T11:39:23Z</time>
      </trkpt>
      <trkpt lat="43.81199" lon="5.16077">
        <ele>625.47</ele>
        <time>2016-03-24T11:39:35Z</time>
      </trkpt>
      <trkpt lat="43.81189" lon="5.16082">
        <ele>625.96</ele>
        <time>2016-03-24T11:39:48Z</time>
      </trkpt>
      <trkpt lat="43.81184" lon="5.16081">
        <ele>628.36</ele>
        <time>2016-03-24T11:40:02Z</time>
      </trkpt>
      <trkpt lat="43.81184" lon="5.1608">
        <ele>628.84</ele>
        <time>2016-03-24T11:40:18Z</time>
      </trkpt>
      <trkpt lat="43.81178" lon="5.16081">
        <ele>631.72</ele>
        <time>2016-03-24T11:40:31Z</time>
      </trkpt>
      <trkpt lat="43.81176" lon="5.16081">
        <ele>632.2</ele>
        <time>2016-03-24T11:40:35Z</time>
      </trkpt>
      <trkpt lat="43.81167" lon="5.16082">
        <ele>633.65</ele>
        <time>2016-03-24T11:40:46Z</time>
      </trkpt>
      <trkpt lat="43.81162" lon="5.16077">
        <ele>634.61</ele>
        <time>2016-03-24T11:40:58Z</time>
      </trkpt>
      <trkpt lat="43.81161" lon="5.16077">
        <ele>634.13</ele>
        <time>2016-03-24T11:41:11Z</time>
      </trkpt>
      <trkpt lat="43.81161" lon="5.16078">
        <ele>634.61</ele>
        <time>2016-03-24T11:41:37Z</time>
      </trkpt>
      <trkpt lat="43.81161" lon="5.16078">
        <ele>635.57</ele>
        <time>2016-03-24T11:42:01Z</time>
      </trkpt>
      <trkpt lat="43.8116" lon="5.16078">
        <ele>634.61</ele>
        <time>2016-03-24T11:42:21Z</time>
      </trkpt>
      <trkpt lat="43.8116" lon="5.16078">
        <ele>635.09</ele>
        <time>2016-03-24T11:42:42Z</time>
      </trkpt>
      <trkpt lat="43.81159" lon="5.16078">
        <ele>634.61</ele>
        <time>2016-03-24T11:43:09Z</time>
      </trkpt>
      <trkpt lat="43.81159" lon="5.16078">
        <ele>634.61</ele>
        <time>2016-03-24T11:43:21Z</time>
      </trkpt>
      <trkpt lat="43.81158" lon="5.16078">
        <ele>635.09</ele>
        <time>2016-03-24T11:43:43Z</time>
      </trkpt>
      <trkpt lat="43.81159" lon="5.16077">
        <ele>634.61</ele>
        <time>2016-03-24T11:44:06Z</time>
      </trkpt>
      <trkpt lat="43.81158" lon="5.16078">
        <ele>634.61</ele>
        <time>2016-03-24T11:44:21Z</time>
      </trkpt>
      <trkpt lat="43.81156" lon="5.16084">
        <ele>633.17</ele>
        <time>2016-03-24T11:44:27Z</time>
      </trkpt>
      <trkpt lat="43.81146" lon="5.1609">
        <ele>633.65</ele>
        <time>2016-03-24T11:44:39Z</time>
      </trkpt>
      <trkpt lat="43.81142" lon="5.16092">
        <ele>634.61</ele>
        <time>2016-03-24T11:44:45Z</time>
      </trkpt>
      <trkpt lat="43.81138" lon="5.16101">
        <ele>634.61</ele>
        <time>2016-03-24T11:44:54Z</time>
      </trkpt>
      <trkpt lat="43.81134" lon="5.16108">
        <ele>635.09</ele>
        <time>2016-03-24T11:45:01Z</time>
      </trkpt>
      <trkpt lat="43.81124" lon="5.16121">
        <ele>635.09</ele>
        <time>2016-03-24T11:45:16Z</time>
      </trkpt>
      <trkpt lat="43.81114" lon="5.1613">
        <ele>635.09</ele>
        <time>2016-03-24T11:45:29Z</time>
      </trkpt>
      <trkpt lat="43.81108" lon="5.16136">
        <ele>634.61</ele>
        <time>2016-03-24T11:45:42Z</time>
      </trkpt>
      <trkpt lat="43.81101" lon="5.16146">
        <ele>634.13</ele>
        <time>2016-03-24T11:45:54Z</time>
      </trkpt>
      <trkpt lat="43.81099" lon="5.16151">
        <ele>634.13</ele>
        <time>2016-03-24T11:45:59Z</time>
      </trkpt>
      <trkpt lat="43.81084" lon="5.16165">
        <ele>634.61</ele>
        <time>2016-03-24T11:46:17Z</time>
      </trkpt>
      <trkpt lat="43.81071" lon="5.16171">
        <ele>636.05</ele>
        <time>2016-03-24T11:46:33Z</time>
      </trkpt>
      <trkpt lat="43.81061" lon="5.1618">
        <ele>637.01</ele>
        <time>2016-03-24T11:46:49Z</time>
      </trkpt>
      <trkpt lat="43.81055" lon="5.1618">
        <ele>637.97</ele>
        <time>2016-03-24T11:46:58Z</time>
      </trkpt>
      <trkpt lat="43.81044" lon="5.16178">
        <ele>638.93</ele>
        <time>2016-03-24T11:47:13Z</time>
      </trkpt>
      <trkpt lat="43.81039" lon="5.16187">
        <ele>641.34</ele>
        <time>2016-03-24T11:47:28Z</time>
      </trkpt>
      <trkpt lat="43.8103" lon="5.16197">
        <ele>643.26</ele>
        <time>2016-03-24T11:47:41Z</time>
      </trkpt>
      <trkpt lat="43.81023" lon="5.16202">
        <ele>645.18</ele>
        <time>2016-03-24T11:47:56Z</time>
      </trkpt>
      <trkpt lat="43.81012" lon="5.16206">
        <ele>646.62</ele>
        <time>2016-03-24T11:48:11Z</time>
      </trkpt>
      <trkpt lat="43.81012" lon="5.16206">
        <ele>647.1</ele>
        <time>2016-03-24T11:48:27Z</time>
      </trkpt>
      <trkpt lat="43.81007" lon="5.16212">
        <ele>647.59</ele>
        <time>2016-03-24T11:48:41Z</time>
      </trkpt>
      <trkpt lat="43.81002" lon="5.16215">
        <ele>648.07</ele>
        <time>2016-03-24T11:48:46Z</time>
      </trkpt>
      <trkpt lat="43.80993" lon="5.16223">
        <ele>649.03</ele>
        <time>2016-03-24T11:49:00Z</time>
      </trkpt>
      <trkpt lat="43.80991" lon="5.16229">
        <ele>649.99</ele>
        <time>2016-03-24T11:49:06Z</time>
      </trkpt>
      <trkpt lat="43.80987" lon="5.16232">
        <ele>650.47</ele>
        <time>2016-03-24T11:49:11Z</time>
      </trkpt>
      <trkpt lat="43.80978" lon="5.16237">
        <ele>651.43</ele>
        <time>2016-03-24T11:49:24Z</time>
      </trkpt>
      <trkpt lat="43.8097" lon="5.16239">
        <ele>652.87</ele>
        <time>2016-03-24T11:49:35Z</time>
      </trkpt>
      <trkpt lat="43.80959" lon="5.16243">
        <ele>654.8</ele>
        <time>2016-03-24T11:49:50Z</time>
      </trkpt>
      <trkpt lat="43.80953" lon="5.16244">
        <ele>654.8</ele>
        <time>2016-03-24T11:50:03Z</time>
      </trkpt>
      <trkpt lat="43.8095" lon="5.16248">
        <ele>656.24</ele>
        <time>2016-03-24T11:50:14Z</time>
      </trkpt>
      <trkpt lat="43.80936" lon="5.1625">
        <ele>658.16</ele>
        <time>2016-03-24T11:50:28Z</time>
      </trkpt>
      <trkpt lat="43.80934" lon="5.16251">
        <ele>658.64</ele>
        <time>2016-03-24T11:50:30Z</time>
      </trkpt>
      <trkpt lat="43.80926" lon="5.16255">
        <ele>660.08</ele>
        <time>2016-03-24T11:50:43Z</time>
      </trkpt>
      <trkpt lat="43.80918" lon="5.16263">
        <ele>661.04</ele>
        <time>2016-03-24T11:50:58Z</time>
      </trkpt>
      <trkpt lat="43.80908" lon="5.16263">
        <ele>662.97</ele>
        <time>2016-03-24T11:51:12Z</time>
      </trkpt>
      <trkpt lat="43.80906" lon="5.16263">
        <ele>663.93</ele>
        <time>2016-03-24T11:51:15Z</time>
      </trkpt>
      <trkpt lat="43.80903" lon="5.16262">
        <ele>663.93</ele>
        <time>2016-03-24T11:51:18Z</time>
      </trkpt>
      <trkpt lat="43.80894" lon="5.16271">
        <ele>664.41</ele>
        <time>2016-03-24T11:51:33Z</time>
      </trkpt>
      <trkpt lat="43.80888" lon="5.16275">
        <ele>666.33</ele>
        <time>2016-03-24T11:51:51Z</time>
      </trkpt>
      <trkpt lat="43.80874" lon="5.16278">
        <ele>667.77</ele>
        <time>2016-03-24T11:52:13Z</time>
      </trkpt>
      <trkpt lat="43.80866" lon="5.16287">
        <ele>669.7</ele>
        <time>2016-03-24T11:52:32Z</time>
      </trkpt>
      <trkpt lat="43.80859" lon="5.16294">
        <ele>672.1</ele>
        <time>2016-03-24T11:52:42Z</time>
      </trkpt>
      <trkpt lat="43.80854" lon="5.163">
        <ele>673.54</ele>
        <time>2016-03-24T11:52:50Z</time>
      </trkpt>
      <trkpt lat="43.8083" lon="5.1631">
        <ele>677.39</ele>
        <time>2016-03-24T11:53:23Z</time>
      </trkpt>
      <trkpt lat="43.80829" lon="5.1631">
        <ele>677.39</ele>
        <time>2016-03-24T11:53:24Z</time>
      </trkpt>
      <trkpt lat="43.80821" lon="5.16324">
        <ele>680.27</ele>
        <time>2016-03-24T11:53:45Z</time>
      </trkpt>
      <trkpt lat="43.80819" lon="5.16332">
        <ele>682.19</ele>
        <time>2016-03-24T11:54:03Z</time>
      </trkpt>
      <trkpt lat="43.80816" lon="5.16331">
        <ele>682.67</ele>
        <time>2016-03-24T11:54:31Z</time>
      </trkpt>
      <trkpt lat="43.80818" lon="5.16331">
        <ele>682.67</ele>
        <time>2016-03-24T11:54:55Z</time>
      </trkpt>
      <trkpt lat="43.80819" lon="5.16331">
        <ele>682.67</ele>
        <time>2016-03-24T11:55:17Z</time>
      </trkpt>
      <trkpt lat="43.80817" lon="5.16332">
        <ele>682.67</ele>
        <time>2016-03-24T11:55:38Z</time>
      </trkpt>
      <trkpt lat="43.80812" lon="5.16342">
        <ele>684.6</ele>
        <time>2016-03-24T11:55:52Z</time>
      </trkpt>
      <trkpt lat="43.8081" lon="5.16345">
        <ele>685.08</ele>
        <time>2016-03-24T11:55:56Z</time>
      </trkpt>
      <trkpt lat="43.80801" lon="5.16356">
        <ele>687</ele>
        <time>2016-03-24T11:56:12Z</time>
      </trkpt>
      <trkpt lat="43.80793" lon="5.16363">
        <ele>688.92</ele>
        <time>2016-03-24T11:56:25Z</time>
      </trkpt>
      <trkpt lat="43.80784" lon="5.1637">
        <ele>689.88</ele>
        <time>2016-03-24T11:56:38Z</time>
      </trkpt>
      <trkpt lat="43.80779" lon="5.16374">
        <ele>690.84</ele>
        <time>2016-03-24T11:56:46Z</time>
      </trkpt>
      <trkpt lat="43.80776" lon="5.16375">
        <ele>691.33</ele>
        <time>2016-03-24T11:56:50Z</time>
      </trkpt>
      <trkpt lat="43.80767" lon="5.1638">
        <ele>691.81</ele>
        <time>2016-03-24T11:57:03Z</time>
      </trkpt>
      <trkpt lat="43.80765" lon="5.16381">
        <ele>691.81</ele>
        <time>2016-03-24T11:57:06Z</time>
      </trkpt>
      <trkpt lat="43.8075" lon="5.16385">
        <ele>692.77</ele>
        <time>2016-03-24T11:57:21Z</time>
      </trkpt>
      <trkpt lat="43.80741" lon="5.16388">
        <ele>693.25</ele>
        <time>2016-03-24T11:57:34Z</time>
      </trkpt>
      <trkpt lat="43.80738" lon="5.16389">
        <ele>692.77</ele>
        <time>2016-03-24T11:57:39Z</time>
      </trkpt>
      <trkpt lat="43.80725" lon="5.16392">
        <ele>693.25</ele>
        <time>2016-03-24T11:57:52Z</time>
      </trkpt>
      <trkpt lat="43.80719" lon="5.1639">
        <ele>693.25</ele>
        <time>2016-03-24T11:57:58Z</time>
      </trkpt>
      <trkpt lat="43.80709" lon="5.1639">
        <ele>693.25</ele>
        <time>2016-03-24T11:58:11Z</time>
      </trkpt>
      <trkpt lat="43.807" lon="5.16395">
        <ele>693.73</ele>
        <time>2016-03-24T11:58:22Z</time>
      </trkpt>
      <trkpt lat="43.80697" lon="5.16396">
        <ele>693.25</ele>
        <time>2016-03-24T11:58:25Z</time>
      </trkpt>
      <trkpt lat="43.80689" lon="5.16401">
        <ele>692.77</ele>
        <time>2016-03-24T11:58:37Z</time>
      </trkpt>
      <trkpt lat="43.80678" lon="5.16408">
        <ele>692.77</ele>
        <time>2016-03-24T11:58:51Z</time>
      </trkpt>
      <trkpt lat="43.80677" lon="5.16408">
        <ele>692.77</ele>
        <time>2016-03-24T11:58:52Z</time>
      </trkpt>
      <trkpt lat="43.80673" lon="5.16414">
        <ele>692.77</ele>
        <time>2016-03-24T11:58:59Z</time>
      </trkpt>
      <trkpt lat="43.80663" lon="5.16423">
        <ele>692.77</ele>
        <time>2016-03-24T11:59:12Z</time>
      </trkpt>
      <trkpt lat="43.80656" lon="5.16425">
        <ele>692.29</ele>
        <time>2016-03-24T11:59:23Z</time>
      </trkpt>
      <trkpt lat="43.80655" lon="5.16424">
        <ele>692.29</ele>
        <time>2016-03-24T11:59:35Z</time>
      </trkpt>
      <trkpt lat="43.80655" lon="5.16423">
        <ele>692.77</ele>
        <time>2016-03-24T11:59:50Z</time>
      </trkpt>
      <trkpt lat="43.80655" lon="5.16423">
        <ele>692.77</ele>
        <time>2016-03-24T12:00:07Z</time>
      </trkpt>
      <trkpt lat="43.80654" lon="5.16422">
        <ele>692.77</ele>
        <time>2016-03-24T12:00:32Z</time>
      </trkpt>
      <trkpt lat="43.80655" lon="5.16426">
        <ele>693.25</ele>
        <time>2016-03-24T12:00:51Z</time>
      </trkpt>
      <trkpt lat="43.80657" lon="5.16437">
        <ele>693.25</ele>
        <time>2016-03-24T12:01:03Z</time>
      </trkpt>
      <trkpt lat="43.80661" lon="5.1646">
        <ele>693.73</ele>
        <time>2016-03-24T12:01:21Z</time>
      </trkpt>
      <trkpt lat="43.80662" lon="5.16465">
        <ele>694.21</ele>
        <time>2016-03-24T12:01:25Z</time>
      </trkpt>
      <trkpt lat="43.80664" lon="5.16488">
        <ele>695.17</ele>
        <time>2016-03-24T12:01:40Z</time>
      </trkpt>
      <trkpt lat="43.80665" lon="5.16511">
        <ele>695.65</ele>
        <time>2016-03-24T12:01:55Z</time>
      </trkpt>
      <trkpt lat="43.80668" lon="5.16532">
        <ele>696.61</ele>
        <time>2016-03-24T12:02:09Z</time>
      </trkpt>
      <trkpt lat="43.80669" lon="5.16534">
        <ele>696.61</ele>
        <time>2016-03-24T12:02:10Z</time>
      </trkpt>
      <trkpt lat="43.80669" lon="5.16536">
        <ele>696.61</ele>
        <time>2016-03-24T12:02:12Z</time>
      </trkpt>
      <trkpt lat="43.80671" lon="5.16548">
        <ele>697.09</ele>
        <time>2016-03-24T12:02:20Z</time>
      </trkpt>
      <trkpt lat="43.80671" lon="5.16554">
        <ele>697.09</ele>
        <time>2016-03-24T12:02:24Z</time>
      </trkpt>
      <trkpt lat="43.80673" lon="5.16577">
        <ele>697.57</ele>
        <time>2016-03-24T12:02:39Z</time>
      </trkpt>
      <trkpt lat="43.80674" lon="5.16584">
        <ele>698.05</ele>
        <time>2016-03-24T12:02:44Z</time>
      </trkpt>
      <trkpt lat="43.80677" lon="5.16604">
        <ele>697.57</ele>
        <time>2016-03-24T12:02:58Z</time>
      </trkpt>
      <trkpt lat="43.80678" lon="5.16625">
        <ele>699.02</ele>
        <time>2016-03-24T12:03:12Z</time>
      </trkpt>
      <trkpt lat="43.80681" lon="5.16646">
        <ele>699.02</ele>
        <time>2016-03-24T12:03:27Z</time>
      </trkpt>
      <trkpt lat="43.80684" lon="5.16669">
        <ele>699.98</ele>
        <time>2016-03-24T12:03:43Z</time>
      </trkpt>
      <trkpt lat="43.80686" lon="5.16692">
        <ele>700.94</ele>
        <time>2016-03-24T12:03:59Z</time>
      </trkpt>
      <trkpt lat="43.80686" lon="5.16714">
        <ele>702.38</ele>
        <time>2016-03-24T12:04:14Z</time>
      </trkpt>
      <trkpt lat="43.80687" lon="5.16721">
        <ele>701.9</ele>
        <time>2016-03-24T12:04:19Z</time>
      </trkpt>
      <trkpt lat="43.80684" lon="5.16742">
        <ele>702.38</ele>
        <time>2016-03-24T12:04:34Z</time>
      </trkpt>
      <trkpt lat="43.80685" lon="5.16754">
        <ele>703.34</ele>
        <time>2016-03-24T12:04:49Z</time>
      </trkpt>
      <trkpt lat="43.80685" lon="5.16755">
        <ele>703.34</ele>
        <time>2016-03-24T12:04:50Z</time>
      </trkpt>
      <trkpt lat="43.80684" lon="5.1676">
        <ele>703.34</ele>
        <time>2016-03-24T12:04:53Z</time>
      </trkpt>
      <trkpt lat="43.80675" lon="5.16789">
        <ele>703.82</ele>
        <time>2016-03-24T12:05:10Z</time>
      </trkpt>
      <trkpt lat="43.80669" lon="5.16814">
        <ele>704.3</ele>
        <time>2016-03-24T12:05:25Z</time>
      </trkpt>
      <trkpt lat="43.80664" lon="5.16822">
        <ele>704.3</ele>
        <time>2016-03-24T12:05:38Z</time>
      </trkpt>
      <trkpt lat="43.80661" lon="5.16827">
        <ele>704.3</ele>
        <time>2016-03-24T12:05:53Z</time>
      </trkpt>
      <trkpt lat="43.80662" lon="5.16829">
        <ele>704.3</ele>
        <time>2016-03-24T12:06:08Z</time>
      </trkpt>
      <trkpt lat="43.80662" lon="5.16829">
        <ele>704.3</ele>
        <time>2016-03-24T12:06:23Z</time>
      </trkpt>
      <trkpt lat="43.80658" lon="5.16828">
        <ele>703.82</ele>
        <time>2016-03-24T12:06:44Z</time>
      </trkpt>
      <trkpt lat="43.80657" lon="5.16827">
        <ele>703.82</ele>
        <time>2016-03-24T12:07:01Z</time>
      </trkpt>
      <trkpt lat="43.80655" lon="5.16827">
        <ele>703.82</ele>
        <time>2016-03-24T12:07:17Z</time>
      </trkpt>
      <trkpt lat="43.80651" lon="5.16826">
        <ele>703.34</ele>
        <time>2016-03-24T12:07:21Z</time>
      </trkpt>
      <trkpt lat="43.80636" lon="5.16823">
        <ele>703.34</ele>
        <time>2016-03-24T12:07:37Z</time>
      </trkpt>
      <trkpt lat="43.80618" lon="5.16822">
        <ele>702.86</ele>
        <time>2016-03-24T12:07:52Z</time>
      </trkpt>
      <trkpt lat="43.80601" lon="5.16825">
        <ele>702.38</ele>
        <time>2016-03-24T12:08:07Z</time>
      </trkpt>
      <trkpt lat="43.80586" lon="5.16822">
        <ele>701.42</ele>
        <time>2016-03-24T12:08:23Z</time>
      </trkpt>
      <trkpt lat="43.80568" lon="5.16819">
        <ele>699.98</ele>
        <time>2016-03-24T12:08:40Z</time>
      </trkpt>
      <trkpt lat="43.80559" lon="5.16818">
        <ele>699.5</ele>
        <time>2016-03-24T12:08:48Z</time>
      </trkpt>
      <trkpt lat="43.80543" lon="5.1682">
        <ele>699.5</ele>
        <time>2016-03-24T12:09:05Z</time>
      </trkpt>
      <trkpt lat="43.80533" lon="5.16823">
        <ele>699.5</ele>
        <time>2016-03-24T12:09:14Z</time>
      </trkpt>
      <trkpt lat="43.80521" lon="5.16821">
        <ele>699.5</ele>
        <time>2016-03-24T12:09:30Z</time>
      </trkpt>
      <trkpt lat="43.80503" lon="5.16818">
        <ele>699.02</ele>
        <time>2016-03-24T12:09:48Z</time>
      </trkpt>
      <trkpt lat="43.80491" lon="5.16817">
        <ele>698.53</ele>
        <time>2016-03-24T12:10:06Z</time>
      </trkpt>
      <trkpt lat="43.80481" lon="5.16805">
        <ele>697.57</ele>
        <time>2016-03-24T12:10:20Z</time>
      </trkpt>
      <trkpt lat="43.80469" lon="5.16795">
        <ele>697.57</ele>
        <time>2016-03-24T12:10:33Z</time>
      </trkpt>
      <trkpt lat="43.80464" lon="5.16791">
        <ele>697.09</ele>
        <time>2016-03-24T12:10:39Z</time>
      </trkpt>
      <trkpt lat="43.8046" lon="5.16791">
        <ele>697.09</ele>
        <time>2016-03-24T12:10:44Z</time>
      </trkpt>
      <trkpt lat="43.80449" lon="5.16777">
        <ele>696.61</ele>
        <time>2016-03-24T12:11:00Z</time>
      </trkpt>
      <trkpt lat="43.80439" lon="5.16763">
        <ele>695.65</ele>
        <time>2016-03-24T12:11:14Z</time>
      </trkpt>
      <trkpt lat="43.80432" lon="5.1675">
        <ele>695.17</ele>
        <time>2016-03-24T12:11:26Z</time>
      </trkpt>
      <trkpt lat="43.80425" lon="5.16731">
        <ele>693.25</ele>
        <time>2016-03-24T12:11:43Z</time>
      </trkpt>
      <trkpt lat="43.80419" lon="5.16721">
        <ele>692.29</ele>
        <time>2016-03-24T12:11:55Z</time>
      </trkpt>
      <trkpt lat="43.80413" lon="5.16704">
        <ele>691.81</ele>
        <time>2016-03-24T12:12:10Z</time>
      </trkpt>
      <trkpt lat="43.80412" lon="5.16701">
        <ele>692.29</ele>
        <time>2016-03-24T12:12:12Z</time>
      </trkpt>
      <trkpt lat="43.80402" lon="5.16688">
        <ele>692.77</ele>
        <time>2016-03-24T12:12:25Z</time>
      </trkpt>
      <trkpt lat="43.80394" lon="5.16686">
        <ele>691.33</ele>
        <time>2016-03-24T12:12:39Z</time>
      </trkpt>
      <trkpt lat="43.80389" lon="5.16677">
        <ele>690.84</ele>
        <time>2016-03-24T12:12:52Z</time>
      </trkpt>
      <trkpt lat="43.80379" lon="5.16666">
        <ele>690.84</ele>
        <time>2016-03-24T12:13:05Z</time>
      </trkpt>
      <trkpt lat="43.80372" lon="5.16655">
        <ele>690.84</ele>
        <time>2016-03-24T12:13:17Z</time>
      </trkpt>
      <trkpt lat="43.80369" lon="5.16653">
        <ele>690.36</ele>
        <time>2016-03-24T12:13:19Z</time>
      </trkpt>
      <trkpt lat="43.80361" lon="5.16661">
        <ele>689.88</ele>
        <time>2016-03-24T12:13:33Z</time>
      </trkpt>
      <trkpt lat="43.80361" lon="5.16671">
        <ele>688.92</ele>
        <time>2016-03-24T12:13:46Z</time>
      </trkpt>
      <trkpt lat="43.80362" lon="5.16673">
        <ele>688.92</ele>
        <time>2016-03-24T12:13:58Z</time>
      </trkpt>
      <trkpt lat="43.80362" lon="5.16673">
        <ele>688.92</ele>
        <time>2016-03-24T12:14:12Z</time>
      </trkpt>
      <trkpt lat="43.80362" lon="5.16674">
        <ele>688.44</ele>
        <time>2016-03-24T12:14:26Z</time>
      </trkpt>
      <trkpt lat="43.80362" lon="5.16675">
        <ele>688.92</ele>
        <time>2016-03-24T12:14:40Z</time>
      </trkpt>
      <trkpt lat="43.80362" lon="5.16675">
        <ele>688.44</ele>
        <time>2016-03-24T12:14:53Z</time>
      </trkpt>
      <trkpt lat="43.80362" lon="5.16675">
        <ele>688.44</ele>
        <time>2016-03-24T12:15:10Z</time>
      </trkpt>
      <trkpt lat="43.80362" lon="5.16675">
        <ele>687.48</ele>
        <time>2016-03-24T12:15:24Z</time>
      </trkpt>
      <trkpt lat="43.80361" lon="5.16677">
        <ele>687</ele>
        <time>2016-03-24T12:16:02Z</time>
      </trkpt>
      <trkpt lat="43.80361" lon="5.16678">
        <ele>687.48</ele>
        <time>2016-03-24T12:16:34Z</time>
      </trkpt>
      <trkpt lat="43.80361" lon="5.16678">
        <ele>687.48</ele>
        <time>2016-03-24T12:17:03Z</time>
      </trkpt>
      <trkpt lat="43.80361" lon="5.16678">
        <ele>687.48</ele>
        <time>2016-03-24T12:17:38Z</time>
      </trkpt>
      <trkpt lat="43.80361" lon="5.16679">
        <ele>687.48</ele>
        <time>2016-03-24T12:18:13Z</time>
      </trkpt>
      <trkpt lat="43.80361" lon="5.16678">
        <ele>687.48</ele>
        <time>2016-03-24T12:18:47Z</time>
      </trkpt>
      <trkpt lat="43.80361" lon="5.16678">
        <ele>687</ele>
        <time>2016-03-24T12:19:15Z</time>
      </trkpt>
      <trkpt lat="43.80361" lon="5.16678">
        <ele>687.48</ele>
        <time>2016-03-24T12:19:50Z</time>
      </trkpt>
      <trkpt lat="43.8036" lon="5.16678">
        <ele>687</ele>
        <time>2016-03-24T12:20:27Z</time>
      </trkpt>
      <trkpt lat="43.8036" lon="5.16678">
        <ele>687.96</ele>
        <time>2016-03-24T12:20:59Z</time>
      </trkpt>
      <trkpt lat="43.8036" lon="5.16677">
        <ele>687.48</ele>
        <time>2016-03-24T12:21:33Z</time>
      </trkpt>
      <trkpt lat="43.80359" lon="5.16677">
        <ele>687.48</ele>
        <time>2016-03-24T12:22:11Z</time>
      </trkpt>
      <trkpt lat="43.80359" lon="5.16678">
        <ele>687.96</ele>
        <time>2016-03-24T12:22:47Z</time>
      </trkpt>
      <trkpt lat="43.80359" lon="5.16678">
        <ele>687</ele>
        <time>2016-03-24T12:23:23Z</time>
      </trkpt>
      <trkpt lat="43.80359" lon="5.16678">
        <ele>687.96</ele>
        <time>2016-03-24T12:23:59Z</time>
      </trkpt>
      <trkpt lat="43.80359" lon="5.16678">
        <ele>687.96</ele>
        <time>2016-03-24T12:24:34Z</time>
      </trkpt>
      <trkpt lat="43.80359" lon="5.16678">
        <ele>687.96</ele>
        <time>2016-03-24T12:25:11Z</time>
      </trkpt>
      <trkpt lat="43.80359" lon="5.16678">
        <ele>687.96</ele>
        <time>2016-03-24T12:25:47Z</time>
      </trkpt>
      <trkpt lat="43.80359" lon="5.16678">
        <ele>687.96</ele>
        <time>2016-03-24T12:26:25Z</time>
      </trkpt>
      <trkpt lat="43.80359" lon="5.16678">
        <ele>687.96</ele>
        <time>2016-03-24T12:27:01Z</time>
      </trkpt>
      <trkpt lat="43.80359" lon="5.16678">
        <ele>687.96</ele>
        <time>2016-03-24T12:27:34Z</time>
      </trkpt>
      <trkpt lat="43.80359" lon="5.16678">
        <ele>687.96</ele>
        <time>2016-03-24T12:28:11Z</time>
      </trkpt>
      <trkpt lat="43.80359" lon="5.16678">
        <ele>687.96</ele>
        <time>2016-03-24T12:28:46Z</time>
      </trkpt>
      <trkpt lat="43.80359" lon="5.16678">
        <ele>687.96</ele>
        <time>2016-03-24T12:29:21Z</time>
      </trkpt>
      <trkpt lat="43.80359" lon="5.16678">
        <ele>687.96</ele>
        <time>2016-03-24T12:29:53Z</time>
      </trkpt>
      <trkpt lat="43.80359" lon="5.16678">
        <ele>687.96</ele>
        <time>2016-03-24T12:30:30Z</time>
      </trkpt>
      <trkpt lat="43.80359" lon="5.16678">
        <ele>688.44</ele>
        <time>2016-03-24T12:31:05Z</time>
      </trkpt>
      <trkpt lat="43.80359" lon="5.16678">
        <ele>687.96</ele>
        <time>2016-03-24T12:31:43Z</time>
      </trkpt>
      <trkpt lat="43.80359" lon="5.16678">
        <ele>688.44</ele>
        <time>2016-03-24T12:32:17Z</time>
      </trkpt>
      <trkpt lat="43.80359" lon="5.16678">
        <ele>688.44</ele>
        <time>2016-03-24T12:32:51Z</time>
      </trkpt>
      <trkpt lat="43.80359" lon="5.16678">
        <ele>688.44</ele>
        <time>2016-03-24T12:33:25Z</time>
      </trkpt>
      <trkpt lat="43.80359" lon="5.16678">
        <ele>688.92</ele>
        <time>2016-03-24T12:33:59Z</time>
      </trkpt>
      <trkpt lat="43.8036" lon="5.16678">
        <ele>688.92</ele>
        <time>2016-03-24T12:34:36Z</time>
      </trkpt>
      <trkpt lat="43.8036" lon="5.16677">
        <ele>688.92</ele>
        <time>2016-03-24T12:35:10Z</time>
      </trkpt>
      <trkpt lat="43.8036" lon="5.16677">
        <ele>688.92</ele>
        <time>2016-03-24T12:35:41Z</time>
      </trkpt>
      <trkpt lat="43.8036" lon="5.16677">
        <ele>688.92</ele>
        <time>2016-03-24T12:36:15Z</time>
      </trkpt>
      <trkpt lat="43.8036" lon="5.16677">
        <ele>689.4</ele>
        <time>2016-03-24T12:36:48Z</time>
      </trkpt>
      <trkpt lat="43.8036" lon="5.16677">
        <ele>688.92</ele>
        <time>2016-03-24T12:37:21Z</time>
      </trkpt>
      <trkpt lat="43.8036" lon="5.16677">
        <ele>689.4</ele>
        <time>2016-03-24T12:37:58Z</time>
      </trkpt>
      <trkpt lat="43.8036" lon="5.16677">
        <ele>688.92</ele>
        <time>2016-03-24T12:38:33Z</time>
      </trkpt>
      <trkpt lat="43.8036" lon="5.16678">
        <ele>689.4</ele>
        <time>2016-03-24T12:39:07Z</time>
      </trkpt>
      <trkpt lat="43.8036" lon="5.16677">
        <ele>688.92</ele>
        <time>2016-03-24T12:39:45Z</time>
      </trkpt>
      <trkpt lat="43.8036" lon="5.16678">
        <ele>689.4</ele>
        <time>2016-03-24T12:40:20Z</time>
      </trkpt>
      <trkpt lat="43.8036" lon="5.16678">
        <ele>689.4</ele>
        <time>2016-03-24T12:40:57Z</time>
      </trkpt>
      <trkpt lat="43.8036" lon="5.16678">
        <ele>689.4</ele>
        <time>2016-03-24T12:41:31Z</time>
      </trkpt>
      <trkpt lat="43.8036" lon="5.16678">
        <ele>688.92</ele>
        <time>2016-03-24T12:42:09Z</time>
      </trkpt>
      <trkpt lat="43.8036" lon="5.16678">
        <ele>688.92</ele>
        <time>2016-03-24T12:42:43Z</time>
      </trkpt>
      <trkpt lat="43.8036" lon="5.16678">
        <ele>689.4</ele>
        <time>2016-03-24T12:43:19Z</time>
      </trkpt>
      <trkpt lat="43.8036" lon="5.16678">
        <ele>689.4</ele>
        <time>2016-03-24T12:43:52Z</time>
      </trkpt>
      <trkpt lat="43.8036" lon="5.16678">
        <ele>689.4</ele>
        <time>2016-03-24T12:44:28Z</time>
      </trkpt>
      <trkpt lat="43.8036" lon="5.16678">
        <ele>689.4</ele>
        <time>2016-03-24T12:44:59Z</time>
      </trkpt>
      <trkpt lat="43.80359" lon="5.16678">
        <ele>689.88</ele>
        <time>2016-03-24T12:45:31Z</time>
      </trkpt>
      <trkpt lat="43.80359" lon="5.16678">
        <ele>689.88</ele>
        <time>2016-03-24T12:46:06Z</time>
      </trkpt>
      <trkpt lat="43.80359" lon="5.16677">
        <ele>690.36</ele>
        <time>2016-03-24T12:46:39Z</time>
      </trkpt>
      <trkpt lat="43.80359" lon="5.16678">
        <ele>690.36</ele>
        <time>2016-03-24T12:47:13Z</time>
      </trkpt>
      <trkpt lat="43.8036" lon="5.16677">
        <ele>690.36</ele>
        <time>2016-03-24T12:47:51Z</time>
      </trkpt>
      <trkpt lat="43.8036" lon="5.16677">
        <ele>691.33</ele>
        <time>2016-03-24T12:48:29Z</time>
      </trkpt>
      <trkpt lat="43.8036" lon="5.16677">
        <ele>691.33</ele>
        <time>2016-03-24T12:49:03Z</time>
      </trkpt>
      <trkpt lat="43.8036" lon="5.16678">
        <ele>691.81</ele>
        <time>2016-03-24T12:49:34Z</time>
      </trkpt>
      <trkpt lat="43.8036" lon="5.16678">
        <ele>690.84</ele>
        <time>2016-03-24T12:50:09Z</time>
      </trkpt>
      <trkpt lat="43.8036" lon="5.16678">
        <ele>691.33</ele>
        <time>2016-03-24T12:50:39Z</time>
      </trkpt>
      <trkpt lat="43.8036" lon="5.16678">
        <ele>690.84</ele>
        <time>2016-03-24T12:51:09Z</time>
      </trkpt>
      <trkpt lat="43.8036" lon="5.16678">
        <ele>691.33</ele>
        <time>2016-03-24T12:51:43Z</time>
      </trkpt>
      <trkpt lat="43.8036" lon="5.16678">
        <ele>690.84</ele>
        <time>2016-03-24T12:52:22Z</time>
      </trkpt>
      <trkpt lat="43.8036" lon="5.16677">
        <ele>691.33</ele>
        <time>2016-03-24T12:52:55Z</time>
      </trkpt>
      <trkpt lat="43.8036" lon="5.16678">
        <ele>690.84</ele>
        <time>2016-03-24T12:53:29Z</time>
      </trkpt>
      <trkpt lat="43.8036" lon="5.16678">
        <ele>691.33</ele>
        <time>2016-03-24T12:54:06Z</time>
      </trkpt>
      <trkpt lat="43.80359" lon="5.16678">
        <ele>690.84</ele>
        <time>2016-03-24T12:54:40Z</time>
      </trkpt>
      <trkpt lat="43.8036" lon="5.16678">
        <ele>690.84</ele>
        <time>2016-03-24T12:55:17Z</time>
      </trkpt>
      <trkpt lat="43.8036" lon="5.16678">
        <ele>690.84</ele>
        <time>2016-03-24T12:55:52Z</time>
      </trkpt>
      <trkpt lat="43.8036" lon="5.16678">
        <ele>690.84</ele>
        <time>2016-03-24T12:56:24Z</time>
      </trkpt>
      <trkpt lat="43.8036" lon="5.16678">
        <ele>691.33</ele>
        <time>2016-03-24T12:57:02Z</time>
      </trkpt>
      <trkpt lat="43.8036" lon="5.16678">
        <ele>691.33</ele>
        <time>2016-03-24T12:57:34Z</time>
      </trkpt>
      <trkpt lat="43.8036" lon="5.16678">
        <ele>690.84</ele>
        <time>2016-03-24T12:58:10Z</time>
      </trkpt>
      <trkpt lat="43.8036" lon="5.16678">
        <ele>691.33</ele>
        <time>2016-03-24T12:58:46Z</time>
      </trkpt>
      <trkpt lat="43.8036" lon="5.16678">
        <ele>690.84</ele>
        <time>2016-03-24T12:59:23Z</time>
      </trkpt>
      <trkpt lat="43.8036" lon="5.16678">
        <ele>690.84</ele>
        <time>2016-03-24T12:59:57Z</time>
      </trkpt>
      <trkpt lat="43.8036" lon="5.16677">
        <ele>690.36</ele>
        <time>2016-03-24T13:00:35Z</time>
      </trkpt>
      <trkpt lat="43.8036" lon="5.16678">
        <ele>690.36</ele>
        <time>2016-03-24T13:01:17Z</time>
      </trkpt>
      <trkpt lat="43.8036" lon="5.16677">
        <ele>690.84</ele>
        <time>2016-03-24T13:01:46Z</time>
      </trkpt>
      <trkpt lat="43.8036" lon="5.16677">
        <ele>690.84</ele>
        <time>2016-03-24T13:02:22Z</time>
      </trkpt>
      <trkpt lat="43.8036" lon="5.16678">
        <ele>690.84</ele>
        <time>2016-03-24T13:02:56Z</time>
      </trkpt>
      <trkpt lat="43.8036" lon="5.16677">
        <ele>690.36</ele>
        <time>2016-03-24T13:03:31Z</time>
      </trkpt>
      <trkpt lat="43.8036" lon="5.16677">
        <ele>690.84</ele>
        <time>2016-03-24T13:04:06Z</time>
      </trkpt>
      <trkpt lat="43.8036" lon="5.16677">
        <ele>690.84</ele>
        <time>2016-03-24T13:04:43Z</time>
      </trkpt>
      <trkpt lat="43.80361" lon="5.16678">
        <ele>690.84</ele>
        <time>2016-03-24T13:05:21Z</time>
      </trkpt>
      <trkpt lat="43.8036" lon="5.16678">
        <ele>690.84</ele>
        <time>2016-03-24T13:05:41Z</time>
      </trkpt>
      <trkpt lat="43.80361" lon="5.16677">
        <ele>690.84</ele>
        <time>2016-03-24T13:06:18Z</time>
      </trkpt>
      <trkpt lat="43.80361" lon="5.16678">
        <ele>690.84</ele>
        <time>2016-03-24T13:06:56Z</time>
      </trkpt>
      <trkpt lat="43.80361" lon="5.16678">
        <ele>690.84</ele>
        <time>2016-03-24T13:07:33Z</time>
      </trkpt>
      <trkpt lat="43.8036" lon="5.16678">
        <ele>691.33</ele>
        <time>2016-03-24T13:08:11Z</time>
      </trkpt>
      <trkpt lat="43.8036" lon="5.16678">
        <ele>690.84</ele>
        <time>2016-03-24T13:08:48Z</time>
      </trkpt>
      <trkpt lat="43.80361" lon="5.16677">
        <ele>690.84</ele>
        <time>2016-03-24T13:09:24Z</time>
      </trkpt>
      <trkpt lat="43.80361" lon="5.16677">
        <ele>691.33</ele>
        <time>2016-03-24T13:10:03Z</time>
      </trkpt>
      <trkpt lat="43.8036" lon="5.16678">
        <ele>691.33</ele>
        <time>2016-03-24T13:10:43Z</time>
      </trkpt>
      <trkpt lat="43.80361" lon="5.16678">
        <ele>690.84</ele>
        <time>2016-03-24T13:11:21Z</time>
      </trkpt>
      <trkpt lat="43.8036" lon="5.16679">
        <ele>691.33</ele>
        <time>2016-03-24T13:11:59Z</time>
      </trkpt>
      <trkpt lat="43.8036" lon="5.1668">
        <ele>690.84</ele>
        <time>2016-03-24T13:12:32Z</time>
      </trkpt>
      <trkpt lat="43.8036" lon="5.16679">
        <ele>690.36</ele>
        <time>2016-03-24T13:13:08Z</time>
      </trkpt>
      <trkpt lat="43.8036" lon="5.16678">
        <ele>690.84</ele>
        <time>2016-03-24T13:13:44Z</time>
      </trkpt>
      <trkpt lat="43.8036" lon="5.16678">
        <ele>690.84</ele>
        <time>2016-03-24T13:14:20Z</time>
      </trkpt>
      <trkpt lat="43.8036" lon="5.16678">
        <ele>689.88</ele>
        <time>2016-03-24T13:14:55Z</time>
      </trkpt>
      <trkpt lat="43.8036" lon="5.16678">
        <ele>690.36</ele>
        <time>2016-03-24T13:15:20Z</time>
      </trkpt>
      <trkpt lat="43.8036" lon="5.16678">
        <ele>690.36</ele>
        <time>2016-03-24T13:15:46Z</time>
      </trkpt>
      <trkpt lat="43.8036" lon="5.16678">
        <ele>690.84</ele>
        <time>2016-03-24T13:16:06Z</time>
      </trkpt>
      <trkpt lat="43.8036" lon="5.16678">
        <ele>690.84</ele>
        <time>2016-03-24T13:16:18Z</time>
      </trkpt>
      <trkpt lat="43.8036" lon="5.16678">
        <ele>691.33</ele>
        <time>2016-03-24T13:16:36Z</time>
      </trkpt>
      <trkpt lat="43.8036" lon="5.16678">
        <ele>690.36</ele>
        <time>2016-03-24T13:16:50Z</time>
      </trkpt>
      <trkpt lat="43.8036" lon="5.16678">
        <ele>690.84</ele>
        <time>2016-03-24T13:17:16Z</time>
      </trkpt>
      <trkpt lat="43.8036" lon="5.16678">
        <ele>690.36</ele>
        <time>2016-03-24T13:17:42Z</time>
      </trkpt>
      <trkpt lat="43.8036" lon="5.16678">
        <ele>675.94</ele>
        <time>2016-03-24T13:17:44Z</time>
      </trkpt>
      <trkpt lat="43.8036" lon="5.16678">
        <ele>690.36</ele>
        <time>2016-03-24T13:17:45Z</time>
      </trkpt>
      <trkpt lat="43.80358" lon="5.16687">
        <ele>689.88</ele>
        <time>2016-03-24T13:18:08Z</time>
      </trkpt>
      <trkpt lat="43.80355" lon="5.16707">
        <ele>690.36</ele>
        <time>2016-03-24T13:18:34Z</time>
      </trkpt>
      <trkpt lat="43.80355" lon="5.16707">
        <ele>684.12</ele>
        <time>2016-03-24T13:18:35Z</time>
      </trkpt>
      <trkpt lat="43.80355" lon="5.16708">
        <ele>690.84</ele>
        <time>2016-03-24T13:18:36Z</time>
      </trkpt>
      <trkpt lat="43.8036" lon="5.16709">
        <ele>700.46</ele>
        <time>2016-03-24T13:18:52Z</time>
      </trkpt>
      <trkpt lat="43.8036" lon="5.16702">
        <ele>690.84</ele>
        <time>2016-03-24T13:18:53Z</time>
      </trkpt>
      <trkpt lat="43.8036" lon="5.16677">
        <ele>689.88</ele>
        <time>2016-03-24T13:19:14Z</time>
      </trkpt>
      <trkpt lat="43.8036" lon="5.16679">
        <ele>690.36</ele>
        <time>2016-03-24T13:19:35Z</time>
      </trkpt>
      <trkpt lat="43.80359" lon="5.16678">
        <ele>691.33</ele>
        <time>2016-03-24T13:19:56Z</time>
      </trkpt>
      <trkpt lat="43.80359" lon="5.16674">
        <ele>691.33</ele>
        <time>2016-03-24T13:20:11Z</time>
      </trkpt>
      <trkpt lat="43.80362" lon="5.16665">
        <ele>692.29</ele>
        <time>2016-03-24T13:20:26Z</time>
      </trkpt>
      <trkpt lat="43.80363" lon="5.16656">
        <ele>691.81</ele>
        <time>2016-03-24T13:20:41Z</time>
      </trkpt>
      <trkpt lat="43.80369" lon="5.16653">
        <ele>692.77</ele>
        <time>2016-03-24T13:20:55Z</time>
      </trkpt>
      <trkpt lat="43.80375" lon="5.16659">
        <ele>692.77</ele>
        <time>2016-03-24T13:21:11Z</time>
      </trkpt>
      <trkpt lat="43.80375" lon="5.16662">
        <ele>693.25</ele>
        <time>2016-03-24T13:21:26Z</time>
      </trkpt>
      <trkpt lat="43.80377" lon="5.16664">
        <ele>693.25</ele>
        <time>2016-03-24T13:21:41Z</time>
      </trkpt>
      <trkpt lat="43.80377" lon="5.16668">
        <ele>693.25</ele>
        <time>2016-03-24T13:21:58Z</time>
      </trkpt>
      <trkpt lat="43.80379" lon="5.16669">
        <ele>693.73</ele>
        <time>2016-03-24T13:22:15Z</time>
      </trkpt>
      <trkpt lat="43.80395" lon="5.16683">
        <ele>694.21</ele>
        <time>2016-03-24T13:22:30Z</time>
      </trkpt>
      <trkpt lat="43.80404" lon="5.16694">
        <ele>694.69</ele>
        <time>2016-03-24T13:22:41Z</time>
      </trkpt>
      <trkpt lat="43.80411" lon="5.16706">
        <ele>693.73</ele>
        <time>2016-03-24T13:22:55Z</time>
      </trkpt>
      <trkpt lat="43.80413" lon="5.16717">
        <ele>694.69</ele>
        <time>2016-03-24T13:23:13Z</time>
      </trkpt>
      <trkpt lat="43.80418" lon="5.16725">
        <ele>695.17</ele>
        <time>2016-03-24T13:23:28Z</time>
      </trkpt>
      <trkpt lat="43.80426" lon="5.16733">
        <ele>695.17</ele>
        <time>2016-03-24T13:23:41Z</time>
      </trkpt>
      <trkpt lat="43.80429" lon="5.16744">
        <ele>695.65</ele>
        <time>2016-03-24T13:23:54Z</time>
      </trkpt>
      <trkpt lat="43.80435" lon="5.16751">
        <ele>696.61</ele>
        <time>2016-03-24T13:24:09Z</time>
      </trkpt>
      <trkpt lat="43.80438" lon="5.16761">
        <ele>696.61</ele>
        <time>2016-03-24T13:24:26Z</time>
      </trkpt>
      <trkpt lat="43.80445" lon="5.16768">
        <ele>697.57</ele>
        <time>2016-03-24T13:24:40Z</time>
      </trkpt>
      <trkpt lat="43.80451" lon="5.1678">
        <ele>698.05</ele>
        <time>2016-03-24T13:24:55Z</time>
      </trkpt>
      <trkpt lat="43.80461" lon="5.1679">
        <ele>699.02</ele>
        <time>2016-03-24T13:25:10Z</time>
      </trkpt>
      <trkpt lat="43.80473" lon="5.16797">
        <ele>699.5</ele>
        <time>2016-03-24T13:25:26Z</time>
      </trkpt>
      <trkpt lat="43.80474" lon="5.16797">
        <ele>699.5</ele>
        <time>2016-03-24T13:25:27Z</time>
      </trkpt>
      <trkpt lat="43.80485" lon="5.16805">
        <ele>699.98</ele>
        <time>2016-03-24T13:25:43Z</time>
      </trkpt>
      <trkpt lat="43.80489" lon="5.16815">
        <ele>699.98</ele>
        <time>2016-03-24T13:25:55Z</time>
      </trkpt>
      <trkpt lat="43.80499" lon="5.16817">
        <ele>700.94</ele>
        <time>2016-03-24T13:26:08Z</time>
      </trkpt>
      <trkpt lat="43.80508" lon="5.16815">
        <ele>700.94</ele>
        <time>2016-03-24T13:26:24Z</time>
      </trkpt>
      <trkpt lat="43.80525" lon="5.16811">
        <ele>700.46</ele>
        <time>2016-03-24T13:26:40Z</time>
      </trkpt>
      <trkpt lat="43.80529" lon="5.16808">
        <ele>700.46</ele>
        <time>2016-03-24T13:26:58Z</time>
      </trkpt>
      <trkpt lat="43.80529" lon="5.16807">
        <ele>700.46</ele>
        <time>2016-03-24T13:27:14Z</time>
      </trkpt>
      <trkpt lat="43.80528" lon="5.16806">
        <ele>699.98</ele>
        <time>2016-03-24T13:27:33Z</time>
      </trkpt>
      <trkpt lat="43.80526" lon="5.16806">
        <ele>699.5</ele>
        <time>2016-03-24T13:27:51Z</time>
      </trkpt>
      <trkpt lat="43.80528" lon="5.16808">
        <ele>700.46</ele>
        <time>2016-03-24T13:28:06Z</time>
      </trkpt>
      <trkpt lat="43.80532" lon="5.16807">
        <ele>700.46</ele>
        <time>2016-03-24T13:28:17Z</time>
      </trkpt>
      <trkpt lat="43.80531" lon="5.16807">
        <ele>700.46</ele>
        <time>2016-03-24T13:28:20Z</time>
      </trkpt>
      <trkpt lat="43.80506" lon="5.16828">
        <ele>700.46</ele>
        <time>2016-03-24T13:28:40Z</time>
      </trkpt>
      <trkpt lat="43.80525" lon="5.16806">
        <ele>700.46</ele>
        <time>2016-03-24T13:28:56Z</time>
      </trkpt>
      <trkpt lat="43.80525" lon="5.16804">
        <ele>700.46</ele>
        <time>2016-03-24T13:29:11Z</time>
      </trkpt>
      <trkpt lat="43.80529" lon="5.16801">
        <ele>699.98</ele>
        <time>2016-03-24T13:29:31Z</time>
      </trkpt>
      <trkpt lat="43.80528" lon="5.168">
        <ele>699.98</ele>
        <time>2016-03-24T13:29:34Z</time>
      </trkpt>
      <trkpt lat="43.8053" lon="5.16809">
        <ele>700.46</ele>
        <time>2016-03-24T13:29:46Z</time>
      </trkpt>
      <trkpt lat="43.80532" lon="5.16807">
        <ele>700.46</ele>
        <time>2016-03-24T13:30:00Z</time>
      </trkpt>
      <trkpt lat="43.8053" lon="5.16819">
        <ele>700.94</ele>
        <time>2016-03-24T13:30:08Z</time>
      </trkpt>
      <trkpt lat="43.80535" lon="5.16822">
        <ele>701.42</ele>
        <time>2016-03-24T13:30:13Z</time>
      </trkpt>
      <trkpt lat="43.80553" lon="5.16822">
        <ele>700.94</ele>
        <time>2016-03-24T13:30:29Z</time>
      </trkpt>
      <trkpt lat="43.80565" lon="5.16821">
        <ele>701.9</ele>
        <time>2016-03-24T13:30:47Z</time>
      </trkpt>
      <trkpt lat="43.80575" lon="5.16823">
        <ele>702.86</ele>
        <time>2016-03-24T13:31:04Z</time>
      </trkpt>
      <trkpt lat="43.80589" lon="5.16827">
        <ele>704.3</ele>
        <time>2016-03-24T13:31:24Z</time>
      </trkpt>
      <trkpt lat="43.80606" lon="5.16828">
        <ele>704.3</ele>
        <time>2016-03-24T13:31:40Z</time>
      </trkpt>
      <trkpt lat="43.80616" lon="5.16829">
        <ele>703.82</ele>
        <time>2016-03-24T13:31:55Z</time>
      </trkpt>
      <trkpt lat="43.80629" lon="5.16826">
        <ele>704.78</ele>
        <time>2016-03-24T13:32:07Z</time>
      </trkpt>
      <trkpt lat="43.80646" lon="5.16829">
        <ele>705.26</ele>
        <time>2016-03-24T13:32:23Z</time>
      </trkpt>
      <trkpt lat="43.80649" lon="5.1683">
        <ele>705.26</ele>
        <time>2016-03-24T13:32:25Z</time>
      </trkpt>
      <trkpt lat="43.80661" lon="5.16833">
        <ele>706.23</ele>
        <time>2016-03-24T13:32:40Z</time>
      </trkpt>
      <trkpt lat="43.80667" lon="5.16829">
        <ele>706.23</ele>
        <time>2016-03-24T13:32:52Z</time>
      </trkpt>
      <trkpt lat="43.8067" lon="5.16824">
        <ele>705.26</ele>
        <time>2016-03-24T13:33:05Z</time>
      </trkpt>
      <trkpt lat="43.80675" lon="5.16816">
        <ele>705.26</ele>
        <time>2016-03-24T13:33:20Z</time>
      </trkpt>
      <trkpt lat="43.80675" lon="5.16815">
        <ele>705.75</ele>
        <time>2016-03-24T13:33:49Z</time>
      </trkpt>
      <trkpt lat="43.80667" lon="5.16825">
        <ele>706.23</ele>
        <time>2016-03-24T13:34:03Z</time>
      </trkpt>
      <trkpt lat="43.80679" lon="5.16829">
        <ele>705.75</ele>
        <time>2016-03-24T13:34:19Z</time>
      </trkpt>
      <trkpt lat="43.80694" lon="5.16825">
        <ele>705.75</ele>
        <time>2016-03-24T13:34:35Z</time>
      </trkpt>
      <trkpt lat="43.80697" lon="5.16823">
        <ele>705.75</ele>
        <time>2016-03-24T13:34:47Z</time>
      </trkpt>
      <trkpt lat="43.80701" lon="5.16824">
        <ele>705.26</ele>
        <time>2016-03-24T13:35:03Z</time>
      </trkpt>
      <trkpt lat="43.8071" lon="5.16826">
        <ele>704.78</ele>
        <time>2016-03-24T13:35:17Z</time>
      </trkpt>
      <trkpt lat="43.80718" lon="5.16825">
        <ele>704.3</ele>
        <time>2016-03-24T13:35:32Z</time>
      </trkpt>
      <trkpt lat="43.80726" lon="5.16826">
        <ele>704.78</ele>
        <time>2016-03-24T13:35:42Z</time>
      </trkpt>
      <trkpt lat="43.80738" lon="5.16826">
        <ele>703.82</ele>
        <time>2016-03-24T13:35:57Z</time>
      </trkpt>
      <trkpt lat="43.80749" lon="5.16829">
        <ele>702.86</ele>
        <time>2016-03-24T13:36:11Z</time>
      </trkpt>
      <trkpt lat="43.80753" lon="5.16827">
        <ele>702.86</ele>
        <time>2016-03-24T13:36:22Z</time>
      </trkpt>
      <trkpt lat="43.80765" lon="5.16828">
        <ele>702.86</ele>
        <time>2016-03-24T13:36:38Z</time>
      </trkpt>
      <trkpt lat="43.80775" lon="5.16824">
        <ele>701.9</ele>
        <time>2016-03-24T13:36:51Z</time>
      </trkpt>
      <trkpt lat="43.80784" lon="5.16818">
        <ele>700.94</ele>
        <time>2016-03-24T13:37:06Z</time>
      </trkpt>
      <trkpt lat="43.80791" lon="5.16813">
        <ele>700.94</ele>
        <time>2016-03-24T13:37:19Z</time>
      </trkpt>
      <trkpt lat="43.80797" lon="5.16817">
        <ele>701.42</ele>
        <time>2016-03-24T13:37:29Z</time>
      </trkpt>
      <trkpt lat="43.80798" lon="5.16818">
        <ele>701.42</ele>
        <time>2016-03-24T13:37:41Z</time>
      </trkpt>
      <trkpt lat="43.80798" lon="5.16815">
        <ele>701.42</ele>
        <time>2016-03-24T13:37:55Z</time>
      </trkpt>
      <trkpt lat="43.80797" lon="5.16817">
        <ele>701.9</ele>
        <time>2016-03-24T13:38:10Z</time>
      </trkpt>
      <trkpt lat="43.80797" lon="5.1681">
        <ele>700.94</ele>
        <time>2016-03-24T13:38:18Z</time>
      </trkpt>
      <trkpt lat="43.80799" lon="5.16807">
        <ele>700.46</ele>
        <time>2016-03-24T13:38:22Z</time>
      </trkpt>
      <trkpt lat="43.8081" lon="5.16797">
        <ele>699.5</ele>
        <time>2016-03-24T13:38:37Z</time>
      </trkpt>
      <trkpt lat="43.80821" lon="5.16789">
        <ele>699.5</ele>
        <time>2016-03-24T13:38:53Z</time>
      </trkpt>
      <trkpt lat="43.80832" lon="5.16777">
        <ele>698.05</ele>
        <time>2016-03-24T13:39:07Z</time>
      </trkpt>
      <trkpt lat="43.80842" lon="5.16768">
        <ele>697.09</ele>
        <time>2016-03-24T13:39:22Z</time>
      </trkpt>
      <trkpt lat="43.80851" lon="5.16757">
        <ele>696.13</ele>
        <time>2016-03-24T13:39:38Z</time>
      </trkpt>
      <trkpt lat="43.80857" lon="5.16752">
        <ele>694.69</ele>
        <time>2016-03-24T13:39:51Z</time>
      </trkpt>
      <trkpt lat="43.80864" lon="5.16743">
        <ele>692.29</ele>
        <time>2016-03-24T13:40:05Z</time>
      </trkpt>
      <trkpt lat="43.80871" lon="5.16729">
        <ele>690.36</ele>
        <time>2016-03-24T13:40:20Z</time>
      </trkpt>
      <trkpt lat="43.80879" lon="5.16719">
        <ele>687.96</ele>
        <time>2016-03-24T13:40:36Z</time>
      </trkpt>
      <trkpt lat="43.80888" lon="5.16711">
        <ele>687</ele>
        <time>2016-03-24T13:40:51Z</time>
      </trkpt>
      <trkpt lat="43.80896" lon="5.16702">
        <ele>684.6</ele>
        <time>2016-03-24T13:41:07Z</time>
      </trkpt>
      <trkpt lat="43.80906" lon="5.16691">
        <ele>682.19</ele>
        <time>2016-03-24T13:41:23Z</time>
      </trkpt>
      <trkpt lat="43.8091" lon="5.16674">
        <ele>679.79</ele>
        <time>2016-03-24T13:41:41Z</time>
      </trkpt>
      <trkpt lat="43.80919" lon="5.16665">
        <ele>676.91</ele>
        <time>2016-03-24T13:41:55Z</time>
      </trkpt>
      <trkpt lat="43.80928" lon="5.16655">
        <ele>675.46</ele>
        <time>2016-03-24T13:42:11Z</time>
      </trkpt>
      <trkpt lat="43.80938" lon="5.16649">
        <ele>673.54</ele>
        <time>2016-03-24T13:42:24Z</time>
      </trkpt>
      <trkpt lat="43.80941" lon="5.16647">
        <ele>672.1</ele>
        <time>2016-03-24T13:42:27Z</time>
      </trkpt>
      <trkpt lat="43.8095" lon="5.16644">
        <ele>670.18</ele>
        <time>2016-03-24T13:42:35Z</time>
      </trkpt>
      <trkpt lat="43.80953" lon="5.1664">
        <ele>668.73</ele>
        <time>2016-03-24T13:42:40Z</time>
      </trkpt>
      <trkpt lat="43.80966" lon="5.16639">
        <ele>665.85</ele>
        <time>2016-03-24T13:42:55Z</time>
      </trkpt>
      <trkpt lat="43.80974" lon="5.16641">
        <ele>662.49</ele>
        <time>2016-03-24T13:43:05Z</time>
      </trkpt>
      <trkpt lat="43.80983" lon="5.16643">
        <ele>660.08</ele>
        <time>2016-03-24T13:43:20Z</time>
      </trkpt>
      <trkpt lat="43.80991" lon="5.16639">
        <ele>657.68</ele>
        <time>2016-03-24T13:43:35Z</time>
      </trkpt>
      <trkpt lat="43.81002" lon="5.16635">
        <ele>654.8</ele>
        <time>2016-03-24T13:43:48Z</time>
      </trkpt>
      <trkpt lat="43.8101" lon="5.1663">
        <ele>651.43</ele>
        <time>2016-03-24T13:44:04Z</time>
      </trkpt>
      <trkpt lat="43.81022" lon="5.16623">
        <ele>649.51</ele>
        <time>2016-03-24T13:44:19Z</time>
      </trkpt>
      <trkpt lat="43.81036" lon="5.16619">
        <ele>647.1</ele>
        <time>2016-03-24T13:44:36Z</time>
      </trkpt>
      <trkpt lat="43.8105" lon="5.16608">
        <ele>645.18</ele>
        <time>2016-03-24T13:44:52Z</time>
      </trkpt>
      <trkpt lat="43.8106" lon="5.16603">
        <ele>645.18</ele>
        <time>2016-03-24T13:45:04Z</time>
      </trkpt>
      <trkpt lat="43.81071" lon="5.16594">
        <ele>646.62</ele>
        <time>2016-03-24T13:45:20Z</time>
      </trkpt>
      <trkpt lat="43.81076" lon="5.16586">
        <ele>647.59</ele>
        <time>2016-03-24T13:45:29Z</time>
      </trkpt>
      <trkpt lat="43.81083" lon="5.16575">
        <ele>649.51</ele>
        <time>2016-03-24T13:45:44Z</time>
      </trkpt>
      <trkpt lat="43.81091" lon="5.16566">
        <ele>651.43</ele>
        <time>2016-03-24T13:46:01Z</time>
      </trkpt>
      <trkpt lat="43.81093" lon="5.16551">
        <ele>654.31</ele>
        <time>2016-03-24T13:46:18Z</time>
      </trkpt>
      <trkpt lat="43.81099" lon="5.16539">
        <ele>656.24</ele>
        <time>2016-03-24T13:46:35Z</time>
      </trkpt>
      <trkpt lat="43.81107" lon="5.16526">
        <ele>658.16</ele>
        <time>2016-03-24T13:46:52Z</time>
      </trkpt>
      <trkpt lat="43.81115" lon="5.16514">
        <ele>658.64</ele>
        <time>2016-03-24T13:47:07Z</time>
      </trkpt>
      <trkpt lat="43.81125" lon="5.16504">
        <ele>658.64</ele>
        <time>2016-03-24T13:47:23Z</time>
      </trkpt>
      <trkpt lat="43.81135" lon="5.16491">
        <ele>658.64</ele>
        <time>2016-03-24T13:47:38Z</time>
      </trkpt>
      <trkpt lat="43.81139" lon="5.16488">
        <ele>658.64</ele>
        <time>2016-03-24T13:47:54Z</time>
      </trkpt>
      <trkpt lat="43.81142" lon="5.16485">
        <ele>658.16</ele>
        <time>2016-03-24T13:48:10Z</time>
      </trkpt>
      <trkpt lat="43.81147" lon="5.16481">
        <ele>658.16</ele>
        <time>2016-03-24T13:48:16Z</time>
      </trkpt>
      <trkpt lat="43.81159" lon="5.16473">
        <ele>657.2</ele>
        <time>2016-03-24T13:48:33Z</time>
      </trkpt>
      <trkpt lat="43.81169" lon="5.16463">
        <ele>655.28</ele>
        <time>2016-03-24T13:48:47Z</time>
      </trkpt>
      <trkpt lat="43.81176" lon="5.16459">
        <ele>655.28</ele>
        <time>2016-03-24T13:48:57Z</time>
      </trkpt>
      <trkpt lat="43.81187" lon="5.16447">
        <ele>652.87</ele>
        <time>2016-03-24T13:49:14Z</time>
      </trkpt>
      <trkpt lat="43.81194" lon="5.16442">
        <ele>651.91</ele>
        <time>2016-03-24T13:49:26Z</time>
      </trkpt>
      <trkpt lat="43.81207" lon="5.16433">
        <ele>649.99</ele>
        <time>2016-03-24T13:49:43Z</time>
      </trkpt>
      <trkpt lat="43.81221" lon="5.16427">
        <ele>647.59</ele>
        <time>2016-03-24T13:49:59Z</time>
      </trkpt>
      <trkpt lat="43.81229" lon="5.16428">
        <ele>646.62</ele>
        <time>2016-03-24T13:50:13Z</time>
      </trkpt>
      <trkpt lat="43.81234" lon="5.16429">
        <ele>643.74</ele>
        <time>2016-03-24T13:50:25Z</time>
      </trkpt>
      <trkpt lat="43.81247" lon="5.16434">
        <ele>641.82</ele>
        <time>2016-03-24T13:50:41Z</time>
      </trkpt>
      <trkpt lat="43.81256" lon="5.16437">
        <ele>638.93</ele>
        <time>2016-03-24T13:50:57Z</time>
      </trkpt>
      <trkpt lat="43.81264" lon="5.1644">
        <ele>636.53</ele>
        <time>2016-03-24T13:51:14Z</time>
      </trkpt>
      <trkpt lat="43.81272" lon="5.16436">
        <ele>633.17</ele>
        <time>2016-03-24T13:51:33Z</time>
      </trkpt>
      <trkpt lat="43.81289" lon="5.16437">
        <ele>631.24</ele>
        <time>2016-03-24T13:51:50Z</time>
      </trkpt>
      <trkpt lat="43.813" lon="5.16439">
        <ele>628.84</ele>
        <time>2016-03-24T13:52:05Z</time>
      </trkpt>
      <trkpt lat="43.81309" lon="5.16439">
        <ele>628.36</ele>
        <time>2016-03-24T13:52:16Z</time>
      </trkpt>
      <trkpt lat="43.8131" lon="5.1644">
        <ele>628.36</ele>
        <time>2016-03-24T13:52:17Z</time>
      </trkpt>
      <trkpt lat="43.81323" lon="5.16438">
        <ele>626.92</ele>
        <time>2016-03-24T13:52:30Z</time>
      </trkpt>
      <trkpt lat="43.81335" lon="5.16435">
        <ele>625.47</ele>
        <time>2016-03-24T13:52:44Z</time>
      </trkpt>
      <trkpt lat="43.81343" lon="5.16432">
        <ele>624.03</ele>
        <time>2016-03-24T13:52:57Z</time>
      </trkpt>
      <trkpt lat="43.81351" lon="5.16431">
        <ele>622.59</ele>
        <time>2016-03-24T13:53:10Z</time>
      </trkpt>
      <trkpt lat="43.8136" lon="5.16431">
        <ele>620.19</ele>
        <time>2016-03-24T13:53:23Z</time>
      </trkpt>
      <trkpt lat="43.81364" lon="5.16431">
        <ele>619.23</ele>
        <time>2016-03-24T13:53:36Z</time>
      </trkpt>
      <trkpt lat="43.81365" lon="5.16431">
        <ele>618.75</ele>
        <time>2016-03-24T13:53:37Z</time>
      </trkpt>
      <trkpt lat="43.81377" lon="5.16426">
        <ele>616.82</ele>
        <time>2016-03-24T13:53:52Z</time>
      </trkpt>
      <trkpt lat="43.81387" lon="5.16419">
        <ele>615.38</ele>
        <time>2016-03-24T13:54:07Z</time>
      </trkpt>
      <trkpt lat="43.81398" lon="5.16414">
        <ele>614.42</ele>
        <time>2016-03-24T13:54:21Z</time>
      </trkpt>
      <trkpt lat="43.814" lon="5.16413">
        <ele>614.42</ele>
        <time>2016-03-24T13:54:24Z</time>
      </trkpt>
      <trkpt lat="43.8141" lon="5.16407">
        <ele>614.42</ele>
        <time>2016-03-24T13:54:38Z</time>
      </trkpt>
      <trkpt lat="43.81422" lon="5.16403">
        <ele>613.94</ele>
        <time>2016-03-24T13:54:52Z</time>
      </trkpt>
      <trkpt lat="43.8143" lon="5.16404">
        <ele>612.5</ele>
        <time>2016-03-24T13:55:05Z</time>
      </trkpt>
      <trkpt lat="43.81438" lon="5.16405">
        <ele>611.06</ele>
        <time>2016-03-24T13:55:18Z</time>
      </trkpt>
      <trkpt lat="43.81448" lon="5.16405">
        <ele>610.09</ele>
        <time>2016-03-24T13:55:31Z</time>
      </trkpt>
      <trkpt lat="43.81457" lon="5.16406">
        <ele>608.65</ele>
        <time>2016-03-24T13:55:45Z</time>
      </trkpt>
      <trkpt lat="43.81467" lon="5.16406">
        <ele>606.73</ele>
        <time>2016-03-24T13:55:58Z</time>
      </trkpt>
      <trkpt lat="43.81472" lon="5.16408">
        <ele>604.81</ele>
        <time>2016-03-24T13:56:09Z</time>
      </trkpt>
      <trkpt lat="43.81481" lon="5.1641">
        <ele>602.88</ele>
        <time>2016-03-24T13:56:23Z</time>
      </trkpt>
      <trkpt lat="43.81489" lon="5.16412">
        <ele>601.44</ele>
        <time>2016-03-24T13:56:34Z</time>
      </trkpt>
      <trkpt lat="43.81497" lon="5.16416">
        <ele>599.52</ele>
        <time>2016-03-24T13:56:46Z</time>
      </trkpt>
      <trkpt lat="43.81505" lon="5.16417">
        <ele>598.08</ele>
        <time>2016-03-24T13:56:59Z</time>
      </trkpt>
      <trkpt lat="43.81506" lon="5.16417">
        <ele>597.6</ele>
        <time>2016-03-24T13:57:01Z</time>
      </trkpt>
      <trkpt lat="43.81516" lon="5.16415">
        <ele>596.15</ele>
        <time>2016-03-24T13:57:14Z</time>
      </trkpt>
      <trkpt lat="43.81519" lon="5.16419">
        <ele>595.19</ele>
        <time>2016-03-24T13:57:30Z</time>
      </trkpt>
      <trkpt lat="43.81535" lon="5.16422">
        <ele>593.27</ele>
        <time>2016-03-24T13:57:44Z</time>
      </trkpt>
      <trkpt lat="43.81537" lon="5.16422">
        <ele>593.27</ele>
        <time>2016-03-24T13:57:47Z</time>
      </trkpt>
      <trkpt lat="43.81547" lon="5.16423">
        <ele>591.83</ele>
        <time>2016-03-24T13:58:00Z</time>
      </trkpt>
      <trkpt lat="43.8155" lon="5.16422">
        <ele>591.35</ele>
        <time>2016-03-24T13:58:16Z</time>
      </trkpt>
      <trkpt lat="43.81551" lon="5.16421">
        <ele>591.35</ele>
        <time>2016-03-24T13:58:37Z</time>
      </trkpt>
      <trkpt lat="43.81551" lon="5.16421">
        <ele>591.35</ele>
        <time>2016-03-24T13:58:51Z</time>
      </trkpt>
      <trkpt lat="43.81551" lon="5.16421">
        <ele>591.35</ele>
        <time>2016-03-24T13:59:11Z</time>
      </trkpt>
      <trkpt lat="43.81551" lon="5.16419">
        <ele>591.35</ele>
        <time>2016-03-24T13:59:29Z</time>
      </trkpt>
      <trkpt lat="43.81552" lon="5.1642">
        <ele>590.87</ele>
        <time>2016-03-24T13:59:45Z</time>
      </trkpt>
      <trkpt lat="43.81552" lon="5.1642">
        <ele>590.87</ele>
        <time>2016-03-24T14:00:12Z</time>
      </trkpt>
      <trkpt lat="43.81557" lon="5.1642">
        <ele>589.91</ele>
        <time>2016-03-24T14:00:32Z</time>
      </trkpt>
      <trkpt lat="43.81562" lon="5.1642">
        <ele>589.43</ele>
        <time>2016-03-24T14:00:49Z</time>
      </trkpt>
      <trkpt lat="43.81575" lon="5.16422">
        <ele>587.98</ele>
        <time>2016-03-24T14:01:03Z</time>
      </trkpt>
      <trkpt lat="43.81587" lon="5.16424">
        <ele>586.06</ele>
        <time>2016-03-24T14:01:19Z</time>
      </trkpt>
      <trkpt lat="43.81599" lon="5.16427">
        <ele>585.1</ele>
        <time>2016-03-24T14:01:35Z</time>
      </trkpt>
      <trkpt lat="43.81608" lon="5.16429">
        <ele>583.66</ele>
        <time>2016-03-24T14:01:49Z</time>
      </trkpt>
      <trkpt lat="43.81618" lon="5.1643">
        <ele>581.25</ele>
        <time>2016-03-24T14:02:05Z</time>
      </trkpt>
      <trkpt lat="43.81629" lon="5.16434">
        <ele>579.33</ele>
        <time>2016-03-24T14:02:20Z</time>
      </trkpt>
      <trkpt lat="43.81642" lon="5.16436">
        <ele>576.93</ele>
        <time>2016-03-24T14:02:38Z</time>
      </trkpt>
      <trkpt lat="43.81649" lon="5.16434">
        <ele>575.97</ele>
        <time>2016-03-24T14:02:51Z</time>
      </trkpt>
      <trkpt lat="43.81656" lon="5.16433">
        <ele>574.53</ele>
        <time>2016-03-24T14:03:04Z</time>
      </trkpt>
      <trkpt lat="43.81661" lon="5.16426">
        <ele>572.6</ele>
        <time>2016-03-24T14:03:18Z</time>
      </trkpt>
      <trkpt lat="43.81669" lon="5.16422">
        <ele>570.2</ele>
        <time>2016-03-24T14:03:34Z</time>
      </trkpt>
      <trkpt lat="43.81671" lon="5.16421">
        <ele>567.8</ele>
        <time>2016-03-24T14:03:47Z</time>
      </trkpt>
      <trkpt lat="43.81678" lon="5.16419">
        <ele>564.91</ele>
        <time>2016-03-24T14:04:02Z</time>
      </trkpt>
      <trkpt lat="43.81682" lon="5.16418">
        <ele>561.55</ele>
        <time>2016-03-24T14:04:17Z</time>
      </trkpt>
      <trkpt lat="43.81686" lon="5.16417">
        <ele>559.14</ele>
        <time>2016-03-24T14:04:33Z</time>
      </trkpt>
      <trkpt lat="43.81692" lon="5.16417">
        <ele>556.26</ele>
        <time>2016-03-24T14:04:47Z</time>
      </trkpt>
      <trkpt lat="43.81716" lon="5.16419">
        <ele>553.86</ele>
        <time>2016-03-24T14:05:04Z</time>
      </trkpt>
      <trkpt lat="43.81726" lon="5.16422">
        <ele>552.41</ele>
        <time>2016-03-24T14:05:17Z</time>
      </trkpt>
      <trkpt lat="43.81732" lon="5.16426">
        <ele>549.05</ele>
        <time>2016-03-24T14:05:34Z</time>
      </trkpt>
      <trkpt lat="43.81742" lon="5.16424">
        <ele>546.17</ele>
        <time>2016-03-24T14:05:49Z</time>
      </trkpt>
      <trkpt lat="43.81745" lon="5.16425">
        <ele>543.28</ele>
        <time>2016-03-24T14:06:06Z</time>
      </trkpt>
      <trkpt lat="43.81758" lon="5.16424">
        <ele>540.4</ele>
        <time>2016-03-24T14:06:20Z</time>
      </trkpt>
      <trkpt lat="43.8177" lon="5.16427">
        <ele>538.48</ele>
        <time>2016-03-24T14:06:34Z</time>
      </trkpt>
      <trkpt lat="43.8178" lon="5.16423">
        <ele>535.59</ele>
        <time>2016-03-24T14:06:47Z</time>
      </trkpt>
      <trkpt lat="43.81786" lon="5.16424">
        <ele>533.19</ele>
        <time>2016-03-24T14:07:03Z</time>
      </trkpt>
      <trkpt lat="43.81795" lon="5.16424">
        <ele>530.79</ele>
        <time>2016-03-24T14:07:21Z</time>
      </trkpt>
      <trkpt lat="43.81801" lon="5.16423">
        <ele>529.82</ele>
        <time>2016-03-24T14:07:38Z</time>
      </trkpt>
      <trkpt lat="43.81803" lon="5.16424">
        <ele>528.86</ele>
        <time>2016-03-24T14:07:55Z</time>
      </trkpt>
      <trkpt lat="43.81804" lon="5.16424">
        <ele>528.38</ele>
        <time>2016-03-24T14:08:17Z</time>
      </trkpt>
      <trkpt lat="43.81809" lon="5.16426">
        <ele>527.9</ele>
        <time>2016-03-24T14:08:40Z</time>
      </trkpt>
      <trkpt lat="43.81818" lon="5.16432">
        <ele>525.98</ele>
        <time>2016-03-24T14:08:54Z</time>
      </trkpt>
      <trkpt lat="43.81826" lon="5.16432">
        <ele>524.06</ele>
        <time>2016-03-24T14:09:08Z</time>
      </trkpt>
      <trkpt lat="43.81834" lon="5.16438">
        <ele>520.69</ele>
        <time>2016-03-24T14:09:24Z</time>
      </trkpt>
      <trkpt lat="43.81841" lon="5.16442">
        <ele>518.29</ele>
        <time>2016-03-24T14:09:39Z</time>
      </trkpt>
      <trkpt lat="43.81845" lon="5.16444">
        <ele>516.85</ele>
        <time>2016-03-24T14:09:56Z</time>
      </trkpt>
      <trkpt lat="43.81845" lon="5.16445">
        <ele>517.33</ele>
        <time>2016-03-24T14:10:12Z</time>
      </trkpt>
      <trkpt lat="43.8185" lon="5.16448">
        <ele>513.48</ele>
        <time>2016-03-24T14:10:29Z</time>
      </trkpt>
      <trkpt lat="43.81859" lon="5.16455">
        <ele>512.52</ele>
        <time>2016-03-24T14:10:45Z</time>
      </trkpt>
      <trkpt lat="43.81868" lon="5.1646">
        <ele>509.64</ele>
        <time>2016-03-24T14:11:00Z</time>
      </trkpt>
      <trkpt lat="43.81871" lon="5.16462">
        <ele>507.71</ele>
        <time>2016-03-24T14:11:12Z</time>
      </trkpt>
      <trkpt lat="43.81878" lon="5.1646">
        <ele>505.79</ele>
        <time>2016-03-24T14:11:24Z</time>
      </trkpt>
      <trkpt lat="43.81878" lon="5.16461">
        <ele>505.79</ele>
        <time>2016-03-24T14:11:25Z</time>
      </trkpt>
      <trkpt lat="43.81885" lon="5.16463">
        <ele>502.91</ele>
        <time>2016-03-24T14:11:37Z</time>
      </trkpt>
      <trkpt lat="43.8189" lon="5.16464">
        <ele>500.98</ele>
        <time>2016-03-24T14:11:49Z</time>
      </trkpt>
      <trkpt lat="43.81894" lon="5.16465">
        <ele>500.02</ele>
        <time>2016-03-24T14:11:53Z</time>
      </trkpt>
      <trkpt lat="43.81903" lon="5.16468">
        <ele>496.66</ele>
        <time>2016-03-24T14:12:04Z</time>
      </trkpt>
      <trkpt lat="43.81903" lon="5.16468">
        <ele>496.66</ele>
        <time>2016-03-24T14:12:05Z</time>
      </trkpt>
      <trkpt lat="43.8191" lon="5.16472">
        <ele>494.74</ele>
        <time>2016-03-24T14:12:20Z</time>
      </trkpt>
      <trkpt lat="43.81918" lon="5.16477">
        <ele>493.29</ele>
        <time>2016-03-24T14:12:32Z</time>
      </trkpt>
      <trkpt lat="43.81922" lon="5.1648">
        <ele>491.37</ele>
        <time>2016-03-24T14:12:39Z</time>
      </trkpt>
      <trkpt lat="43.81927" lon="5.16482">
        <ele>488.01</ele>
        <time>2016-03-24T14:12:51Z</time>
      </trkpt>
      <trkpt lat="43.81936" lon="5.16485">
        <ele>486.56</ele>
        <time>2016-03-24T14:13:07Z</time>
      </trkpt>
      <trkpt lat="43.81942" lon="5.16484">
        <ele>484.16</ele>
        <time>2016-03-24T14:13:21Z</time>
      </trkpt>
      <trkpt lat="43.81948" lon="5.1649">
        <ele>479.84</ele>
        <time>2016-03-24T14:13:34Z</time>
      </trkpt>
      <trkpt lat="43.81948" lon="5.16491">
        <ele>480.32</ele>
        <time>2016-03-24T14:13:35Z</time>
      </trkpt>
      <trkpt lat="43.81953" lon="5.16491">
        <ele>479.35</ele>
        <time>2016-03-24T14:13:47Z</time>
      </trkpt>
      <trkpt lat="43.81959" lon="5.16494">
        <ele>475.51</ele>
        <time>2016-03-24T14:13:58Z</time>
      </trkpt>
      <trkpt lat="43.81959" lon="5.16495">
        <ele>475.51</ele>
        <time>2016-03-24T14:13:59Z</time>
      </trkpt>
      <trkpt lat="43.81968" lon="5.16499">
        <ele>475.51</ele>
        <time>2016-03-24T14:14:10Z</time>
      </trkpt>
      <trkpt lat="43.81969" lon="5.165">
        <ele>475.51</ele>
        <time>2016-03-24T14:14:11Z</time>
      </trkpt>
      <trkpt lat="43.81973" lon="5.16501">
        <ele>474.07</ele>
        <time>2016-03-24T14:14:15Z</time>
      </trkpt>
      <trkpt lat="43.81978" lon="5.16502">
        <ele>472.63</ele>
        <time>2016-03-24T14:14:22Z</time>
      </trkpt>
      <trkpt lat="43.81982" lon="5.16506">
        <ele>472.14</ele>
        <time>2016-03-24T14:14:29Z</time>
      </trkpt>
      <trkpt lat="43.81987" lon="5.16516">
        <ele>473.11</ele>
        <time>2016-03-24T14:14:43Z</time>
      </trkpt>
      <trkpt lat="43.8199" lon="5.16518">
        <ele>472.63</ele>
        <time>2016-03-24T14:15:05Z</time>
      </trkpt>
      <trkpt lat="43.8199" lon="5.16518">
        <ele>473.11</ele>
        <time>2016-03-24T14:15:29Z</time>
      </trkpt>
      <trkpt lat="43.81996" lon="5.16524">
        <ele>472.14</ele>
        <time>2016-03-24T14:15:45Z</time>
      </trkpt>
      <trkpt lat="43.82002" lon="5.16529">
        <ele>469.74</ele>
        <time>2016-03-24T14:16:00Z</time>
      </trkpt>
      <trkpt lat="43.82013" lon="5.16541">
        <ele>469.26</ele>
        <time>2016-03-24T14:16:16Z</time>
      </trkpt>
      <trkpt lat="43.82018" lon="5.16551">
        <ele>469.74</ele>
        <time>2016-03-24T14:16:28Z</time>
      </trkpt>
      <trkpt lat="43.8202" lon="5.16554">
        <ele>473.11</ele>
        <time>2016-03-24T14:16:36Z</time>
      </trkpt>
      <trkpt lat="43.82023" lon="5.16561">
        <ele>471.18</ele>
        <time>2016-03-24T14:16:48Z</time>
      </trkpt>
      <trkpt lat="43.82028" lon="5.16569">
        <ele>471.18</ele>
        <time>2016-03-24T14:16:56Z</time>
      </trkpt>
      <trkpt lat="43.8203" lon="5.16574">
        <ele>470.7</ele>
        <time>2016-03-24T14:17:02Z</time>
      </trkpt>
      <trkpt lat="43.82036" lon="5.16582">
        <ele>468.78</ele>
        <time>2016-03-24T14:17:16Z</time>
      </trkpt>
      <trkpt lat="43.82043" lon="5.1659">
        <ele>466.38</ele>
        <time>2016-03-24T14:17:30Z</time>
      </trkpt>
      <trkpt lat="43.82051" lon="5.16592">
        <ele>465.42</ele>
        <time>2016-03-24T14:17:42Z</time>
      </trkpt>
      <trkpt lat="43.82058" lon="5.16602">
        <ele>464.93</ele>
        <time>2016-03-24T14:17:56Z</time>
      </trkpt>
      <trkpt lat="43.8206" lon="5.16607">
        <ele>463.97</ele>
        <time>2016-03-24T14:18:14Z</time>
      </trkpt>
      <trkpt lat="43.82065" lon="5.1662">
        <ele>462.05</ele>
        <time>2016-03-24T14:18:26Z</time>
      </trkpt>
      <trkpt lat="43.82064" lon="5.1663">
        <ele>461.09</ele>
        <time>2016-03-24T14:18:34Z</time>
      </trkpt>
      <trkpt lat="43.82065" lon="5.16635">
        <ele>460.61</ele>
        <time>2016-03-24T14:18:46Z</time>
      </trkpt>
      <trkpt lat="43.82065" lon="5.16645">
        <ele>460.13</ele>
        <time>2016-03-24T14:18:59Z</time>
      </trkpt>
      <trkpt lat="43.82066" lon="5.16658">
        <ele>458.21</ele>
        <time>2016-03-24T14:19:13Z</time>
      </trkpt>
      <trkpt lat="43.82071" lon="5.16667">
        <ele>456.76</ele>
        <time>2016-03-24T14:19:25Z</time>
      </trkpt>
      <trkpt lat="43.82072" lon="5.16679">
        <ele>454.84</ele>
        <time>2016-03-24T14:19:37Z</time>
      </trkpt>
      <trkpt lat="43.82072" lon="5.16689">
        <ele>452.44</ele>
        <time>2016-03-24T14:19:51Z</time>
      </trkpt>
      <trkpt lat="43.8208" lon="5.16683">
        <ele>450.03</ele>
        <time>2016-03-24T14:20:06Z</time>
      </trkpt>
      <trkpt lat="43.82087" lon="5.16668">
        <ele>448.59</ele>
        <time>2016-03-24T14:20:22Z</time>
      </trkpt>
      <trkpt lat="43.8209" lon="5.1666">
        <ele>447.15</ele>
        <time>2016-03-24T14:20:36Z</time>
      </trkpt>
      <trkpt lat="43.82093" lon="5.16653">
        <ele>444.75</ele>
        <time>2016-03-24T14:20:51Z</time>
      </trkpt>
      <trkpt lat="43.82097" lon="5.16659">
        <ele>443.79</ele>
        <time>2016-03-24T14:21:05Z</time>
      </trkpt>
      <trkpt lat="43.82099" lon="5.16667">
        <ele>442.82</ele>
        <time>2016-03-24T14:21:13Z</time>
      </trkpt>
      <trkpt lat="43.821" lon="5.16681">
        <ele>440.9</ele>
        <time>2016-03-24T14:21:27Z</time>
      </trkpt>
      <trkpt lat="43.82104" lon="5.16683">
        <ele>439.94</ele>
        <time>2016-03-24T14:21:39Z</time>
      </trkpt>
      <trkpt lat="43.82107" lon="5.1668">
        <ele>437.54</ele>
        <time>2016-03-24T14:21:52Z</time>
      </trkpt>
      <trkpt lat="43.82109" lon="5.1668">
        <ele>436.1</ele>
        <time>2016-03-24T14:22:07Z</time>
      </trkpt>
      <trkpt lat="43.82111" lon="5.16672">
        <ele>435.13</ele>
        <time>2016-03-24T14:22:21Z</time>
      </trkpt>
      <trkpt lat="43.82109" lon="5.1667">
        <ele>434.65</ele>
        <time>2016-03-24T14:22:34Z</time>
      </trkpt>
      <trkpt lat="43.82111" lon="5.1667">
        <ele>436.1</ele>
        <time>2016-03-24T14:22:48Z</time>
      </trkpt>
      <trkpt lat="43.82111" lon="5.1667">
        <ele>435.13</ele>
        <time>2016-03-24T14:23:00Z</time>
      </trkpt>
      <trkpt lat="43.82112" lon="5.16668">
        <ele>434.65</ele>
        <time>2016-03-24T14:23:17Z</time>
      </trkpt>
      <trkpt lat="43.82111" lon="5.1667">
        <ele>434.17</ele>
        <time>2016-03-24T14:23:33Z</time>
      </trkpt>
      <trkpt lat="43.8211" lon="5.16671">
        <ele>435.61</ele>
        <time>2016-03-24T14:23:49Z</time>
      </trkpt>
      <trkpt lat="43.8211" lon="5.16672">
        <ele>435.61</ele>
        <time>2016-03-24T14:24:07Z</time>
      </trkpt>
      <trkpt lat="43.8211" lon="5.16673">
        <ele>435.61</ele>
        <time>2016-03-24T14:24:26Z</time>
      </trkpt>
      <trkpt lat="43.8211" lon="5.16677">
        <ele>437.54</ele>
        <time>2016-03-24T14:24:43Z</time>
      </trkpt>
      <trkpt lat="43.8211" lon="5.16678">
        <ele>435.61</ele>
        <time>2016-03-24T14:24:58Z</time>
      </trkpt>
      <trkpt lat="43.8211" lon="5.16678">
        <ele>436.58</ele>
        <time>2016-03-24T14:25:16Z</time>
      </trkpt>
      <trkpt lat="43.82111" lon="5.16678">
        <ele>436.1</ele>
        <time>2016-03-24T14:25:44Z</time>
      </trkpt>
      <trkpt lat="43.82111" lon="5.16678">
        <ele>436.1</ele>
        <time>2016-03-24T14:26:15Z</time>
      </trkpt>
      <trkpt lat="43.82111" lon="5.16678">
        <ele>436.58</ele>
        <time>2016-03-24T14:26:31Z</time>
      </trkpt>
      <trkpt lat="43.82111" lon="5.16678">
        <ele>436.1</ele>
        <time>2016-03-24T14:27:03Z</time>
      </trkpt>
      <trkpt lat="43.82111" lon="5.16677">
        <ele>436.58</ele>
        <time>2016-03-24T14:27:20Z</time>
      </trkpt>
      <trkpt lat="43.82111" lon="5.16677">
        <ele>436.58</ele>
        <time>2016-03-24T14:27:42Z</time>
      </trkpt>
      <trkpt lat="43.82111" lon="5.16675">
        <ele>435.61</ele>
        <time>2016-03-24T14:27:57Z</time>
      </trkpt>
      <trkpt lat="43.82111" lon="5.16674">
        <ele>435.13</ele>
        <time>2016-03-24T14:28:28Z</time>
      </trkpt>
      <trkpt lat="43.8211" lon="5.16673">
        <ele>436.58</ele>
        <time>2016-03-24T14:28:58Z</time>
      </trkpt>
      <trkpt lat="43.8211" lon="5.16673">
        <ele>436.58</ele>
        <time>2016-03-24T14:29:13Z</time>
      </trkpt>
      <trkpt lat="43.8211" lon="5.16672">
        <ele>436.58</ele>
        <time>2016-03-24T14:29:35Z</time>
      </trkpt>
      <trkpt lat="43.8211" lon="5.16673">
        <ele>436.58</ele>
        <time>2016-03-24T14:29:59Z</time>
      </trkpt>
      <trkpt lat="43.82111" lon="5.1667">
        <ele>437.54</ele>
        <time>2016-03-24T14:30:22Z</time>
      </trkpt>
      <trkpt lat="43.82111" lon="5.16668">
        <ele>435.61</ele>
        <time>2016-03-24T14:30:25Z</time>
      </trkpt>
      <trkpt lat="43.82113" lon="5.16665">
        <ele>436.1</ele>
        <time>2016-03-24T14:30:34Z</time>
      </trkpt>
      <trkpt lat="43.82112" lon="5.16658">
        <ele>434.17</ele>
        <time>2016-03-24T14:30:41Z</time>
      </trkpt>
      <trkpt lat="43.82113" lon="5.16642">
        <ele>432.73</ele>
        <time>2016-03-24T14:30:59Z</time>
      </trkpt>
      <trkpt lat="43.82118" lon="5.16637">
        <ele>429.85</ele>
        <time>2016-03-24T14:31:14Z</time>
      </trkpt>
      <trkpt lat="43.82121" lon="5.1665">
        <ele>427.92</ele>
        <time>2016-03-24T14:31:31Z</time>
      </trkpt>
      <trkpt lat="43.82126" lon="5.16666">
        <ele>427.44</ele>
        <time>2016-03-24T14:31:50Z</time>
      </trkpt>
      <trkpt lat="43.82129" lon="5.16664">
        <ele>425.04</ele>
        <time>2016-03-24T14:31:55Z</time>
      </trkpt>
      <trkpt lat="43.82135" lon="5.1666">
        <ele>422.16</ele>
        <time>2016-03-24T14:32:10Z</time>
      </trkpt>
      <trkpt lat="43.82138" lon="5.16666">
        <ele>420.23</ele>
        <time>2016-03-24T14:32:28Z</time>
      </trkpt>
      <trkpt lat="43.82148" lon="5.16684">
        <ele>417.35</ele>
        <time>2016-03-24T14:32:49Z</time>
      </trkpt>
      <trkpt lat="43.82151" lon="5.16702">
        <ele>414.47</ele>
        <time>2016-03-24T14:33:07Z</time>
      </trkpt>
      <trkpt lat="43.82162" lon="5.167">
        <ele>411.58</ele>
        <time>2016-03-24T14:33:26Z</time>
      </trkpt>
      <trkpt lat="43.82163" lon="5.16711">
        <ele>408.7</ele>
        <time>2016-03-24T14:33:42Z</time>
      </trkpt>
      <trkpt lat="43.8217" lon="5.16711">
        <ele>405.81</ele>
        <time>2016-03-24T14:33:56Z</time>
      </trkpt>
      <trkpt lat="43.82178" lon="5.16716">
        <ele>403.41</ele>
        <time>2016-03-24T14:34:15Z</time>
      </trkpt>
      <trkpt lat="43.82177" lon="5.16721">
        <ele>401.97</ele>
        <time>2016-03-24T14:34:18Z</time>
      </trkpt>
      <trkpt lat="43.82183" lon="5.16715">
        <ele>400.05</ele>
        <time>2016-03-24T14:34:34Z</time>
      </trkpt>
      <trkpt lat="43.82187" lon="5.16716">
        <ele>398.12</ele>
        <time>2016-03-24T14:34:48Z</time>
      </trkpt>
      <trkpt lat="43.82193" lon="5.16711">
        <ele>397.64</ele>
        <time>2016-03-24T14:35:08Z</time>
      </trkpt>
      <trkpt lat="43.82198" lon="5.16703">
        <ele>396.2</ele>
        <time>2016-03-24T14:35:22Z</time>
      </trkpt>
      <trkpt lat="43.82202" lon="5.16695">
        <ele>393.32</ele>
        <time>2016-03-24T14:35:35Z</time>
      </trkpt>
      <trkpt lat="43.82208" lon="5.16687">
        <ele>390.91</ele>
        <time>2016-03-24T14:35:49Z</time>
      </trkpt>
      <trkpt lat="43.82218" lon="5.1668">
        <ele>387.55</ele>
        <time>2016-03-24T14:36:06Z</time>
      </trkpt>
      <trkpt lat="43.8222" lon="5.16671">
        <ele>384.66</ele>
        <time>2016-03-24T14:36:21Z</time>
      </trkpt>
      <trkpt lat="43.82223" lon="5.16666">
        <ele>381.3</ele>
        <time>2016-03-24T14:36:36Z</time>
      </trkpt>
      <trkpt lat="43.82229" lon="5.16658">
        <ele>378.42</ele>
        <time>2016-03-24T14:36:51Z</time>
      </trkpt>
      <trkpt lat="43.82231" lon="5.16654">
        <ele>377.45</ele>
        <time>2016-03-24T14:36:56Z</time>
      </trkpt>
      <trkpt lat="43.82235" lon="5.16651">
        <ele>374.09</ele>
        <time>2016-03-24T14:37:08Z</time>
      </trkpt>
      <trkpt lat="43.82245" lon="5.16646">
        <ele>371.69</ele>
        <time>2016-03-24T14:37:27Z</time>
      </trkpt>
      <trkpt lat="43.82257" lon="5.16653">
        <ele>369.28</ele>
        <time>2016-03-24T14:37:46Z</time>
      </trkpt>
      <trkpt lat="43.82264" lon="5.16653">
        <ele>365.92</ele>
        <time>2016-03-24T14:37:58Z</time>
      </trkpt>
      <trkpt lat="43.82268" lon="5.16642">
        <ele>364.48</ele>
        <time>2016-03-24T14:38:17Z</time>
      </trkpt>
      <trkpt lat="43.82277" lon="5.16645">
        <ele>361.11</ele>
        <time>2016-03-24T14:38:32Z</time>
      </trkpt>
      <trkpt lat="43.82286" lon="5.1665">
        <ele>358.23</ele>
        <time>2016-03-24T14:38:51Z</time>
      </trkpt>
      <trkpt lat="43.82301" lon="5.16643">
        <ele>354.86</ele>
        <time>2016-03-24T14:39:11Z</time>
      </trkpt>
      <trkpt lat="43.82306" lon="5.1664">
        <ele>353.42</ele>
        <time>2016-03-24T14:39:30Z</time>
      </trkpt>
      <trkpt lat="43.82313" lon="5.16631">
        <ele>353.42</ele>
        <time>2016-03-24T14:39:51Z</time>
      </trkpt>
      <trkpt lat="43.8231" lon="5.16636">
        <ele>353.9</ele>
        <time>2016-03-24T14:40:13Z</time>
      </trkpt>
      <trkpt lat="43.82308" lon="5.16642">
        <ele>352.94</ele>
        <time>2016-03-24T14:40:32Z</time>
      </trkpt>
      <trkpt lat="43.82308" lon="5.16641">
        <ele>352.46</ele>
        <time>2016-03-24T14:40:57Z</time>
      </trkpt>
      <trkpt lat="43.82307" lon="5.1664">
        <ele>352.94</ele>
        <time>2016-03-24T14:41:20Z</time>
      </trkpt>
      <trkpt lat="43.82309" lon="5.16641">
        <ele>352.94</ele>
        <time>2016-03-24T14:41:37Z</time>
      </trkpt>
      <trkpt lat="43.82308" lon="5.16638">
        <ele>352.46</ele>
        <time>2016-03-24T14:41:57Z</time>
      </trkpt>
      <trkpt lat="43.82308" lon="5.16641">
        <ele>352.46</ele>
        <time>2016-03-24T14:42:23Z</time>
      </trkpt>
      <trkpt lat="43.82321" lon="5.16643">
        <ele>349.58</ele>
        <time>2016-03-24T14:42:41Z</time>
      </trkpt>
      <trkpt lat="43.82336" lon="5.16647">
        <ele>346.69</ele>
        <time>2016-03-24T14:42:56Z</time>
      </trkpt>
      <trkpt lat="43.82338" lon="5.16652">
        <ele>343.81</ele>
        <time>2016-03-24T14:43:14Z</time>
      </trkpt>
      <trkpt lat="43.8235" lon="5.16633">
        <ele>341.41</ele>
        <time>2016-03-24T14:43:25Z</time>
      </trkpt>
      <trkpt lat="43.82414" lon="5.16576">
        <ele>326.02</ele>
        <time>2016-03-24T14:44:44Z</time>
      </trkpt>
      <trkpt lat="43.82415" lon="5.16576">
        <ele>326.02</ele>
        <time>2016-03-24T14:44:45Z</time>
      </trkpt>
      <trkpt lat="43.82417" lon="5.16576">
        <ele>325.54</ele>
        <time>2016-03-24T14:44:46Z</time>
      </trkpt>
      <trkpt lat="43.82432" lon="5.16576">
        <ele>322.18</ele>
        <time>2016-03-24T14:45:00Z</time>
      </trkpt>
      <trkpt lat="43.82438" lon="5.16568">
        <ele>319.3</ele>
        <time>2016-03-24T14:45:17Z</time>
      </trkpt>
      <trkpt lat="43.82436" lon="5.16554">
        <ele>315.93</ele>
        <time>2016-03-24T14:45:39Z</time>
      </trkpt>
      <trkpt lat="43.82432" lon="5.16539">
        <ele>313.05</ele>
        <time>2016-03-24T14:45:53Z</time>
      </trkpt>
      <trkpt lat="43.82436" lon="5.1653">
        <ele>309.68</ele>
        <time>2016-03-24T14:46:10Z</time>
      </trkpt>
      <trkpt lat="43.82439" lon="5.16524">
        <ele>308.72</ele>
        <time>2016-03-24T14:46:16Z</time>
      </trkpt>
      <trkpt lat="43.82444" lon="5.16514">
        <ele>305.36</ele>
        <time>2016-03-24T14:46:32Z</time>
      </trkpt>
      <trkpt lat="43.82446" lon="5.16506">
        <ele>301.99</ele>
        <time>2016-03-24T14:46:53Z</time>
      </trkpt>
      <trkpt lat="43.8246" lon="5.16491">
        <ele>299.11</ele>
        <time>2016-03-24T14:47:08Z</time>
      </trkpt>
      <trkpt lat="43.82469" lon="5.16488">
        <ele>296.22</ele>
        <time>2016-03-24T14:47:23Z</time>
      </trkpt>
      <trkpt lat="43.82469" lon="5.16478">
        <ele>293.34</ele>
        <time>2016-03-24T14:47:42Z</time>
      </trkpt>
      <trkpt lat="43.82461" lon="5.16475">
        <ele>290.94</ele>
        <time>2016-03-24T14:47:57Z</time>
      </trkpt>
      <trkpt lat="43.8246" lon="5.1648">
        <ele>289.49</ele>
        <time>2016-03-24T14:48:07Z</time>
      </trkpt>
      <trkpt lat="43.82468" lon="5.16455">
        <ele>289.97</ele>
        <time>2016-03-24T14:48:32Z</time>
      </trkpt>
      <trkpt lat="43.82481" lon="5.16431">
        <ele>287.57</ele>
        <time>2016-03-24T14:48:51Z</time>
      </trkpt>
      <trkpt lat="43.82489" lon="5.16415">
        <ele>284.69</ele>
        <time>2016-03-24T14:49:11Z</time>
      </trkpt>
      <trkpt lat="43.82486" lon="5.16408">
        <ele>283.25</ele>
        <time>2016-03-24T14:49:28Z</time>
      </trkpt>
      <trkpt lat="43.82486" lon="5.16403">
        <ele>282.28</ele>
        <time>2016-03-24T14:49:31Z</time>
      </trkpt>
      <trkpt lat="43.82513" lon="5.16393">
        <ele>279.4</ele>
        <time>2016-03-24T14:49:51Z</time>
      </trkpt>
      <trkpt lat="43.82522" lon="5.16373">
        <ele>276.04</ele>
        <time>2016-03-24T14:50:07Z</time>
      </trkpt>
      <trkpt lat="43.8253" lon="5.1636">
        <ele>273.15</ele>
        <time>2016-03-24T14:50:25Z</time>
      </trkpt>
      <trkpt lat="43.82533" lon="5.16342">
        <ele>270.27</ele>
        <time>2016-03-24T14:50:43Z</time>
      </trkpt>
      <trkpt lat="43.82537" lon="5.16337">
        <ele>269.79</ele>
        <time>2016-03-24T14:51:03Z</time>
      </trkpt>
      <trkpt lat="43.82538" lon="5.16337">
        <ele>268.83</ele>
        <time>2016-03-24T14:51:26Z</time>
      </trkpt>
      <trkpt lat="43.82539" lon="5.1633">
        <ele>268.35</ele>
        <time>2016-03-24T14:51:35Z</time>
      </trkpt>
      <trkpt lat="43.82551" lon="5.16314">
        <ele>265.94</ele>
        <time>2016-03-24T14:51:56Z</time>
      </trkpt>
      <trkpt lat="43.82563" lon="5.1631">
        <ele>262.58</ele>
        <time>2016-03-24T14:52:11Z</time>
      </trkpt>
      <trkpt lat="43.82574" lon="5.16307">
        <ele>259.69</ele>
        <time>2016-03-24T14:52:26Z</time>
      </trkpt>
      <trkpt lat="43.82587" lon="5.16287">
        <ele>256.81</ele>
        <time>2016-03-24T14:52:47Z</time>
      </trkpt>
      <trkpt lat="43.82591" lon="5.16285">
        <ele>253.93</ele>
        <time>2016-03-24T14:53:05Z</time>
      </trkpt>
      <trkpt lat="43.82609" lon="5.16273">
        <ele>251.04</ele>
        <time>2016-03-24T14:53:23Z</time>
      </trkpt>
      <trkpt lat="43.82617" lon="5.16271">
        <ele>248.16</ele>
        <time>2016-03-24T14:53:42Z</time>
      </trkpt>
      <trkpt lat="43.82625" lon="5.16272">
        <ele>244.79</ele>
        <time>2016-03-24T14:54:02Z</time>
      </trkpt>
      <trkpt lat="43.82646" lon="5.16272">
        <ele>241.91</ele>
        <time>2016-03-24T14:54:21Z</time>
      </trkpt>
      <trkpt lat="43.82658" lon="5.16274">
        <ele>239.51</ele>
        <time>2016-03-24T14:54:40Z</time>
      </trkpt>
      <trkpt lat="43.82674" lon="5.1627">
        <ele>235.66</ele>
        <time>2016-03-24T14:55:00Z</time>
      </trkpt>
      <trkpt lat="43.82693" lon="5.16268">
        <ele>232.78</ele>
        <time>2016-03-24T14:55:20Z</time>
      </trkpt>
      <trkpt lat="43.82706" lon="5.16274">
        <ele>229.41</ele>
        <time>2016-03-24T14:55:36Z</time>
      </trkpt>
      <trkpt lat="43.82714" lon="5.16272">
        <ele>228.45</ele>
        <time>2016-03-24T14:55:57Z</time>
      </trkpt>
      <trkpt lat="43.82721" lon="5.16276">
        <ele>225.57</ele>
        <time>2016-03-24T14:56:17Z</time>
      </trkpt>
      <trkpt lat="43.82736" lon="5.16271">
        <ele>224.12</ele>
        <time>2016-03-24T14:56:41Z</time>
      </trkpt>
      <trkpt lat="43.8274" lon="5.16263">
        <ele>224.12</ele>
        <time>2016-03-24T14:57:03Z</time>
      </trkpt>
      <trkpt lat="43.82741" lon="5.16263">
        <ele>223.64</ele>
        <time>2016-03-24T14:57:19Z</time>
      </trkpt>
      <trkpt lat="43.82742" lon="5.16267">
        <ele>224.12</ele>
        <time>2016-03-24T14:57:39Z</time>
      </trkpt>
      <trkpt lat="43.82742" lon="5.16264">
        <ele>224.12</ele>
        <time>2016-03-24T14:58:04Z</time>
      </trkpt>
      <trkpt lat="43.8274" lon="5.1626">
        <ele>224.12</ele>
        <time>2016-03-24T14:58:21Z</time>
      </trkpt>
      <trkpt lat="43.82741" lon="5.16262">
        <ele>224.12</ele>
        <time>2016-03-24T14:58:42Z</time>
      </trkpt>
      <trkpt lat="43.82743" lon="5.1626">
        <ele>224.12</ele>
        <time>2016-03-24T14:59:10Z</time>
      </trkpt>
      <trkpt lat="43.82742" lon="5.16265">
        <ele>224.12</ele>
        <time>2016-03-24T14:59:38Z</time>
      </trkpt>
      <trkpt lat="43.82745" lon="5.16263">
        <ele>224.61</ele>
        <time>2016-03-24T15:00:02Z</time>
      </trkpt>
      <trkpt lat="43.82753" lon="5.16259">
        <ele>223.64</ele>
        <time>2016-03-24T15:00:26Z</time>
      </trkpt>
      <trkpt lat="43.82761" lon="5.16252">
        <ele>224.61</ele>
        <time>2016-03-24T15:00:48Z</time>
      </trkpt>
      <trkpt lat="43.82752" lon="5.16258">
        <ele>223.64</ele>
        <time>2016-03-24T15:01:04Z</time>
      </trkpt>
      <trkpt lat="43.82746" lon="5.16263">
        <ele>223.64</ele>
        <time>2016-03-24T15:01:20Z</time>
      </trkpt>
      <trkpt lat="43.82749" lon="5.1626">
        <ele>224.61</ele>
        <time>2016-03-24T15:01:46Z</time>
      </trkpt>
      <trkpt lat="43.82749" lon="5.16259">
        <ele>224.12</ele>
        <time>2016-03-24T15:02:06Z</time>
      </trkpt>
      <trkpt lat="43.82748" lon="5.16258">
        <ele>223.16</ele>
        <time>2016-03-24T15:02:10Z</time>
      </trkpt>
      <trkpt lat="43.82734" lon="5.16272">
        <ele>221.24</ele>
        <time>2016-03-24T15:02:29Z</time>
      </trkpt>
      <trkpt lat="43.82737" lon="5.16274">
        <ele>221.24</ele>
        <time>2016-03-24T15:02:45Z</time>
      </trkpt>
      <trkpt lat="43.82739" lon="5.16268">
        <ele>221.72</ele>
        <time>2016-03-24T15:03:04Z</time>
      </trkpt>
      <trkpt lat="43.82747" lon="5.1626">
        <ele>221.72</ele>
        <time>2016-03-24T15:03:24Z</time>
      </trkpt>
      <trkpt lat="43.82749" lon="5.16267">
        <ele>221.24</ele>
        <time>2016-03-24T15:03:47Z</time>
      </trkpt>
      <trkpt lat="43.82738" lon="5.16265">
        <ele>221.72</ele>
        <time>2016-03-24T15:04:04Z</time>
      </trkpt>
      <trkpt lat="43.82731" lon="5.16261">
        <ele>221.72</ele>
        <time>2016-03-24T15:04:22Z</time>
      </trkpt>
      <trkpt lat="43.82737" lon="5.16257">
        <ele>222.2</ele>
        <time>2016-03-24T15:04:42Z</time>
      </trkpt>
      <trkpt lat="43.82734" lon="5.16265">
        <ele>223.16</ele>
        <time>2016-03-24T15:05:02Z</time>
      </trkpt>
      <trkpt lat="43.82731" lon="5.16264">
        <ele>223.64</ele>
        <time>2016-03-24T15:05:26Z</time>
      </trkpt>
      <trkpt lat="43.82739" lon="5.16262">
        <ele>224.61</ele>
        <time>2016-03-24T15:05:43Z</time>
      </trkpt>
      <trkpt lat="43.82753" lon="5.16256">
        <ele>226.05</ele>
        <time>2016-03-24T15:06:01Z</time>
      </trkpt>
      <trkpt lat="43.82765" lon="5.16257">
        <ele>225.57</ele>
        <time>2016-03-24T15:06:21Z</time>
      </trkpt>
      <trkpt lat="43.82773" lon="5.1626">
        <ele>225.57</ele>
        <time>2016-03-24T15:06:29Z</time>
      </trkpt>
      <trkpt lat="43.82793" lon="5.1628">
        <ele>225.57</ele>
        <time>2016-03-24T15:06:51Z</time>
      </trkpt>
      <trkpt lat="43.82797" lon="5.16274">
        <ele>225.57</ele>
        <time>2016-03-24T15:06:56Z</time>
      </trkpt>
      <trkpt lat="43.82808" lon="5.16252">
        <ele>226.05</ele>
        <time>2016-03-24T15:07:20Z</time>
      </trkpt>
      <trkpt lat="43.82821" lon="5.16238">
        <ele>229.41</ele>
        <time>2016-03-24T15:07:39Z</time>
      </trkpt>
      <trkpt lat="43.82818" lon="5.1622">
        <ele>231.33</ele>
        <time>2016-03-24T15:07:59Z</time>
      </trkpt>
      <trkpt lat="43.8281" lon="5.162">
        <ele>234.7</ele>
        <time>2016-03-24T15:08:20Z</time>
      </trkpt>
      <trkpt lat="43.8282" lon="5.16181">
        <ele>236.14</ele>
        <time>2016-03-24T15:08:35Z</time>
      </trkpt>
      <trkpt lat="43.82816" lon="5.1617">
        <ele>237.58</ele>
        <time>2016-03-24T15:08:44Z</time>
      </trkpt>
      <trkpt lat="43.82815" lon="5.16157">
        <ele>238.54</ele>
        <time>2016-03-24T15:09:03Z</time>
      </trkpt>
      <trkpt lat="43.82804" lon="5.16155">
        <ele>239.99</ele>
        <time>2016-03-24T15:09:17Z</time>
      </trkpt>
      <trkpt lat="43.82798" lon="5.16142">
        <ele>241.43</ele>
        <time>2016-03-24T15:09:31Z</time>
      </trkpt>
      <trkpt lat="43.82805" lon="5.16146">
        <ele>242.39</ele>
        <time>2016-03-24T15:09:48Z</time>
      </trkpt>
      <trkpt lat="43.828" lon="5.16139">
        <ele>242.87</ele>
        <time>2016-03-24T15:10:02Z</time>
      </trkpt>
      <trkpt lat="43.82803" lon="5.16133">
        <ele>242.39</ele>
        <time>2016-03-24T15:10:25Z</time>
      </trkpt>
      <trkpt lat="43.82806" lon="5.16141">
        <ele>242.39</ele>
        <time>2016-03-24T15:10:50Z</time>
      </trkpt>
      <trkpt lat="43.82806" lon="5.16141">
        <ele>241.91</ele>
        <time>2016-03-24T15:11:09Z</time>
      </trkpt>
      <trkpt lat="43.82808" lon="5.16141">
        <ele>242.39</ele>
        <time>2016-03-24T15:11:27Z</time>
      </trkpt>
      <trkpt lat="43.82799" lon="5.16133">
        <ele>244.31</ele>
        <time>2016-03-24T15:11:45Z</time>
      </trkpt>
      <trkpt lat="43.8279" lon="5.16117">
        <ele>247.2</ele>
        <time>2016-03-24T15:12:10Z</time>
      </trkpt>
      <trkpt lat="43.82791" lon="5.16133">
        <ele>245.27</ele>
        <time>2016-03-24T15:12:30Z</time>
      </trkpt>
      <trkpt lat="43.82791" lon="5.16129">
        <ele>242.87</ele>
        <time>2016-03-24T15:12:40Z</time>
      </trkpt>
      <trkpt lat="43.82806" lon="5.16123">
        <ele>243.35</ele>
        <time>2016-03-24T15:12:58Z</time>
      </trkpt>
      <trkpt lat="43.82806" lon="5.16116">
        <ele>243.83</ele>
        <time>2016-03-24T15:13:07Z</time>
      </trkpt>
      <trkpt lat="43.82807" lon="5.16103">
        <ele>243.83</ele>
        <time>2016-03-24T15:13:17Z</time>
      </trkpt>
      <trkpt lat="43.82789" lon="5.16083">
        <ele>243.83</ele>
        <time>2016-03-24T15:13:34Z</time>
      </trkpt>
      <trkpt lat="43.8278" lon="5.1605">
        <ele>246.72</ele>
        <time>2016-03-24T15:13:57Z</time>
      </trkpt>
      <trkpt lat="43.82788" lon="5.16064">
        <ele>249.6</ele>
        <time>2016-03-24T15:14:22Z</time>
      </trkpt>
      <trkpt lat="43.8279" lon="5.16082">
        <ele>252.48</ele>
        <time>2016-03-24T15:14:43Z</time>
      </trkpt>
      <trkpt lat="43.82779" lon="5.16097">
        <ele>253.93</ele>
        <time>2016-03-24T15:14:54Z</time>
      </trkpt>
      <trkpt lat="43.8277" lon="5.16112">
        <ele>257.29</ele>
        <time>2016-03-24T15:15:09Z</time>
      </trkpt>
      <trkpt lat="43.8275" lon="5.16128">
        <ele>258.73</ele>
        <time>2016-03-24T15:15:25Z</time>
      </trkpt>
      <trkpt lat="43.82757" lon="5.16134">
        <ele>259.21</ele>
        <time>2016-03-24T15:15:36Z</time>
      </trkpt>
      <trkpt lat="43.82712" lon="5.16169">
        <ele>270.27</ele>
        <time>2016-03-24T15:17:47Z</time>
      </trkpt>
      <trkpt lat="43.82758" lon="5.1615">
        <ele>270.27</ele>
        <time>2016-03-24T15:18:21Z</time>
      </trkpt>
      <trkpt lat="43.82759" lon="5.16149">
        <ele>270.27</ele>
        <time>2016-03-24T15:18:22Z</time>
      </trkpt>
      <trkpt lat="43.82739" lon="5.16145">
        <ele>272.67</ele>
        <time>2016-03-24T15:18:35Z</time>
      </trkpt>
      <trkpt lat="43.82733" lon="5.16154">
        <ele>275.56</ele>
        <time>2016-03-24T15:18:48Z</time>
      </trkpt>
      <trkpt lat="43.82735" lon="5.16144">
        <ele>277</ele>
        <time>2016-03-24T15:19:02Z</time>
      </trkpt>
      <trkpt lat="43.82741" lon="5.16123">
        <ele>278.92</ele>
        <time>2016-03-24T15:19:21Z</time>
      </trkpt>
      <trkpt lat="43.8273" lon="5.16099">
        <ele>280.36</ele>
        <time>2016-03-24T15:19:42Z</time>
      </trkpt>
      <trkpt lat="43.82727" lon="5.16099">
        <ele>281.32</ele>
        <time>2016-03-24T15:20:00Z</time>
      </trkpt>
      <trkpt lat="43.82724" lon="5.16102">
        <ele>282.77</ele>
        <time>2016-03-24T15:20:18Z</time>
      </trkpt>
      <trkpt lat="43.82727" lon="5.1611">
        <ele>283.73</ele>
        <time>2016-03-24T15:20:35Z</time>
      </trkpt>
      <trkpt lat="43.82723" lon="5.16111">
        <ele>283.73</ele>
        <time>2016-03-24T15:20:49Z</time>
      </trkpt>
      <trkpt lat="43.82715" lon="5.16112">
        <ele>287.09</ele>
        <time>2016-03-24T15:21:00Z</time>
      </trkpt>
      <trkpt lat="43.82706" lon="5.16107">
        <ele>289.97</ele>
        <time>2016-03-24T15:21:15Z</time>
      </trkpt>
      <trkpt lat="43.82705" lon="5.16105">
        <ele>287.57</ele>
        <time>2016-03-24T15:21:21Z</time>
      </trkpt>
      <trkpt lat="43.82704" lon="5.16099">
        <ele>289.01</ele>
        <time>2016-03-24T15:21:25Z</time>
      </trkpt>
      <trkpt lat="43.82703" lon="5.16084">
        <ele>289.49</ele>
        <time>2016-03-24T15:21:48Z</time>
      </trkpt>
      <trkpt lat="43.82703" lon="5.16084">
        <ele>289.49</ele>
        <time>2016-03-24T15:22:12Z</time>
      </trkpt>
      <trkpt lat="43.82697" lon="5.16092">
        <ele>289.49</ele>
        <time>2016-03-24T15:22:26Z</time>
      </trkpt>
      <trkpt lat="43.82699" lon="5.16092">
        <ele>289.01</ele>
        <time>2016-03-24T15:22:51Z</time>
      </trkpt>
      <trkpt lat="43.82699" lon="5.16091">
        <ele>289.01</ele>
        <time>2016-03-24T15:23:18Z</time>
      </trkpt>
      <trkpt lat="43.82699" lon="5.16092">
        <ele>288.53</ele>
        <time>2016-03-24T15:23:36Z</time>
      </trkpt>
      <trkpt lat="43.82698" lon="5.16092">
        <ele>288.53</ele>
        <time>2016-03-24T15:24:00Z</time>
      </trkpt>
      <trkpt lat="43.82705" lon="5.161">
        <ele>288.05</ele>
        <time>2016-03-24T15:24:19Z</time>
      </trkpt>
      <trkpt lat="43.82707" lon="5.16103">
        <ele>285.65</ele>
        <time>2016-03-24T15:24:39Z</time>
      </trkpt>
      <trkpt lat="43.82717" lon="5.16111">
        <ele>283.73</ele>
        <time>2016-03-24T15:24:56Z</time>
      </trkpt>
      <trkpt lat="43.82719" lon="5.16117">
        <ele>284.21</ele>
        <time>2016-03-24T15:25:02Z</time>
      </trkpt>
      <trkpt lat="43.82722" lon="5.16113">
        <ele>284.69</ele>
        <time>2016-03-24T15:25:14Z</time>
      </trkpt>
      <trkpt lat="43.82725" lon="5.16112">
        <ele>283.73</ele>
        <time>2016-03-24T15:25:19Z</time>
      </trkpt>
      <trkpt lat="43.82735" lon="5.16104">
        <ele>284.69</ele>
        <time>2016-03-24T15:25:42Z</time>
      </trkpt>
      <trkpt lat="43.82728" lon="5.16106">
        <ele>283.25</ele>
        <time>2016-03-24T15:26:00Z</time>
      </trkpt>
      <trkpt lat="43.82727" lon="5.16093">
        <ele>280.84</ele>
        <time>2016-03-24T15:26:17Z</time>
      </trkpt>
      <trkpt lat="43.82729" lon="5.1609">
        <ele>279.88</ele>
        <time>2016-03-24T15:26:21Z</time>
      </trkpt>
      <trkpt lat="43.82741" lon="5.1607">
        <ele>277</ele>
        <time>2016-03-24T15:26:40Z</time>
      </trkpt>
      <trkpt lat="43.82748" lon="5.16051">
        <ele>275.07</ele>
        <time>2016-03-24T15:26:55Z</time>
      </trkpt>
      <trkpt lat="43.8275" lon="5.16041">
        <ele>274.11</ele>
        <time>2016-03-24T15:27:02Z</time>
      </trkpt>
      <trkpt lat="43.82751" lon="5.16032">
        <ele>273.15</ele>
        <time>2016-03-24T15:27:08Z</time>
      </trkpt>
      <trkpt lat="43.82758" lon="5.1602">
        <ele>270.75</ele>
        <time>2016-03-24T15:27:24Z</time>
      </trkpt>
      <trkpt lat="43.82766" lon="5.16004">
        <ele>268.35</ele>
        <time>2016-03-24T15:27:39Z</time>
      </trkpt>
      <trkpt lat="43.82775" lon="5.1599">
        <ele>265.46</ele>
        <time>2016-03-24T15:27:54Z</time>
      </trkpt>
      <trkpt lat="43.82779" lon="5.15976">
        <ele>264.02</ele>
        <time>2016-03-24T15:28:07Z</time>
      </trkpt>
      <trkpt lat="43.82779" lon="5.15965">
        <ele>261.14</ele>
        <time>2016-03-24T15:28:24Z</time>
      </trkpt>
      <trkpt lat="43.82786" lon="5.15978">
        <ele>259.69</ele>
        <time>2016-03-24T15:28:38Z</time>
      </trkpt>
      <trkpt lat="43.82786" lon="5.1599">
        <ele>259.69</ele>
        <time>2016-03-24T15:28:55Z</time>
      </trkpt>
      <trkpt lat="43.82785" lon="5.15993">
        <ele>259.69</ele>
        <time>2016-03-24T15:29:19Z</time>
      </trkpt>
      <trkpt lat="43.82787" lon="5.16002">
        <ele>259.69</ele>
        <time>2016-03-24T15:29:39Z</time>
      </trkpt>
      <trkpt lat="43.82788" lon="5.16001">
        <ele>259.21</ele>
        <time>2016-03-24T15:29:59Z</time>
      </trkpt>
      <trkpt lat="43.8279" lon="5.16011">
        <ele>258.73</ele>
        <time>2016-03-24T15:30:19Z</time>
      </trkpt>
      <trkpt lat="43.82791" lon="5.16014">
        <ele>258.73</ele>
        <time>2016-03-24T15:30:25Z</time>
      </trkpt>
      <trkpt lat="43.82787" lon="5.16035">
        <ele>258.73</ele>
        <time>2016-03-24T15:30:39Z</time>
      </trkpt>
      <trkpt lat="43.8279" lon="5.1605">
        <ele>259.21</ele>
        <time>2016-03-24T15:30:57Z</time>
      </trkpt>
      <trkpt lat="43.82787" lon="5.16071">
        <ele>257.29</ele>
        <time>2016-03-24T15:31:15Z</time>
      </trkpt>
      <trkpt lat="43.82796" lon="5.16089">
        <ele>254.41</ele>
        <time>2016-03-24T15:31:29Z</time>
      </trkpt>
      <trkpt lat="43.82801" lon="5.16081">
        <ele>252.48</ele>
        <time>2016-03-24T15:31:45Z</time>
      </trkpt>
      <trkpt lat="43.82813" lon="5.1607">
        <ele>249.12</ele>
        <time>2016-03-24T15:32:03Z</time>
      </trkpt>
      <trkpt lat="43.82817" lon="5.16071">
        <ele>248.64</ele>
        <time>2016-03-24T15:32:07Z</time>
      </trkpt>
      <trkpt lat="43.82825" lon="5.16079">
        <ele>246.72</ele>
        <time>2016-03-24T15:32:26Z</time>
      </trkpt>
      <trkpt lat="43.82827" lon="5.16095">
        <ele>243.35</ele>
        <time>2016-03-24T15:32:45Z</time>
      </trkpt>
      <trkpt lat="43.82823" lon="5.16092">
        <ele>241.43</ele>
        <time>2016-03-24T15:32:54Z</time>
      </trkpt>
      <trkpt lat="43.82831" lon="5.16094">
        <ele>241.43</ele>
        <time>2016-03-24T15:32:56Z</time>
      </trkpt>
      <trkpt lat="43.82842" lon="5.16098">
        <ele>240.47</ele>
        <time>2016-03-24T15:33:02Z</time>
      </trkpt>
      <trkpt lat="43.82849" lon="5.16113">
        <ele>239.51</ele>
        <time>2016-03-24T15:33:14Z</time>
      </trkpt>
      <trkpt lat="43.82849" lon="5.16118">
        <ele>238.54</ele>
        <time>2016-03-24T15:33:21Z</time>
      </trkpt>
      <trkpt lat="43.82856" lon="5.16128">
        <ele>239.02</ele>
        <time>2016-03-24T15:33:40Z</time>
      </trkpt>
      <trkpt lat="43.8285" lon="5.16121">
        <ele>239.02</ele>
        <time>2016-03-24T15:34:09Z</time>
      </trkpt>
      <trkpt lat="43.82851" lon="5.16127">
        <ele>239.51</ele>
        <time>2016-03-24T15:34:35Z</time>
      </trkpt>
    </trkseg>
  </trk>
</gpx>